<?xml version="1.0" encoding="UTF-8" standalone="no" ?>
<gpx xmlns="http://www.topografix.com/GPX/1/1" xmlns:xsi="http://www.w3.org/2001/XMLSchema-instance" xsi:schemaLocation="http://www.topografix.com/GPX/1/1 http://www.topografix.com/GPX/1/1/gpx.xsd" version="1.1" creator="VisuGPX - https://www.visugpx.com">
  <metadata>
    <name>LE MUY LA COLLE DU ROUET</name>
    <desc><![CDATA[Randonnée dans la forêt de la Colle du Rouet à partir du parking situé sur la D47,à environ un kilomètre après le pont de l'Endre, sur la gauche. Passage au trou de la Jarre, à côté de l'emplacement de l'aéromodélisme, puis retour par la piste du portail du Rouet.]]></desc>
  </metadata>
  <trk>
    <name><![CDATA[Tracé actuel: 15 NOV 2016 10:54]]></name>
    <trkseg>
      <trkpt lat="43.50785" lon="6.59973">
        <ele>-74.85</ele>
        <time>2016-11-15T09:54:27Z</time>
      </trkpt>
      <trkpt lat="43.50785" lon="6.59973">
        <ele>-75.33</ele>
        <time>2016-11-15T09:54:28Z</time>
      </trkpt>
      <trkpt lat="43.50763" lon="6.59988">
        <ele>-75.33</ele>
        <time>2016-11-15T09:54:54Z</time>
      </trkpt>
      <trkpt lat="43.50764" lon="6.59989">
        <ele>-70.52</ele>
        <time>2016-11-15T09:55:05Z</time>
      </trkpt>
      <trkpt lat="43.50764" lon="6.59989">
        <ele>-66.19</ele>
        <time>2016-11-15T09:55:06Z</time>
      </trkpt>
      <trkpt lat="43.50764" lon="6.59989">
        <ele>-61.87</ele>
        <time>2016-11-15T09:55:07Z</time>
      </trkpt>
      <trkpt lat="43.50764" lon="6.59989">
        <ele>-58.02</ele>
        <time>2016-11-15T09:55:08Z</time>
      </trkpt>
      <trkpt lat="43.50764" lon="6.5999">
        <ele>-54.18</ele>
        <time>2016-11-15T09:55:09Z</time>
      </trkpt>
      <trkpt lat="43.50764" lon="6.5999">
        <ele>-50.33</ele>
        <time>2016-11-15T09:55:10Z</time>
      </trkpt>
      <trkpt lat="43.50764" lon="6.5999">
        <ele>-46.97</ele>
        <time>2016-11-15T09:55:11Z</time>
      </trkpt>
      <trkpt lat="43.50765" lon="6.5999">
        <ele>-43.12</ele>
        <time>2016-11-15T09:55:12Z</time>
      </trkpt>
      <trkpt lat="43.50764" lon="6.5999">
        <ele>-39.76</ele>
        <time>2016-11-15T09:55:13Z</time>
      </trkpt>
      <trkpt lat="43.50764" lon="6.5999">
        <ele>-36.39</ele>
        <time>2016-11-15T09:55:14Z</time>
      </trkpt>
      <trkpt lat="43.50765" lon="6.5999">
        <ele>-33.51</ele>
        <time>2016-11-15T09:55:15Z</time>
      </trkpt>
      <trkpt lat="43.50765" lon="6.5999">
        <ele>-30.14</ele>
        <time>2016-11-15T09:55:16Z</time>
      </trkpt>
      <trkpt lat="43.50765" lon="6.59988">
        <ele>-27.26</ele>
        <time>2016-11-15T09:55:17Z</time>
      </trkpt>
      <trkpt lat="43.50763" lon="6.59987">
        <ele>-21.97</ele>
        <time>2016-11-15T09:55:19Z</time>
      </trkpt>
      <trkpt lat="43.50762" lon="6.59987">
        <ele>-16.21</ele>
        <time>2016-11-15T09:55:21Z</time>
      </trkpt>
      <trkpt lat="43.50761" lon="6.59988">
        <ele>-11.4</ele>
        <time>2016-11-15T09:55:23Z</time>
      </trkpt>
      <trkpt lat="43.5076" lon="6.59988">
        <ele>-6.59</ele>
        <time>2016-11-15T09:55:25Z</time>
      </trkpt>
      <trkpt lat="43.50759" lon="6.59989">
        <ele>-1.79</ele>
        <time>2016-11-15T09:55:27Z</time>
      </trkpt>
      <trkpt lat="43.50759" lon="6.59989">
        <ele>2.06</ele>
        <time>2016-11-15T09:55:29Z</time>
      </trkpt>
      <trkpt lat="43.5076" lon="6.59988">
        <ele>5.91</ele>
        <time>2016-11-15T09:55:31Z</time>
      </trkpt>
      <trkpt lat="43.50761" lon="6.59988">
        <ele>9.75</ele>
        <time>2016-11-15T09:55:33Z</time>
      </trkpt>
      <trkpt lat="43.50761" lon="6.59989">
        <ele>13.12</ele>
        <time>2016-11-15T09:55:35Z</time>
      </trkpt>
      <trkpt lat="43.5076" lon="6.59989">
        <ele>16.48</ele>
        <time>2016-11-15T09:55:37Z</time>
      </trkpt>
      <trkpt lat="43.5076" lon="6.59988">
        <ele>22.25</ele>
        <time>2016-11-15T09:55:41Z</time>
      </trkpt>
      <trkpt lat="43.50761" lon="6.59987">
        <ele>26.57</ele>
        <time>2016-11-15T09:55:44Z</time>
      </trkpt>
      <trkpt lat="43.50762" lon="6.59987">
        <ele>30.42</ele>
        <time>2016-11-15T09:55:47Z</time>
      </trkpt>
      <trkpt lat="43.50762" lon="6.59987">
        <ele>33.78</ele>
        <time>2016-11-15T09:55:50Z</time>
      </trkpt>
      <trkpt lat="43.50762" lon="6.59986">
        <ele>35.71</ele>
        <time>2016-11-15T09:55:52Z</time>
      </trkpt>
      <trkpt lat="43.50761" lon="6.59984">
        <ele>40.51</ele>
        <time>2016-11-15T09:55:57Z</time>
      </trkpt>
      <trkpt lat="43.50762" lon="6.59985">
        <ele>43.88</ele>
        <time>2016-11-15T09:56:01Z</time>
      </trkpt>
      <trkpt lat="43.50762" lon="6.59987">
        <ele>47.72</ele>
        <time>2016-11-15T09:56:06Z</time>
      </trkpt>
      <trkpt lat="43.50762" lon="6.59983">
        <ele>50.61</ele>
        <time>2016-11-15T09:56:11Z</time>
      </trkpt>
      <trkpt lat="43.50759" lon="6.59978">
        <ele>51.57</ele>
        <time>2016-11-15T09:56:18Z</time>
      </trkpt>
      <trkpt lat="43.50757" lon="6.59976">
        <ele>55.41</ele>
        <time>2016-11-15T09:56:20Z</time>
      </trkpt>
      <trkpt lat="43.50755" lon="6.59973">
        <ele>58.78</ele>
        <time>2016-11-15T09:56:29Z</time>
      </trkpt>
      <trkpt lat="43.50756" lon="6.59975">
        <ele>61.66</ele>
        <time>2016-11-15T09:56:40Z</time>
      </trkpt>
      <trkpt lat="43.50756" lon="6.59975">
        <ele>65.03</ele>
        <time>2016-11-15T09:56:47Z</time>
      </trkpt>
      <trkpt lat="43.50754" lon="6.59975">
        <ele>66.95</ele>
        <time>2016-11-15T09:57:10Z</time>
      </trkpt>
      <trkpt lat="43.50757" lon="6.59977">
        <ele>66.95</ele>
        <time>2016-11-15T09:57:31Z</time>
      </trkpt>
      <trkpt lat="43.50753" lon="6.59974">
        <ele>66.95</ele>
        <time>2016-11-15T09:57:46Z</time>
      </trkpt>
      <trkpt lat="43.50754" lon="6.59974">
        <ele>69.83</ele>
        <time>2016-11-15T09:58:00Z</time>
      </trkpt>
      <trkpt lat="43.50753" lon="6.59974">
        <ele>66.95</ele>
        <time>2016-11-15T09:58:01Z</time>
      </trkpt>
      <trkpt lat="43.50753" lon="6.59974">
        <ele>66.95</ele>
        <time>2016-11-15T09:58:23Z</time>
      </trkpt>
      <trkpt lat="43.50754" lon="6.59975">
        <ele>66.95</ele>
        <time>2016-11-15T09:58:26Z</time>
      </trkpt>
      <trkpt lat="43.50762" lon="6.59983">
        <ele>67.43</ele>
        <time>2016-11-15T09:58:44Z</time>
      </trkpt>
      <trkpt lat="43.50761" lon="6.59983">
        <ele>68.39</ele>
        <time>2016-11-15T09:58:47Z</time>
      </trkpt>
      <trkpt lat="43.50753" lon="6.59975">
        <ele>66.95</ele>
        <time>2016-11-15T09:58:59Z</time>
      </trkpt>
      <trkpt lat="43.50742" lon="6.59973">
        <ele>66.95</ele>
        <time>2016-11-15T09:59:09Z</time>
      </trkpt>
      <trkpt lat="43.50724" lon="6.59971">
        <ele>66.47</ele>
        <time>2016-11-15T09:59:24Z</time>
      </trkpt>
      <trkpt lat="43.50714" lon="6.5997">
        <ele>65.99</ele>
        <time>2016-11-15T09:59:35Z</time>
      </trkpt>
      <trkpt lat="43.50712" lon="6.59972">
        <ele>66.47</ele>
        <time>2016-11-15T09:59:51Z</time>
      </trkpt>
      <trkpt lat="43.50712" lon="6.59971">
        <ele>66.47</ele>
        <time>2016-11-15T10:00:00Z</time>
      </trkpt>
      <trkpt lat="43.50711" lon="6.59976">
        <ele>66.47</ele>
        <time>2016-11-15T10:00:10Z</time>
      </trkpt>
      <trkpt lat="43.50709" lon="6.59973">
        <ele>66.47</ele>
        <time>2016-11-15T10:00:14Z</time>
      </trkpt>
      <trkpt lat="43.50699" lon="6.59972">
        <ele>66.95</ele>
        <time>2016-11-15T10:00:22Z</time>
      </trkpt>
      <trkpt lat="43.50693" lon="6.59976">
        <ele>67.43</ele>
        <time>2016-11-15T10:00:28Z</time>
      </trkpt>
      <trkpt lat="43.50686" lon="6.59981">
        <ele>67.91</ele>
        <time>2016-11-15T10:00:35Z</time>
      </trkpt>
      <trkpt lat="43.50675" lon="6.59994">
        <ele>69.35</ele>
        <time>2016-11-15T10:00:50Z</time>
      </trkpt>
      <trkpt lat="43.50668" lon="6.60005">
        <ele>70.31</ele>
        <time>2016-11-15T10:01:02Z</time>
      </trkpt>
      <trkpt lat="43.50656" lon="6.6002">
        <ele>71.27</ele>
        <time>2016-11-15T10:01:16Z</time>
      </trkpt>
      <trkpt lat="43.50655" lon="6.60021">
        <ele>71.27</ele>
        <time>2016-11-15T10:01:18Z</time>
      </trkpt>
      <trkpt lat="43.50652" lon="6.60025">
        <ele>71.76</ele>
        <time>2016-11-15T10:01:22Z</time>
      </trkpt>
      <trkpt lat="43.5065" lon="6.60034">
        <ele>71.76</ele>
        <time>2016-11-15T10:01:29Z</time>
      </trkpt>
      <trkpt lat="43.50646" lon="6.60036">
        <ele>72.24</ele>
        <time>2016-11-15T10:01:33Z</time>
      </trkpt>
      <trkpt lat="43.50638" lon="6.60051">
        <ele>73.2</ele>
        <time>2016-11-15T10:01:47Z</time>
      </trkpt>
      <trkpt lat="43.50637" lon="6.60054">
        <ele>73.2</ele>
        <time>2016-11-15T10:01:50Z</time>
      </trkpt>
      <trkpt lat="43.50636" lon="6.60056">
        <ele>73.2</ele>
        <time>2016-11-15T10:01:52Z</time>
      </trkpt>
      <trkpt lat="43.5063" lon="6.60064">
        <ele>74.16</ele>
        <time>2016-11-15T10:02:00Z</time>
      </trkpt>
      <trkpt lat="43.50622" lon="6.60078">
        <ele>75.12</ele>
        <time>2016-11-15T10:02:14Z</time>
      </trkpt>
      <trkpt lat="43.50612" lon="6.60095">
        <ele>75.6</ele>
        <time>2016-11-15T10:02:29Z</time>
      </trkpt>
      <trkpt lat="43.50601" lon="6.60109">
        <ele>76.56</ele>
        <time>2016-11-15T10:02:43Z</time>
      </trkpt>
      <trkpt lat="43.50589" lon="6.60123">
        <ele>77.52</ele>
        <time>2016-11-15T10:02:58Z</time>
      </trkpt>
      <trkpt lat="43.50586" lon="6.60127">
        <ele>77.52</ele>
        <time>2016-11-15T10:03:02Z</time>
      </trkpt>
      <trkpt lat="43.50576" lon="6.60142">
        <ele>77.52</ele>
        <time>2016-11-15T10:03:16Z</time>
      </trkpt>
      <trkpt lat="43.50567" lon="6.60157">
        <ele>77.52</ele>
        <time>2016-11-15T10:03:28Z</time>
      </trkpt>
      <trkpt lat="43.50568" lon="6.60161">
        <ele>77.52</ele>
        <time>2016-11-15T10:03:31Z</time>
      </trkpt>
      <trkpt lat="43.50567" lon="6.60163">
        <ele>77.52</ele>
        <time>2016-11-15T10:03:33Z</time>
      </trkpt>
      <trkpt lat="43.50562" lon="6.60169">
        <ele>77.04</ele>
        <time>2016-11-15T10:03:39Z</time>
      </trkpt>
      <trkpt lat="43.50558" lon="6.60185">
        <ele>77.04</ele>
        <time>2016-11-15T10:03:52Z</time>
      </trkpt>
      <trkpt lat="43.50551" lon="6.60191">
        <ele>77.04</ele>
        <time>2016-11-15T10:04:00Z</time>
      </trkpt>
      <trkpt lat="43.50542" lon="6.60205">
        <ele>77.04</ele>
        <time>2016-11-15T10:04:14Z</time>
      </trkpt>
      <trkpt lat="43.5054" lon="6.60212">
        <ele>76.56</ele>
        <time>2016-11-15T10:04:22Z</time>
      </trkpt>
      <trkpt lat="43.50538" lon="6.6021">
        <ele>77.04</ele>
        <time>2016-11-15T10:04:26Z</time>
      </trkpt>
      <trkpt lat="43.50536" lon="6.60207">
        <ele>77.04</ele>
        <time>2016-11-15T10:04:31Z</time>
      </trkpt>
      <trkpt lat="43.50524" lon="6.60203">
        <ele>78</ele>
        <time>2016-11-15T10:04:46Z</time>
      </trkpt>
      <trkpt lat="43.50518" lon="6.60207">
        <ele>78</ele>
        <time>2016-11-15T10:04:51Z</time>
      </trkpt>
      <trkpt lat="43.50513" lon="6.6021">
        <ele>78</ele>
        <time>2016-11-15T10:04:58Z</time>
      </trkpt>
      <trkpt lat="43.50499" lon="6.6022">
        <ele>77.52</ele>
        <time>2016-11-15T10:05:12Z</time>
      </trkpt>
      <trkpt lat="43.50485" lon="6.60228">
        <ele>77.04</ele>
        <time>2016-11-15T10:05:27Z</time>
      </trkpt>
      <trkpt lat="43.50471" lon="6.60235">
        <ele>76.56</ele>
        <time>2016-11-15T10:05:41Z</time>
      </trkpt>
      <trkpt lat="43.50456" lon="6.60246">
        <ele>75.6</ele>
        <time>2016-11-15T10:05:58Z</time>
      </trkpt>
      <trkpt lat="43.50441" lon="6.60253">
        <ele>74.64</ele>
        <time>2016-11-15T10:06:12Z</time>
      </trkpt>
      <trkpt lat="43.50431" lon="6.60258">
        <ele>74.16</ele>
        <time>2016-11-15T10:06:22Z</time>
      </trkpt>
      <trkpt lat="43.50429" lon="6.60259">
        <ele>73.68</ele>
        <time>2016-11-15T10:06:24Z</time>
      </trkpt>
      <trkpt lat="43.50418" lon="6.60267">
        <ele>73.2</ele>
        <time>2016-11-15T10:06:36Z</time>
      </trkpt>
      <trkpt lat="43.50413" lon="6.60272">
        <ele>72.72</ele>
        <time>2016-11-15T10:06:42Z</time>
      </trkpt>
      <trkpt lat="43.50404" lon="6.60278">
        <ele>71.76</ele>
        <time>2016-11-15T10:06:53Z</time>
      </trkpt>
      <trkpt lat="43.504" lon="6.60279">
        <ele>71.76</ele>
        <time>2016-11-15T10:06:56Z</time>
      </trkpt>
      <trkpt lat="43.50385" lon="6.6029">
        <ele>70.31</ele>
        <time>2016-11-15T10:07:12Z</time>
      </trkpt>
      <trkpt lat="43.50382" lon="6.60294">
        <ele>70.31</ele>
        <time>2016-11-15T10:07:16Z</time>
      </trkpt>
      <trkpt lat="43.50368" lon="6.60305">
        <ele>69.35</ele>
        <time>2016-11-15T10:07:30Z</time>
      </trkpt>
      <trkpt lat="43.50354" lon="6.60317">
        <ele>68.39</ele>
        <time>2016-11-15T10:07:46Z</time>
      </trkpt>
      <trkpt lat="43.50337" lon="6.60323">
        <ele>67.43</ele>
        <time>2016-11-15T10:08:01Z</time>
      </trkpt>
      <trkpt lat="43.50336" lon="6.60324">
        <ele>67.91</ele>
        <time>2016-11-15T10:08:03Z</time>
      </trkpt>
      <trkpt lat="43.50322" lon="6.60332">
        <ele>67.43</ele>
        <time>2016-11-15T10:08:16Z</time>
      </trkpt>
      <trkpt lat="43.5032" lon="6.60335">
        <ele>67.43</ele>
        <time>2016-11-15T10:08:20Z</time>
      </trkpt>
      <trkpt lat="43.50317" lon="6.60337">
        <ele>66.95</ele>
        <time>2016-11-15T10:08:23Z</time>
      </trkpt>
      <trkpt lat="43.50309" lon="6.60344">
        <ele>66.95</ele>
        <time>2016-11-15T10:08:31Z</time>
      </trkpt>
      <trkpt lat="43.50307" lon="6.60345">
        <ele>66.95</ele>
        <time>2016-11-15T10:08:33Z</time>
      </trkpt>
      <trkpt lat="43.50297" lon="6.60346">
        <ele>66.95</ele>
        <time>2016-11-15T10:08:41Z</time>
      </trkpt>
      <trkpt lat="43.50293" lon="6.60349">
        <ele>66.95</ele>
        <time>2016-11-15T10:08:45Z</time>
      </trkpt>
      <trkpt lat="43.50276" lon="6.60356">
        <ele>66.47</ele>
        <time>2016-11-15T10:09:02Z</time>
      </trkpt>
      <trkpt lat="43.50273" lon="6.60357">
        <ele>66.47</ele>
        <time>2016-11-15T10:09:05Z</time>
      </trkpt>
      <trkpt lat="43.5027" lon="6.60359">
        <ele>66.47</ele>
        <time>2016-11-15T10:09:08Z</time>
      </trkpt>
      <trkpt lat="43.50261" lon="6.60363">
        <ele>66.47</ele>
        <time>2016-11-15T10:09:17Z</time>
      </trkpt>
      <trkpt lat="43.50244" lon="6.60366">
        <ele>66.47</ele>
        <time>2016-11-15T10:09:31Z</time>
      </trkpt>
      <trkpt lat="43.5023" lon="6.60371">
        <ele>66.47</ele>
        <time>2016-11-15T10:09:45Z</time>
      </trkpt>
      <trkpt lat="43.50215" lon="6.6038">
        <ele>66.47</ele>
        <time>2016-11-15T10:09:59Z</time>
      </trkpt>
      <trkpt lat="43.5021" lon="6.60384">
        <ele>66.47</ele>
        <time>2016-11-15T10:10:04Z</time>
      </trkpt>
      <trkpt lat="43.50198" lon="6.60394">
        <ele>65.99</ele>
        <time>2016-11-15T10:10:16Z</time>
      </trkpt>
      <trkpt lat="43.50194" lon="6.60393">
        <ele>65.99</ele>
        <time>2016-11-15T10:10:19Z</time>
      </trkpt>
      <trkpt lat="43.50189" lon="6.60401">
        <ele>65.99</ele>
        <time>2016-11-15T10:10:26Z</time>
      </trkpt>
      <trkpt lat="43.50191" lon="6.60407">
        <ele>65.99</ele>
        <time>2016-11-15T10:10:39Z</time>
      </trkpt>
      <trkpt lat="43.50194" lon="6.60415">
        <ele>66.47</ele>
        <time>2016-11-15T10:10:56Z</time>
      </trkpt>
      <trkpt lat="43.50194" lon="6.60415">
        <ele>66.47</ele>
        <time>2016-11-15T10:11:14Z</time>
      </trkpt>
      <trkpt lat="43.50193" lon="6.60415">
        <ele>66.47</ele>
        <time>2016-11-15T10:11:30Z</time>
      </trkpt>
      <trkpt lat="43.50194" lon="6.60414">
        <ele>65.99</ele>
        <time>2016-11-15T10:11:49Z</time>
      </trkpt>
      <trkpt lat="43.50194" lon="6.60414">
        <ele>66.47</ele>
        <time>2016-11-15T10:12:05Z</time>
      </trkpt>
      <trkpt lat="43.50193" lon="6.60409">
        <ele>66.47</ele>
        <time>2016-11-15T10:12:13Z</time>
      </trkpt>
      <trkpt lat="43.50197" lon="6.60399">
        <ele>66.47</ele>
        <time>2016-11-15T10:12:27Z</time>
      </trkpt>
      <trkpt lat="43.50198" lon="6.60394">
        <ele>66.47</ele>
        <time>2016-11-15T10:12:42Z</time>
      </trkpt>
      <trkpt lat="43.50198" lon="6.60394">
        <ele>66.47</ele>
        <time>2016-11-15T10:13:12Z</time>
      </trkpt>
      <trkpt lat="43.50198" lon="6.60395">
        <ele>66.47</ele>
        <time>2016-11-15T10:13:28Z</time>
      </trkpt>
      <trkpt lat="43.50193" lon="6.60395">
        <ele>66.47</ele>
        <time>2016-11-15T10:13:42Z</time>
      </trkpt>
      <trkpt lat="43.50182" lon="6.60397">
        <ele>66.47</ele>
        <time>2016-11-15T10:13:56Z</time>
      </trkpt>
      <trkpt lat="43.50177" lon="6.60397">
        <ele>66.47</ele>
        <time>2016-11-15T10:14:01Z</time>
      </trkpt>
      <trkpt lat="43.50165" lon="6.60402">
        <ele>66.95</ele>
        <time>2016-11-15T10:14:14Z</time>
      </trkpt>
      <trkpt lat="43.50151" lon="6.60408">
        <ele>66.95</ele>
        <time>2016-11-15T10:14:28Z</time>
      </trkpt>
      <trkpt lat="43.50137" lon="6.60416">
        <ele>67.43</ele>
        <time>2016-11-15T10:14:44Z</time>
      </trkpt>
      <trkpt lat="43.50123" lon="6.6042">
        <ele>67.91</ele>
        <time>2016-11-15T10:14:58Z</time>
      </trkpt>
      <trkpt lat="43.5012" lon="6.60421">
        <ele>67.43</ele>
        <time>2016-11-15T10:15:00Z</time>
      </trkpt>
      <trkpt lat="43.50118" lon="6.60423">
        <ele>67.91</ele>
        <time>2016-11-15T10:15:03Z</time>
      </trkpt>
      <trkpt lat="43.50102" lon="6.6043">
        <ele>67.43</ele>
        <time>2016-11-15T10:15:18Z</time>
      </trkpt>
      <trkpt lat="43.50096" lon="6.60432">
        <ele>67.43</ele>
        <time>2016-11-15T10:15:24Z</time>
      </trkpt>
      <trkpt lat="43.50084" lon="6.60438">
        <ele>67.43</ele>
        <time>2016-11-15T10:15:35Z</time>
      </trkpt>
      <trkpt lat="43.50083" lon="6.60439">
        <ele>67.43</ele>
        <time>2016-11-15T10:15:37Z</time>
      </trkpt>
      <trkpt lat="43.50079" lon="6.60441">
        <ele>67.43</ele>
        <time>2016-11-15T10:15:40Z</time>
      </trkpt>
      <trkpt lat="43.50069" lon="6.60447">
        <ele>67.43</ele>
        <time>2016-11-15T10:15:51Z</time>
      </trkpt>
      <trkpt lat="43.50061" lon="6.60453">
        <ele>66.95</ele>
        <time>2016-11-15T10:16:00Z</time>
      </trkpt>
      <trkpt lat="43.50052" lon="6.60459">
        <ele>66.95</ele>
        <time>2016-11-15T10:16:10Z</time>
      </trkpt>
      <trkpt lat="43.50046" lon="6.60463">
        <ele>66.95</ele>
        <time>2016-11-15T10:16:16Z</time>
      </trkpt>
      <trkpt lat="43.50033" lon="6.60474">
        <ele>66.47</ele>
        <time>2016-11-15T10:16:30Z</time>
      </trkpt>
      <trkpt lat="43.50025" lon="6.6048">
        <ele>66.47</ele>
        <time>2016-11-15T10:16:38Z</time>
      </trkpt>
      <trkpt lat="43.50014" lon="6.60488">
        <ele>65.99</ele>
        <time>2016-11-15T10:16:50Z</time>
      </trkpt>
      <trkpt lat="43.50006" lon="6.60492">
        <ele>65.99</ele>
        <time>2016-11-15T10:16:57Z</time>
      </trkpt>
      <trkpt lat="43.49999" lon="6.60496">
        <ele>65.51</ele>
        <time>2016-11-15T10:17:04Z</time>
      </trkpt>
      <trkpt lat="43.49997" lon="6.60498">
        <ele>65.51</ele>
        <time>2016-11-15T10:17:06Z</time>
      </trkpt>
      <trkpt lat="43.49992" lon="6.60501">
        <ele>65.99</ele>
        <time>2016-11-15T10:17:10Z</time>
      </trkpt>
      <trkpt lat="43.4999" lon="6.60502">
        <ele>65.51</ele>
        <time>2016-11-15T10:17:12Z</time>
      </trkpt>
      <trkpt lat="43.49977" lon="6.6051">
        <ele>65.99</ele>
        <time>2016-11-15T10:17:26Z</time>
      </trkpt>
      <trkpt lat="43.49963" lon="6.60519">
        <ele>65.51</ele>
        <time>2016-11-15T10:17:40Z</time>
      </trkpt>
      <trkpt lat="43.49961" lon="6.6052">
        <ele>65.51</ele>
        <time>2016-11-15T10:17:42Z</time>
      </trkpt>
      <trkpt lat="43.49956" lon="6.60524">
        <ele>65.51</ele>
        <time>2016-11-15T10:17:48Z</time>
      </trkpt>
      <trkpt lat="43.49942" lon="6.60533">
        <ele>65.99</ele>
        <time>2016-11-15T10:18:02Z</time>
      </trkpt>
      <trkpt lat="43.49929" lon="6.6054">
        <ele>66.47</ele>
        <time>2016-11-15T10:18:15Z</time>
      </trkpt>
      <trkpt lat="43.49925" lon="6.60548">
        <ele>66.47</ele>
        <time>2016-11-15T10:18:21Z</time>
      </trkpt>
      <trkpt lat="43.49922" lon="6.6055">
        <ele>66.47</ele>
        <time>2016-11-15T10:18:25Z</time>
      </trkpt>
      <trkpt lat="43.49914" lon="6.60556">
        <ele>66.95</ele>
        <time>2016-11-15T10:18:33Z</time>
      </trkpt>
      <trkpt lat="43.49904" lon="6.60561">
        <ele>66.95</ele>
        <time>2016-11-15T10:18:42Z</time>
      </trkpt>
      <trkpt lat="43.49898" lon="6.60564">
        <ele>67.43</ele>
        <time>2016-11-15T10:18:48Z</time>
      </trkpt>
      <trkpt lat="43.49894" lon="6.60565">
        <ele>67.91</ele>
        <time>2016-11-15T10:18:52Z</time>
      </trkpt>
      <trkpt lat="43.49888" lon="6.60568">
        <ele>67.91</ele>
        <time>2016-11-15T10:18:58Z</time>
      </trkpt>
      <trkpt lat="43.49879" lon="6.60573">
        <ele>67.91</ele>
        <time>2016-11-15T10:19:07Z</time>
      </trkpt>
      <trkpt lat="43.49867" lon="6.6058">
        <ele>68.39</ele>
        <time>2016-11-15T10:19:20Z</time>
      </trkpt>
      <trkpt lat="43.49869" lon="6.60595">
        <ele>68.39</ele>
        <time>2016-11-15T10:19:34Z</time>
      </trkpt>
      <trkpt lat="43.4987" lon="6.60601">
        <ele>68.39</ele>
        <time>2016-11-15T10:19:47Z</time>
      </trkpt>
      <trkpt lat="43.49872" lon="6.60613">
        <ele>68.87</ele>
        <time>2016-11-15T10:19:58Z</time>
      </trkpt>
      <trkpt lat="43.49873" lon="6.60616">
        <ele>68.39</ele>
        <time>2016-11-15T10:20:01Z</time>
      </trkpt>
      <trkpt lat="43.49875" lon="6.60621">
        <ele>68.87</ele>
        <time>2016-11-15T10:20:05Z</time>
      </trkpt>
      <trkpt lat="43.49878" lon="6.60621">
        <ele>68.39</ele>
        <time>2016-11-15T10:20:08Z</time>
      </trkpt>
      <trkpt lat="43.4988" lon="6.60625">
        <ele>68.87</ele>
        <time>2016-11-15T10:20:12Z</time>
      </trkpt>
      <trkpt lat="43.49885" lon="6.60643">
        <ele>67.91</ele>
        <time>2016-11-15T10:20:26Z</time>
      </trkpt>
      <trkpt lat="43.49887" lon="6.60651">
        <ele>67.91</ele>
        <time>2016-11-15T10:20:33Z</time>
      </trkpt>
      <trkpt lat="43.49887" lon="6.60655">
        <ele>68.39</ele>
        <time>2016-11-15T10:20:36Z</time>
      </trkpt>
      <trkpt lat="43.49885" lon="6.60666">
        <ele>62.62</ele>
        <time>2016-11-15T10:20:46Z</time>
      </trkpt>
      <trkpt lat="43.49885" lon="6.60667">
        <ele>75.6</ele>
        <time>2016-11-15T10:20:47Z</time>
      </trkpt>
      <trkpt lat="43.49884" lon="6.60668">
        <ele>64.55</ele>
        <time>2016-11-15T10:20:48Z</time>
      </trkpt>
      <trkpt lat="43.49883" lon="6.60671">
        <ele>70.31</ele>
        <time>2016-11-15T10:20:50Z</time>
      </trkpt>
      <trkpt lat="43.49883" lon="6.60672">
        <ele>69.83</ele>
        <time>2016-11-15T10:20:51Z</time>
      </trkpt>
      <trkpt lat="43.49883" lon="6.60673">
        <ele>65.51</ele>
        <time>2016-11-15T10:20:52Z</time>
      </trkpt>
      <trkpt lat="43.49882" lon="6.60674">
        <ele>72.24</ele>
        <time>2016-11-15T10:20:53Z</time>
      </trkpt>
      <trkpt lat="43.49882" lon="6.60676">
        <ele>67.43</ele>
        <time>2016-11-15T10:20:54Z</time>
      </trkpt>
      <trkpt lat="43.49879" lon="6.60684">
        <ele>70.79</ele>
        <time>2016-11-15T10:21:02Z</time>
      </trkpt>
      <trkpt lat="43.49879" lon="6.60685">
        <ele>62.14</ele>
        <time>2016-11-15T10:21:03Z</time>
      </trkpt>
      <trkpt lat="43.49878" lon="6.60686">
        <ele>72.24</ele>
        <time>2016-11-15T10:21:04Z</time>
      </trkpt>
      <trkpt lat="43.49878" lon="6.60687">
        <ele>67.43</ele>
        <time>2016-11-15T10:21:05Z</time>
      </trkpt>
      <trkpt lat="43.49877" lon="6.60698">
        <ele>64.07</ele>
        <time>2016-11-15T10:21:13Z</time>
      </trkpt>
      <trkpt lat="43.49877" lon="6.60699">
        <ele>69.35</ele>
        <time>2016-11-15T10:21:14Z</time>
      </trkpt>
      <trkpt lat="43.49877" lon="6.60701">
        <ele>64.07</ele>
        <time>2016-11-15T10:21:16Z</time>
      </trkpt>
      <trkpt lat="43.49876" lon="6.60702">
        <ele>69.35</ele>
        <time>2016-11-15T10:21:17Z</time>
      </trkpt>
      <trkpt lat="43.49876" lon="6.60703">
        <ele>64.07</ele>
        <time>2016-11-15T10:21:19Z</time>
      </trkpt>
      <trkpt lat="43.49876" lon="6.60704">
        <ele>70.31</ele>
        <time>2016-11-15T10:21:20Z</time>
      </trkpt>
      <trkpt lat="43.49876" lon="6.60706">
        <ele>66.95</ele>
        <time>2016-11-15T10:21:23Z</time>
      </trkpt>
      <trkpt lat="43.49875" lon="6.60707">
        <ele>66.95</ele>
        <time>2016-11-15T10:21:24Z</time>
      </trkpt>
      <trkpt lat="43.49875" lon="6.60702">
        <ele>66.47</ele>
        <time>2016-11-15T10:21:30Z</time>
      </trkpt>
      <trkpt lat="43.49879" lon="6.60689">
        <ele>66.95</ele>
        <time>2016-11-15T10:21:37Z</time>
      </trkpt>
      <trkpt lat="43.49881" lon="6.60686">
        <ele>66.95</ele>
        <time>2016-11-15T10:21:40Z</time>
      </trkpt>
      <trkpt lat="43.49883" lon="6.60669">
        <ele>67.91</ele>
        <time>2016-11-15T10:21:50Z</time>
      </trkpt>
      <trkpt lat="43.49885" lon="6.60659">
        <ele>67.91</ele>
        <time>2016-11-15T10:21:56Z</time>
      </trkpt>
      <trkpt lat="43.4989" lon="6.60651">
        <ele>67.91</ele>
        <time>2016-11-15T10:22:02Z</time>
      </trkpt>
      <trkpt lat="43.49896" lon="6.60654">
        <ele>67.91</ele>
        <time>2016-11-15T10:22:09Z</time>
      </trkpt>
      <trkpt lat="43.49897" lon="6.60653">
        <ele>67.43</ele>
        <time>2016-11-15T10:22:13Z</time>
      </trkpt>
      <trkpt lat="43.49901" lon="6.60661">
        <ele>67.43</ele>
        <time>2016-11-15T10:22:21Z</time>
      </trkpt>
      <trkpt lat="43.49909" lon="6.60667">
        <ele>66.47</ele>
        <time>2016-11-15T10:22:28Z</time>
      </trkpt>
      <trkpt lat="43.49912" lon="6.60672">
        <ele>66.95</ele>
        <time>2016-11-15T10:22:32Z</time>
      </trkpt>
      <trkpt lat="43.49916" lon="6.60675">
        <ele>65.99</ele>
        <time>2016-11-15T10:22:36Z</time>
      </trkpt>
      <trkpt lat="43.49928" lon="6.60689">
        <ele>65.99</ele>
        <time>2016-11-15T10:22:50Z</time>
      </trkpt>
      <trkpt lat="43.49938" lon="6.60697">
        <ele>64.55</ele>
        <time>2016-11-15T10:23:00Z</time>
      </trkpt>
      <trkpt lat="43.4994" lon="6.60697">
        <ele>64.55</ele>
        <time>2016-11-15T10:23:02Z</time>
      </trkpt>
      <trkpt lat="43.49952" lon="6.60707">
        <ele>64.07</ele>
        <time>2016-11-15T10:23:16Z</time>
      </trkpt>
      <trkpt lat="43.49962" lon="6.60718">
        <ele>63.1</ele>
        <time>2016-11-15T10:23:29Z</time>
      </trkpt>
      <trkpt lat="43.49972" lon="6.6073">
        <ele>62.14</ele>
        <time>2016-11-15T10:23:42Z</time>
      </trkpt>
      <trkpt lat="43.49974" lon="6.60735">
        <ele>62.14</ele>
        <time>2016-11-15T10:23:46Z</time>
      </trkpt>
      <trkpt lat="43.49979" lon="6.60744">
        <ele>61.66</ele>
        <time>2016-11-15T10:23:54Z</time>
      </trkpt>
      <trkpt lat="43.49981" lon="6.60745">
        <ele>61.66</ele>
        <time>2016-11-15T10:23:56Z</time>
      </trkpt>
      <trkpt lat="43.49989" lon="6.60754">
        <ele>61.18</ele>
        <time>2016-11-15T10:24:05Z</time>
      </trkpt>
      <trkpt lat="43.50001" lon="6.60768">
        <ele>60.7</ele>
        <time>2016-11-15T10:24:20Z</time>
      </trkpt>
      <trkpt lat="43.50006" lon="6.60774">
        <ele>60.22</ele>
        <time>2016-11-15T10:24:27Z</time>
      </trkpt>
      <trkpt lat="43.50008" lon="6.60776">
        <ele>60.22</ele>
        <time>2016-11-15T10:24:29Z</time>
      </trkpt>
      <trkpt lat="43.5002" lon="6.60787">
        <ele>59.74</ele>
        <time>2016-11-15T10:24:43Z</time>
      </trkpt>
      <trkpt lat="43.50022" lon="6.60791">
        <ele>59.74</ele>
        <time>2016-11-15T10:24:47Z</time>
      </trkpt>
      <trkpt lat="43.50025" lon="6.60795">
        <ele>59.26</ele>
        <time>2016-11-15T10:24:51Z</time>
      </trkpt>
      <trkpt lat="43.50031" lon="6.60802">
        <ele>59.26</ele>
        <time>2016-11-15T10:25:05Z</time>
      </trkpt>
      <trkpt lat="43.50035" lon="6.60804">
        <ele>59.74</ele>
        <time>2016-11-15T10:25:19Z</time>
      </trkpt>
      <trkpt lat="43.50037" lon="6.60805">
        <ele>59.26</ele>
        <time>2016-11-15T10:25:25Z</time>
      </trkpt>
      <trkpt lat="43.50044" lon="6.60816">
        <ele>59.26</ele>
        <time>2016-11-15T10:25:37Z</time>
      </trkpt>
      <trkpt lat="43.50052" lon="6.6083">
        <ele>58.78</ele>
        <time>2016-11-15T10:25:51Z</time>
      </trkpt>
      <trkpt lat="43.50058" lon="6.60833">
        <ele>58.78</ele>
        <time>2016-11-15T10:26:05Z</time>
      </trkpt>
      <trkpt lat="43.50058" lon="6.60833">
        <ele>58.78</ele>
        <time>2016-11-15T10:26:09Z</time>
      </trkpt>
      <trkpt lat="43.50064" lon="6.6084">
        <ele>58.78</ele>
        <time>2016-11-15T10:26:15Z</time>
      </trkpt>
      <trkpt lat="43.5007" lon="6.60844">
        <ele>58.78</ele>
        <time>2016-11-15T10:26:21Z</time>
      </trkpt>
      <trkpt lat="43.50078" lon="6.60857">
        <ele>58.78</ele>
        <time>2016-11-15T10:26:32Z</time>
      </trkpt>
      <trkpt lat="43.50083" lon="6.60864">
        <ele>58.78</ele>
        <time>2016-11-15T10:26:39Z</time>
      </trkpt>
      <trkpt lat="43.50092" lon="6.60874">
        <ele>58.3</ele>
        <time>2016-11-15T10:26:51Z</time>
      </trkpt>
      <trkpt lat="43.50095" lon="6.60878">
        <ele>57.82</ele>
        <time>2016-11-15T10:26:55Z</time>
      </trkpt>
      <trkpt lat="43.50101" lon="6.60889">
        <ele>57.34</ele>
        <time>2016-11-15T10:27:05Z</time>
      </trkpt>
      <trkpt lat="43.50106" lon="6.60895">
        <ele>57.34</ele>
        <time>2016-11-15T10:27:11Z</time>
      </trkpt>
      <trkpt lat="43.50112" lon="6.6091">
        <ele>56.37</ele>
        <time>2016-11-15T10:27:23Z</time>
      </trkpt>
      <trkpt lat="43.50121" lon="6.6093">
        <ele>56.37</ele>
        <time>2016-11-15T10:27:38Z</time>
      </trkpt>
      <trkpt lat="43.50123" lon="6.60933">
        <ele>55.89</ele>
        <time>2016-11-15T10:27:41Z</time>
      </trkpt>
      <trkpt lat="43.50126" lon="6.60939">
        <ele>56.37</ele>
        <time>2016-11-15T10:27:47Z</time>
      </trkpt>
      <trkpt lat="43.50137" lon="6.60946">
        <ele>56.37</ele>
        <time>2016-11-15T10:27:57Z</time>
      </trkpt>
      <trkpt lat="43.5014" lon="6.60948">
        <ele>56.37</ele>
        <time>2016-11-15T10:28:00Z</time>
      </trkpt>
      <trkpt lat="43.50143" lon="6.6095">
        <ele>56.37</ele>
        <time>2016-11-15T10:28:03Z</time>
      </trkpt>
      <trkpt lat="43.50155" lon="6.60959">
        <ele>56.37</ele>
        <time>2016-11-15T10:28:16Z</time>
      </trkpt>
      <trkpt lat="43.50168" lon="6.60973">
        <ele>56.86</ele>
        <time>2016-11-15T10:28:29Z</time>
      </trkpt>
      <trkpt lat="43.50168" lon="6.60973">
        <ele>56.86</ele>
        <time>2016-11-15T10:28:31Z</time>
      </trkpt>
      <trkpt lat="43.50178" lon="6.60978">
        <ele>57.34</ele>
        <time>2016-11-15T10:28:40Z</time>
      </trkpt>
      <trkpt lat="43.50185" lon="6.60985">
        <ele>57.82</ele>
        <time>2016-11-15T10:28:52Z</time>
      </trkpt>
      <trkpt lat="43.50194" lon="6.60994">
        <ele>57.82</ele>
        <time>2016-11-15T10:29:03Z</time>
      </trkpt>
      <trkpt lat="43.50199" lon="6.60999">
        <ele>58.3</ele>
        <time>2016-11-15T10:29:09Z</time>
      </trkpt>
      <trkpt lat="43.50203" lon="6.61002">
        <ele>58.3</ele>
        <time>2016-11-15T10:29:13Z</time>
      </trkpt>
      <trkpt lat="43.50207" lon="6.61006">
        <ele>58.3</ele>
        <time>2016-11-15T10:29:17Z</time>
      </trkpt>
      <trkpt lat="43.50213" lon="6.61012">
        <ele>58.78</ele>
        <time>2016-11-15T10:29:25Z</time>
      </trkpt>
      <trkpt lat="43.50218" lon="6.61018">
        <ele>59.26</ele>
        <time>2016-11-15T10:29:31Z</time>
      </trkpt>
      <trkpt lat="43.50224" lon="6.61023">
        <ele>59.74</ele>
        <time>2016-11-15T10:29:40Z</time>
      </trkpt>
      <trkpt lat="43.50227" lon="6.61027">
        <ele>60.22</ele>
        <time>2016-11-15T10:29:45Z</time>
      </trkpt>
      <trkpt lat="43.50233" lon="6.61031">
        <ele>60.7</ele>
        <time>2016-11-15T10:29:51Z</time>
      </trkpt>
      <trkpt lat="43.50239" lon="6.61036">
        <ele>61.18</ele>
        <time>2016-11-15T10:29:56Z</time>
      </trkpt>
      <trkpt lat="43.50245" lon="6.61044">
        <ele>65.03</ele>
        <time>2016-11-15T10:30:04Z</time>
      </trkpt>
      <trkpt lat="43.50246" lon="6.61045">
        <ele>61.66</ele>
        <time>2016-11-15T10:30:05Z</time>
      </trkpt>
      <trkpt lat="43.50252" lon="6.61053">
        <ele>62.14</ele>
        <time>2016-11-15T10:30:15Z</time>
      </trkpt>
      <trkpt lat="43.50258" lon="6.61063">
        <ele>62.62</ele>
        <time>2016-11-15T10:30:24Z</time>
      </trkpt>
      <trkpt lat="43.50265" lon="6.61071">
        <ele>64.07</ele>
        <time>2016-11-15T10:30:34Z</time>
      </trkpt>
      <trkpt lat="43.50273" lon="6.61077">
        <ele>64.07</ele>
        <time>2016-11-15T10:30:41Z</time>
      </trkpt>
      <trkpt lat="43.50278" lon="6.61084">
        <ele>65.03</ele>
        <time>2016-11-15T10:30:50Z</time>
      </trkpt>
      <trkpt lat="43.50282" lon="6.61095">
        <ele>65.51</ele>
        <time>2016-11-15T10:31:01Z</time>
      </trkpt>
      <trkpt lat="43.50281" lon="6.61099">
        <ele>65.51</ele>
        <time>2016-11-15T10:31:05Z</time>
      </trkpt>
      <trkpt lat="43.50274" lon="6.61115">
        <ele>65.03</ele>
        <time>2016-11-15T10:31:17Z</time>
      </trkpt>
      <trkpt lat="43.50271" lon="6.61123">
        <ele>61.66</ele>
        <time>2016-11-15T10:31:24Z</time>
      </trkpt>
      <trkpt lat="43.5027" lon="6.61124">
        <ele>67.91</ele>
        <time>2016-11-15T10:31:25Z</time>
      </trkpt>
      <trkpt lat="43.5027" lon="6.61125">
        <ele>64.55</ele>
        <time>2016-11-15T10:31:26Z</time>
      </trkpt>
      <trkpt lat="43.50269" lon="6.61127">
        <ele>68.39</ele>
        <time>2016-11-15T10:31:28Z</time>
      </trkpt>
      <trkpt lat="43.50268" lon="6.61128">
        <ele>61.18</ele>
        <time>2016-11-15T10:31:29Z</time>
      </trkpt>
      <trkpt lat="43.50268" lon="6.61129">
        <ele>68.87</ele>
        <time>2016-11-15T10:31:30Z</time>
      </trkpt>
      <trkpt lat="43.50267" lon="6.6113">
        <ele>65.03</ele>
        <time>2016-11-15T10:31:31Z</time>
      </trkpt>
      <trkpt lat="43.50266" lon="6.61131">
        <ele>64.55</ele>
        <time>2016-11-15T10:31:33Z</time>
      </trkpt>
      <trkpt lat="43.50258" lon="6.61143">
        <ele>64.07</ele>
        <time>2016-11-15T10:31:43Z</time>
      </trkpt>
      <trkpt lat="43.50257" lon="6.61143">
        <ele>64.07</ele>
        <time>2016-11-15T10:31:44Z</time>
      </trkpt>
      <trkpt lat="43.50253" lon="6.61151">
        <ele>63.58</ele>
        <time>2016-11-15T10:31:51Z</time>
      </trkpt>
      <trkpt lat="43.50248" lon="6.61163">
        <ele>63.58</ele>
        <time>2016-11-15T10:31:59Z</time>
      </trkpt>
      <trkpt lat="43.50241" lon="6.61174">
        <ele>62.62</ele>
        <time>2016-11-15T10:32:12Z</time>
      </trkpt>
      <trkpt lat="43.50237" lon="6.61182">
        <ele>62.62</ele>
        <time>2016-11-15T10:32:17Z</time>
      </trkpt>
      <trkpt lat="43.50235" lon="6.61186">
        <ele>57.82</ele>
        <time>2016-11-15T10:32:22Z</time>
      </trkpt>
      <trkpt lat="43.50234" lon="6.61186">
        <ele>67.43</ele>
        <time>2016-11-15T10:32:23Z</time>
      </trkpt>
      <trkpt lat="43.50234" lon="6.61187">
        <ele>62.14</ele>
        <time>2016-11-15T10:32:24Z</time>
      </trkpt>
      <trkpt lat="43.50233" lon="6.61188">
        <ele>62.14</ele>
        <time>2016-11-15T10:32:25Z</time>
      </trkpt>
      <trkpt lat="43.50229" lon="6.61193">
        <ele>60.7</ele>
        <time>2016-11-15T10:32:30Z</time>
      </trkpt>
      <trkpt lat="43.50226" lon="6.612">
        <ele>60.22</ele>
        <time>2016-11-15T10:32:35Z</time>
      </trkpt>
      <trkpt lat="43.5022" lon="6.61213">
        <ele>60.22</ele>
        <time>2016-11-15T10:32:46Z</time>
      </trkpt>
      <trkpt lat="43.50214" lon="6.61225">
        <ele>60.7</ele>
        <time>2016-11-15T10:32:58Z</time>
      </trkpt>
      <trkpt lat="43.50213" lon="6.61227">
        <ele>61.18</ele>
        <time>2016-11-15T10:33:07Z</time>
      </trkpt>
      <trkpt lat="43.50213" lon="6.61227">
        <ele>60.7</ele>
        <time>2016-11-15T10:33:30Z</time>
      </trkpt>
      <trkpt lat="43.50214" lon="6.61227">
        <ele>61.18</ele>
        <time>2016-11-15T10:34:03Z</time>
      </trkpt>
      <trkpt lat="43.50215" lon="6.61228">
        <ele>61.18</ele>
        <time>2016-11-15T10:34:24Z</time>
      </trkpt>
      <trkpt lat="43.50216" lon="6.61231">
        <ele>61.18</ele>
        <time>2016-11-15T10:34:27Z</time>
      </trkpt>
      <trkpt lat="43.50218" lon="6.61237">
        <ele>61.18</ele>
        <time>2016-11-15T10:34:32Z</time>
      </trkpt>
      <trkpt lat="43.50218" lon="6.61245">
        <ele>60.7</ele>
        <time>2016-11-15T10:34:37Z</time>
      </trkpt>
      <trkpt lat="43.50222" lon="6.61252">
        <ele>60.7</ele>
        <time>2016-11-15T10:34:42Z</time>
      </trkpt>
      <trkpt lat="43.50223" lon="6.61258">
        <ele>56.86</ele>
        <time>2016-11-15T10:34:46Z</time>
      </trkpt>
      <trkpt lat="43.50223" lon="6.6126">
        <ele>63.58</ele>
        <time>2016-11-15T10:34:47Z</time>
      </trkpt>
      <trkpt lat="43.50223" lon="6.6127">
        <ele>61.66</ele>
        <time>2016-11-15T10:34:57Z</time>
      </trkpt>
      <trkpt lat="43.50222" lon="6.61273">
        <ele>61.66</ele>
        <time>2016-11-15T10:34:59Z</time>
      </trkpt>
      <trkpt lat="43.50218" lon="6.61283">
        <ele>62.14</ele>
        <time>2016-11-15T10:35:07Z</time>
      </trkpt>
      <trkpt lat="43.50214" lon="6.61293">
        <ele>62.14</ele>
        <time>2016-11-15T10:35:14Z</time>
      </trkpt>
      <trkpt lat="43.50206" lon="6.6131">
        <ele>62.14</ele>
        <time>2016-11-15T10:35:28Z</time>
      </trkpt>
      <trkpt lat="43.50205" lon="6.61312">
        <ele>62.14</ele>
        <time>2016-11-15T10:35:30Z</time>
      </trkpt>
      <trkpt lat="43.50203" lon="6.61319">
        <ele>61.18</ele>
        <time>2016-11-15T10:35:36Z</time>
      </trkpt>
      <trkpt lat="43.50198" lon="6.61326">
        <ele>61.18</ele>
        <time>2016-11-15T10:35:49Z</time>
      </trkpt>
      <trkpt lat="43.50196" lon="6.61331">
        <ele>60.7</ele>
        <time>2016-11-15T10:35:59Z</time>
      </trkpt>
      <trkpt lat="43.50189" lon="6.61343">
        <ele>60.22</ele>
        <time>2016-11-15T10:36:12Z</time>
      </trkpt>
      <trkpt lat="43.50182" lon="6.61355">
        <ele>59.26</ele>
        <time>2016-11-15T10:36:25Z</time>
      </trkpt>
      <trkpt lat="43.50177" lon="6.61361">
        <ele>59.26</ele>
        <time>2016-11-15T10:36:34Z</time>
      </trkpt>
      <trkpt lat="43.50172" lon="6.61376">
        <ele>58.78</ele>
        <time>2016-11-15T10:36:47Z</time>
      </trkpt>
      <trkpt lat="43.50171" lon="6.61385">
        <ele>57.34</ele>
        <time>2016-11-15T10:36:58Z</time>
      </trkpt>
      <trkpt lat="43.50174" lon="6.61393">
        <ele>54.93</ele>
        <time>2016-11-15T10:37:12Z</time>
      </trkpt>
      <trkpt lat="43.50176" lon="6.61401">
        <ele>53.01</ele>
        <time>2016-11-15T10:37:22Z</time>
      </trkpt>
      <trkpt lat="43.50184" lon="6.61404">
        <ele>52.05</ele>
        <time>2016-11-15T10:37:33Z</time>
      </trkpt>
      <trkpt lat="43.50185" lon="6.61405">
        <ele>52.53</ele>
        <time>2016-11-15T10:37:53Z</time>
      </trkpt>
      <trkpt lat="43.50186" lon="6.61405">
        <ele>52.53</ele>
        <time>2016-11-15T10:38:17Z</time>
      </trkpt>
      <trkpt lat="43.50185" lon="6.61405">
        <ele>52.53</ele>
        <time>2016-11-15T10:38:43Z</time>
      </trkpt>
      <trkpt lat="43.50185" lon="6.61404">
        <ele>52.53</ele>
        <time>2016-11-15T10:39:01Z</time>
      </trkpt>
      <trkpt lat="43.50184" lon="6.61402">
        <ele>52.53</ele>
        <time>2016-11-15T10:39:46Z</time>
      </trkpt>
      <trkpt lat="43.50184" lon="6.61403">
        <ele>52.53</ele>
        <time>2016-11-15T10:40:04Z</time>
      </trkpt>
      <trkpt lat="43.50186" lon="6.61402">
        <ele>52.53</ele>
        <time>2016-11-15T10:40:08Z</time>
      </trkpt>
      <trkpt lat="43.50199" lon="6.61399">
        <ele>52.53</ele>
        <time>2016-11-15T10:40:22Z</time>
      </trkpt>
      <trkpt lat="43.50205" lon="6.61402">
        <ele>53.01</ele>
        <time>2016-11-15T10:40:35Z</time>
      </trkpt>
      <trkpt lat="43.50213" lon="6.61411">
        <ele>50.61</ele>
        <time>2016-11-15T10:40:50Z</time>
      </trkpt>
      <trkpt lat="43.50214" lon="6.61413">
        <ele>51.57</ele>
        <time>2016-11-15T10:41:01Z</time>
      </trkpt>
      <trkpt lat="43.50217" lon="6.61413">
        <ele>52.53</ele>
        <time>2016-11-15T10:41:14Z</time>
      </trkpt>
      <trkpt lat="43.50218" lon="6.61413">
        <ele>53.01</ele>
        <time>2016-11-15T10:41:37Z</time>
      </trkpt>
      <trkpt lat="43.50218" lon="6.61412">
        <ele>52.53</ele>
        <time>2016-11-15T10:42:11Z</time>
      </trkpt>
      <trkpt lat="43.50218" lon="6.61411">
        <ele>53.01</ele>
        <time>2016-11-15T10:42:39Z</time>
      </trkpt>
      <trkpt lat="43.50218" lon="6.61411">
        <ele>53.01</ele>
        <time>2016-11-15T10:43:10Z</time>
      </trkpt>
      <trkpt lat="43.50219" lon="6.61412">
        <ele>53.01</ele>
        <time>2016-11-15T10:43:28Z</time>
      </trkpt>
      <trkpt lat="43.50219" lon="6.61416">
        <ele>53.01</ele>
        <time>2016-11-15T10:43:51Z</time>
      </trkpt>
      <trkpt lat="43.50222" lon="6.6142">
        <ele>53.49</ele>
        <time>2016-11-15T10:44:11Z</time>
      </trkpt>
      <trkpt lat="43.50225" lon="6.61425">
        <ele>53.49</ele>
        <time>2016-11-15T10:44:27Z</time>
      </trkpt>
      <trkpt lat="43.50234" lon="6.6143">
        <ele>53.01</ele>
        <time>2016-11-15T10:44:50Z</time>
      </trkpt>
      <trkpt lat="43.50246" lon="6.61436">
        <ele>53.01</ele>
        <time>2016-11-15T10:45:02Z</time>
      </trkpt>
      <trkpt lat="43.50249" lon="6.61439">
        <ele>53.49</ele>
        <time>2016-11-15T10:45:06Z</time>
      </trkpt>
      <trkpt lat="43.50251" lon="6.6144">
        <ele>53.01</ele>
        <time>2016-11-15T10:45:08Z</time>
      </trkpt>
      <trkpt lat="43.50256" lon="6.61442">
        <ele>53.49</ele>
        <time>2016-11-15T10:45:13Z</time>
      </trkpt>
      <trkpt lat="43.5026" lon="6.61446">
        <ele>53.01</ele>
        <time>2016-11-15T10:45:19Z</time>
      </trkpt>
      <trkpt lat="43.50264" lon="6.6145">
        <ele>53.49</ele>
        <time>2016-11-15T10:45:23Z</time>
      </trkpt>
      <trkpt lat="43.50267" lon="6.61453">
        <ele>53.49</ele>
        <time>2016-11-15T10:45:27Z</time>
      </trkpt>
      <trkpt lat="43.5027" lon="6.61459">
        <ele>53.49</ele>
        <time>2016-11-15T10:45:32Z</time>
      </trkpt>
      <trkpt lat="43.50275" lon="6.61465">
        <ele>53.97</ele>
        <time>2016-11-15T10:45:44Z</time>
      </trkpt>
      <trkpt lat="43.50281" lon="6.61472">
        <ele>55.41</ele>
        <time>2016-11-15T10:45:55Z</time>
      </trkpt>
      <trkpt lat="43.5029" lon="6.6148">
        <ele>55.89</ele>
        <time>2016-11-15T10:46:06Z</time>
      </trkpt>
      <trkpt lat="43.50302" lon="6.61492">
        <ele>56.37</ele>
        <time>2016-11-15T10:46:19Z</time>
      </trkpt>
      <trkpt lat="43.50314" lon="6.61502">
        <ele>57.34</ele>
        <time>2016-11-15T10:46:33Z</time>
      </trkpt>
      <trkpt lat="43.50317" lon="6.61506">
        <ele>56.86</ele>
        <time>2016-11-15T10:46:45Z</time>
      </trkpt>
      <trkpt lat="43.50317" lon="6.61506">
        <ele>56.86</ele>
        <time>2016-11-15T10:47:05Z</time>
      </trkpt>
      <trkpt lat="43.50316" lon="6.61504">
        <ele>56.86</ele>
        <time>2016-11-15T10:47:32Z</time>
      </trkpt>
      <trkpt lat="43.50316" lon="6.61505">
        <ele>56.86</ele>
        <time>2016-11-15T10:47:57Z</time>
      </trkpt>
      <trkpt lat="43.50317" lon="6.61505">
        <ele>56.86</ele>
        <time>2016-11-15T10:48:19Z</time>
      </trkpt>
      <trkpt lat="43.50317" lon="6.61505">
        <ele>57.34</ele>
        <time>2016-11-15T10:48:43Z</time>
      </trkpt>
      <trkpt lat="43.50318" lon="6.61506">
        <ele>57.34</ele>
        <time>2016-11-15T10:49:08Z</time>
      </trkpt>
      <trkpt lat="43.50318" lon="6.61506">
        <ele>57.34</ele>
        <time>2016-11-15T10:49:35Z</time>
      </trkpt>
      <trkpt lat="43.50318" lon="6.61506">
        <ele>57.34</ele>
        <time>2016-11-15T10:50:03Z</time>
      </trkpt>
      <trkpt lat="43.50318" lon="6.61506">
        <ele>57.34</ele>
        <time>2016-11-15T10:50:07Z</time>
      </trkpt>
      <trkpt lat="43.50315" lon="6.61511">
        <ele>57.34</ele>
        <time>2016-11-15T10:50:12Z</time>
      </trkpt>
      <trkpt lat="43.50311" lon="6.61513">
        <ele>57.34</ele>
        <time>2016-11-15T10:50:15Z</time>
      </trkpt>
      <trkpt lat="43.50308" lon="6.61516">
        <ele>57.34</ele>
        <time>2016-11-15T10:50:18Z</time>
      </trkpt>
      <trkpt lat="43.50297" lon="6.61522">
        <ele>57.34</ele>
        <time>2016-11-15T10:50:27Z</time>
      </trkpt>
      <trkpt lat="43.50282" lon="6.6153">
        <ele>56.86</ele>
        <time>2016-11-15T10:50:41Z</time>
      </trkpt>
      <trkpt lat="43.50266" lon="6.61541">
        <ele>56.86</ele>
        <time>2016-11-15T10:50:56Z</time>
      </trkpt>
      <trkpt lat="43.50257" lon="6.61549">
        <ele>56.86</ele>
        <time>2016-11-15T10:51:04Z</time>
      </trkpt>
      <trkpt lat="43.50246" lon="6.61558">
        <ele>56.37</ele>
        <time>2016-11-15T10:51:16Z</time>
      </trkpt>
      <trkpt lat="43.5023" lon="6.61567">
        <ele>55.89</ele>
        <time>2016-11-15T10:51:30Z</time>
      </trkpt>
      <trkpt lat="43.50214" lon="6.61575">
        <ele>55.89</ele>
        <time>2016-11-15T10:51:44Z</time>
      </trkpt>
      <trkpt lat="43.50201" lon="6.61584">
        <ele>55.41</ele>
        <time>2016-11-15T10:51:56Z</time>
      </trkpt>
      <trkpt lat="43.50196" lon="6.61586">
        <ele>55.41</ele>
        <time>2016-11-15T10:52:01Z</time>
      </trkpt>
      <trkpt lat="43.50184" lon="6.616">
        <ele>56.86</ele>
        <time>2016-11-15T10:52:15Z</time>
      </trkpt>
      <trkpt lat="43.5018" lon="6.61604">
        <ele>52.53</ele>
        <time>2016-11-15T10:52:19Z</time>
      </trkpt>
      <trkpt lat="43.50179" lon="6.61605">
        <ele>58.78</ele>
        <time>2016-11-15T10:52:20Z</time>
      </trkpt>
      <trkpt lat="43.50178" lon="6.61605">
        <ele>53.97</ele>
        <time>2016-11-15T10:52:21Z</time>
      </trkpt>
      <trkpt lat="43.50176" lon="6.61607">
        <ele>56.86</ele>
        <time>2016-11-15T10:52:24Z</time>
      </trkpt>
      <trkpt lat="43.50163" lon="6.61618">
        <ele>51.09</ele>
        <time>2016-11-15T10:52:38Z</time>
      </trkpt>
      <trkpt lat="43.50162" lon="6.61618">
        <ele>57.82</ele>
        <time>2016-11-15T10:52:39Z</time>
      </trkpt>
      <trkpt lat="43.50161" lon="6.61619">
        <ele>53.97</ele>
        <time>2016-11-15T10:52:40Z</time>
      </trkpt>
      <trkpt lat="43.50156" lon="6.61621">
        <ele>54.93</ele>
        <time>2016-11-15T10:52:44Z</time>
      </trkpt>
      <trkpt lat="43.50139" lon="6.61626">
        <ele>54.45</ele>
        <time>2016-11-15T10:52:58Z</time>
      </trkpt>
      <trkpt lat="43.50127" lon="6.61631">
        <ele>53.97</ele>
        <time>2016-11-15T10:53:09Z</time>
      </trkpt>
      <trkpt lat="43.50121" lon="6.61634">
        <ele>53.97</ele>
        <time>2016-11-15T10:53:14Z</time>
      </trkpt>
      <trkpt lat="43.5011" lon="6.61645">
        <ele>53.97</ele>
        <time>2016-11-15T10:53:27Z</time>
      </trkpt>
      <trkpt lat="43.50108" lon="6.61646">
        <ele>53.97</ele>
        <time>2016-11-15T10:53:29Z</time>
      </trkpt>
      <trkpt lat="43.50099" lon="6.61657">
        <ele>53.49</ele>
        <time>2016-11-15T10:53:40Z</time>
      </trkpt>
      <trkpt lat="43.50092" lon="6.61668">
        <ele>53.49</ele>
        <time>2016-11-15T10:53:50Z</time>
      </trkpt>
      <trkpt lat="43.5009" lon="6.61672">
        <ele>53.49</ele>
        <time>2016-11-15T10:53:53Z</time>
      </trkpt>
      <trkpt lat="43.50086" lon="6.61678">
        <ele>53.01</ele>
        <time>2016-11-15T10:53:58Z</time>
      </trkpt>
      <trkpt lat="43.50079" lon="6.61689">
        <ele>53.01</ele>
        <time>2016-11-15T10:54:08Z</time>
      </trkpt>
      <trkpt lat="43.50077" lon="6.61691">
        <ele>53.01</ele>
        <time>2016-11-15T10:54:10Z</time>
      </trkpt>
      <trkpt lat="43.50063" lon="6.61707">
        <ele>52.53</ele>
        <time>2016-11-15T10:54:25Z</time>
      </trkpt>
      <trkpt lat="43.50049" lon="6.61719">
        <ele>52.53</ele>
        <time>2016-11-15T10:54:39Z</time>
      </trkpt>
      <trkpt lat="43.50037" lon="6.61734">
        <ele>52.53</ele>
        <time>2016-11-15T10:54:52Z</time>
      </trkpt>
      <trkpt lat="43.50022" lon="6.61746">
        <ele>52.05</ele>
        <time>2016-11-15T10:55:08Z</time>
      </trkpt>
      <trkpt lat="43.50009" lon="6.6175">
        <ele>51.57</ele>
        <time>2016-11-15T10:55:20Z</time>
      </trkpt>
      <trkpt lat="43.49997" lon="6.61754">
        <ele>51.57</ele>
        <time>2016-11-15T10:55:31Z</time>
      </trkpt>
      <trkpt lat="43.49986" lon="6.61766">
        <ele>51.09</ele>
        <time>2016-11-15T10:55:44Z</time>
      </trkpt>
      <trkpt lat="43.49982" lon="6.61772">
        <ele>50.13</ele>
        <time>2016-11-15T10:55:49Z</time>
      </trkpt>
      <trkpt lat="43.4998" lon="6.61774">
        <ele>50.13</ele>
        <time>2016-11-15T10:55:51Z</time>
      </trkpt>
      <trkpt lat="43.49976" lon="6.61778">
        <ele>50.13</ele>
        <time>2016-11-15T10:55:55Z</time>
      </trkpt>
      <trkpt lat="43.49969" lon="6.61787">
        <ele>49.65</ele>
        <time>2016-11-15T10:56:03Z</time>
      </trkpt>
      <trkpt lat="43.49967" lon="6.61789">
        <ele>49.65</ele>
        <time>2016-11-15T10:56:05Z</time>
      </trkpt>
      <trkpt lat="43.49954" lon="6.61797">
        <ele>48.68</ele>
        <time>2016-11-15T10:56:17Z</time>
      </trkpt>
      <trkpt lat="43.49941" lon="6.61803">
        <ele>48.2</ele>
        <time>2016-11-15T10:56:30Z</time>
      </trkpt>
      <trkpt lat="43.49934" lon="6.61803">
        <ele>48.2</ele>
        <time>2016-11-15T10:56:37Z</time>
      </trkpt>
      <trkpt lat="43.49916" lon="6.61802">
        <ele>47.72</ele>
        <time>2016-11-15T10:56:52Z</time>
      </trkpt>
      <trkpt lat="43.49915" lon="6.61802">
        <ele>47.72</ele>
        <time>2016-11-15T10:56:53Z</time>
      </trkpt>
      <trkpt lat="43.49902" lon="6.61805">
        <ele>47.24</ele>
        <time>2016-11-15T10:57:04Z</time>
      </trkpt>
      <trkpt lat="43.49888" lon="6.61814">
        <ele>47.24</ele>
        <time>2016-11-15T10:57:18Z</time>
      </trkpt>
      <trkpt lat="43.49877" lon="6.61823">
        <ele>47.24</ele>
        <time>2016-11-15T10:57:29Z</time>
      </trkpt>
      <trkpt lat="43.49871" lon="6.61827">
        <ele>46.76</ele>
        <time>2016-11-15T10:57:35Z</time>
      </trkpt>
      <trkpt lat="43.4986" lon="6.61839">
        <ele>46.76</ele>
        <time>2016-11-15T10:57:48Z</time>
      </trkpt>
      <trkpt lat="43.49852" lon="6.61849">
        <ele>47.24</ele>
        <time>2016-11-15T10:57:58Z</time>
      </trkpt>
      <trkpt lat="43.49847" lon="6.61852">
        <ele>47.24</ele>
        <time>2016-11-15T10:58:02Z</time>
      </trkpt>
      <trkpt lat="43.49837" lon="6.61861">
        <ele>46.76</ele>
        <time>2016-11-15T10:58:13Z</time>
      </trkpt>
      <trkpt lat="43.49835" lon="6.61861">
        <ele>46.76</ele>
        <time>2016-11-15T10:58:15Z</time>
      </trkpt>
      <trkpt lat="43.49823" lon="6.61869">
        <ele>46.76</ele>
        <time>2016-11-15T10:58:26Z</time>
      </trkpt>
      <trkpt lat="43.49816" lon="6.61877">
        <ele>46.28</ele>
        <time>2016-11-15T10:58:34Z</time>
      </trkpt>
      <trkpt lat="43.4981" lon="6.6188">
        <ele>46.28</ele>
        <time>2016-11-15T10:58:40Z</time>
      </trkpt>
      <trkpt lat="43.49802" lon="6.61886">
        <ele>45.8</ele>
        <time>2016-11-15T10:58:48Z</time>
      </trkpt>
      <trkpt lat="43.49787" lon="6.619">
        <ele>45.32</ele>
        <time>2016-11-15T10:59:03Z</time>
      </trkpt>
      <trkpt lat="43.49778" lon="6.61916">
        <ele>44.84</ele>
        <time>2016-11-15T10:59:16Z</time>
      </trkpt>
      <trkpt lat="43.49767" lon="6.61929">
        <ele>44.36</ele>
        <time>2016-11-15T10:59:30Z</time>
      </trkpt>
      <trkpt lat="43.49763" lon="6.61934">
        <ele>44.36</ele>
        <time>2016-11-15T10:59:35Z</time>
      </trkpt>
      <trkpt lat="43.49759" lon="6.61942">
        <ele>43.88</ele>
        <time>2016-11-15T10:59:47Z</time>
      </trkpt>
      <trkpt lat="43.4976" lon="6.61944">
        <ele>43.88</ele>
        <time>2016-11-15T10:59:58Z</time>
      </trkpt>
      <trkpt lat="43.4976" lon="6.61945">
        <ele>44.36</ele>
        <time>2016-11-15T11:00:12Z</time>
      </trkpt>
      <trkpt lat="43.4976" lon="6.61946">
        <ele>44.36</ele>
        <time>2016-11-15T11:00:29Z</time>
      </trkpt>
      <trkpt lat="43.49761" lon="6.61946">
        <ele>43.88</ele>
        <time>2016-11-15T11:00:44Z</time>
      </trkpt>
      <trkpt lat="43.49761" lon="6.61945">
        <ele>44.36</ele>
        <time>2016-11-15T11:00:59Z</time>
      </trkpt>
      <trkpt lat="43.49761" lon="6.61945">
        <ele>44.36</ele>
        <time>2016-11-15T11:01:20Z</time>
      </trkpt>
      <trkpt lat="43.4976" lon="6.61947">
        <ele>44.36</ele>
        <time>2016-11-15T11:01:38Z</time>
      </trkpt>
      <trkpt lat="43.4976" lon="6.61947">
        <ele>44.36</ele>
        <time>2016-11-15T11:02:02Z</time>
      </trkpt>
      <trkpt lat="43.49756" lon="6.61946">
        <ele>44.84</ele>
        <time>2016-11-15T11:02:13Z</time>
      </trkpt>
      <trkpt lat="43.49753" lon="6.61936">
        <ele>44.36</ele>
        <time>2016-11-15T11:02:20Z</time>
      </trkpt>
      <trkpt lat="43.49755" lon="6.61929">
        <ele>44.84</ele>
        <time>2016-11-15T11:02:25Z</time>
      </trkpt>
      <trkpt lat="43.49755" lon="6.61927">
        <ele>45.32</ele>
        <time>2016-11-15T11:02:27Z</time>
      </trkpt>
      <trkpt lat="43.49756" lon="6.61922">
        <ele>45.32</ele>
        <time>2016-11-15T11:02:30Z</time>
      </trkpt>
      <trkpt lat="43.49754" lon="6.61916">
        <ele>45.8</ele>
        <time>2016-11-15T11:02:35Z</time>
      </trkpt>
      <trkpt lat="43.49757" lon="6.61909">
        <ele>45.32</ele>
        <time>2016-11-15T11:02:51Z</time>
      </trkpt>
      <trkpt lat="43.49757" lon="6.61908">
        <ele>45.32</ele>
        <time>2016-11-15T11:03:11Z</time>
      </trkpt>
      <trkpt lat="43.49756" lon="6.61909">
        <ele>45.32</ele>
        <time>2016-11-15T11:03:18Z</time>
      </trkpt>
      <trkpt lat="43.49755" lon="6.61912">
        <ele>45.8</ele>
        <time>2016-11-15T11:03:34Z</time>
      </trkpt>
      <trkpt lat="43.49754" lon="6.61918">
        <ele>46.28</ele>
        <time>2016-11-15T11:03:45Z</time>
      </trkpt>
      <trkpt lat="43.49754" lon="6.61921">
        <ele>46.28</ele>
        <time>2016-11-15T11:03:54Z</time>
      </trkpt>
      <trkpt lat="43.49753" lon="6.61926">
        <ele>45.8</ele>
        <time>2016-11-15T11:03:59Z</time>
      </trkpt>
      <trkpt lat="43.49751" lon="6.61929">
        <ele>45.32</ele>
        <time>2016-11-15T11:04:07Z</time>
      </trkpt>
      <trkpt lat="43.49754" lon="6.61932">
        <ele>44.84</ele>
        <time>2016-11-15T11:04:11Z</time>
      </trkpt>
      <trkpt lat="43.49755" lon="6.61935">
        <ele>44.84</ele>
        <time>2016-11-15T11:04:14Z</time>
      </trkpt>
      <trkpt lat="43.49756" lon="6.61949">
        <ele>45.32</ele>
        <time>2016-11-15T11:04:28Z</time>
      </trkpt>
      <trkpt lat="43.49757" lon="6.61949">
        <ele>45.32</ele>
        <time>2016-11-15T11:04:49Z</time>
      </trkpt>
      <trkpt lat="43.49753" lon="6.61961">
        <ele>46.28</ele>
        <time>2016-11-15T11:05:01Z</time>
      </trkpt>
      <trkpt lat="43.49746" lon="6.61977">
        <ele>47.24</ele>
        <time>2016-11-15T11:05:15Z</time>
      </trkpt>
      <trkpt lat="43.49743" lon="6.6198">
        <ele>47.72</ele>
        <time>2016-11-15T11:05:19Z</time>
      </trkpt>
      <trkpt lat="43.49725" lon="6.61983">
        <ele>49.65</ele>
        <time>2016-11-15T11:05:37Z</time>
      </trkpt>
      <trkpt lat="43.49723" lon="6.61982">
        <ele>49.65</ele>
        <time>2016-11-15T11:05:41Z</time>
      </trkpt>
      <trkpt lat="43.4972" lon="6.61982">
        <ele>50.13</ele>
        <time>2016-11-15T11:05:43Z</time>
      </trkpt>
      <trkpt lat="43.49712" lon="6.61981">
        <ele>50.61</ele>
        <time>2016-11-15T11:05:50Z</time>
      </trkpt>
      <trkpt lat="43.4971" lon="6.6198">
        <ele>50.61</ele>
        <time>2016-11-15T11:05:52Z</time>
      </trkpt>
      <trkpt lat="43.49693" lon="6.61979">
        <ele>51.57</ele>
        <time>2016-11-15T11:06:07Z</time>
      </trkpt>
      <trkpt lat="43.49692" lon="6.6198">
        <ele>51.57</ele>
        <time>2016-11-15T11:06:08Z</time>
      </trkpt>
      <trkpt lat="43.49685" lon="6.61983">
        <ele>52.05</ele>
        <time>2016-11-15T11:06:15Z</time>
      </trkpt>
      <trkpt lat="43.49674" lon="6.62001">
        <ele>53.49</ele>
        <time>2016-11-15T11:06:30Z</time>
      </trkpt>
      <trkpt lat="43.49661" lon="6.62013">
        <ele>54.45</ele>
        <time>2016-11-15T11:06:44Z</time>
      </trkpt>
      <trkpt lat="43.49653" lon="6.62016">
        <ele>54.93</ele>
        <time>2016-11-15T11:06:51Z</time>
      </trkpt>
      <trkpt lat="43.4964" lon="6.6202">
        <ele>55.41</ele>
        <time>2016-11-15T11:07:04Z</time>
      </trkpt>
      <trkpt lat="43.49637" lon="6.6202">
        <ele>55.89</ele>
        <time>2016-11-15T11:07:06Z</time>
      </trkpt>
      <trkpt lat="43.49622" lon="6.62016">
        <ele>56.37</ele>
        <time>2016-11-15T11:07:19Z</time>
      </trkpt>
      <trkpt lat="43.4962" lon="6.62015">
        <ele>56.37</ele>
        <time>2016-11-15T11:07:21Z</time>
      </trkpt>
      <trkpt lat="43.49605" lon="6.62011">
        <ele>56.37</ele>
        <time>2016-11-15T11:07:35Z</time>
      </trkpt>
      <trkpt lat="43.49589" lon="6.62005">
        <ele>56.86</ele>
        <time>2016-11-15T11:07:49Z</time>
      </trkpt>
      <trkpt lat="43.49575" lon="6.61999">
        <ele>56.37</ele>
        <time>2016-11-15T11:08:02Z</time>
      </trkpt>
      <trkpt lat="43.49562" lon="6.6199">
        <ele>56.37</ele>
        <time>2016-11-15T11:08:16Z</time>
      </trkpt>
      <trkpt lat="43.49546" lon="6.61979">
        <ele>55.89</ele>
        <time>2016-11-15T11:08:31Z</time>
      </trkpt>
      <trkpt lat="43.49545" lon="6.61977">
        <ele>55.89</ele>
        <time>2016-11-15T11:08:33Z</time>
      </trkpt>
      <trkpt lat="43.49532" lon="6.61969">
        <ele>55.41</ele>
        <time>2016-11-15T11:08:46Z</time>
      </trkpt>
      <trkpt lat="43.49519" lon="6.61958">
        <ele>54.93</ele>
        <time>2016-11-15T11:08:59Z</time>
      </trkpt>
      <trkpt lat="43.49514" lon="6.61954">
        <ele>54.93</ele>
        <time>2016-11-15T11:09:04Z</time>
      </trkpt>
      <trkpt lat="43.49501" lon="6.61946">
        <ele>53.97</ele>
        <time>2016-11-15T11:09:15Z</time>
      </trkpt>
      <trkpt lat="43.49483" lon="6.61933">
        <ele>53.97</ele>
        <time>2016-11-15T11:09:31Z</time>
      </trkpt>
      <trkpt lat="43.49478" lon="6.6193">
        <ele>53.49</ele>
        <time>2016-11-15T11:09:36Z</time>
      </trkpt>
      <trkpt lat="43.49461" lon="6.6192">
        <ele>54.45</ele>
        <time>2016-11-15T11:09:53Z</time>
      </trkpt>
      <trkpt lat="43.49447" lon="6.61912">
        <ele>54.93</ele>
        <time>2016-11-15T11:10:05Z</time>
      </trkpt>
      <trkpt lat="43.49444" lon="6.61909">
        <ele>54.93</ele>
        <time>2016-11-15T11:10:08Z</time>
      </trkpt>
      <trkpt lat="43.49428" lon="6.619">
        <ele>55.41</ele>
        <time>2016-11-15T11:10:23Z</time>
      </trkpt>
      <trkpt lat="43.49421" lon="6.61885">
        <ele>55.89</ele>
        <time>2016-11-15T11:10:38Z</time>
      </trkpt>
      <trkpt lat="43.49421" lon="6.61882">
        <ele>57.82</ele>
        <time>2016-11-15T11:10:40Z</time>
      </trkpt>
      <trkpt lat="43.49421" lon="6.61881">
        <ele>51.57</ele>
        <time>2016-11-15T11:10:42Z</time>
      </trkpt>
      <trkpt lat="43.49421" lon="6.6188">
        <ele>62.14</ele>
        <time>2016-11-15T11:10:43Z</time>
      </trkpt>
      <trkpt lat="43.49421" lon="6.6188">
        <ele>56.37</ele>
        <time>2016-11-15T11:10:44Z</time>
      </trkpt>
      <trkpt lat="43.49421" lon="6.61877">
        <ele>56.37</ele>
        <time>2016-11-15T11:10:57Z</time>
      </trkpt>
      <trkpt lat="43.4942" lon="6.61879">
        <ele>55.89</ele>
        <time>2016-11-15T11:11:13Z</time>
      </trkpt>
      <trkpt lat="43.4942" lon="6.61877">
        <ele>56.37</ele>
        <time>2016-11-15T11:11:30Z</time>
      </trkpt>
      <trkpt lat="43.49421" lon="6.61878">
        <ele>55.89</ele>
        <time>2016-11-15T11:11:53Z</time>
      </trkpt>
      <trkpt lat="43.4942" lon="6.61879">
        <ele>56.37</ele>
        <time>2016-11-15T11:12:23Z</time>
      </trkpt>
      <trkpt lat="43.4942" lon="6.61879">
        <ele>55.89</ele>
        <time>2016-11-15T11:12:59Z</time>
      </trkpt>
      <trkpt lat="43.4942" lon="6.61879">
        <ele>56.37</ele>
        <time>2016-11-15T11:13:21Z</time>
      </trkpt>
      <trkpt lat="43.49429" lon="6.61862">
        <ele>56.86</ele>
        <time>2016-11-15T11:13:34Z</time>
      </trkpt>
      <trkpt lat="43.49433" lon="6.61856">
        <ele>57.34</ele>
        <time>2016-11-15T11:13:39Z</time>
      </trkpt>
      <trkpt lat="43.4943" lon="6.61843">
        <ele>56.86</ele>
        <time>2016-11-15T11:13:48Z</time>
      </trkpt>
      <trkpt lat="43.49426" lon="6.6184">
        <ele>56.86</ele>
        <time>2016-11-15T11:13:52Z</time>
      </trkpt>
      <trkpt lat="43.49411" lon="6.61828">
        <ele>55.89</ele>
        <time>2016-11-15T11:14:06Z</time>
      </trkpt>
      <trkpt lat="43.49394" lon="6.61822">
        <ele>53.97</ele>
        <time>2016-11-15T11:14:20Z</time>
      </trkpt>
      <trkpt lat="43.49383" lon="6.61821">
        <ele>53.01</ele>
        <time>2016-11-15T11:14:29Z</time>
      </trkpt>
      <trkpt lat="43.49379" lon="6.6182">
        <ele>53.01</ele>
        <time>2016-11-15T11:14:33Z</time>
      </trkpt>
      <trkpt lat="43.49375" lon="6.6182">
        <ele>52.53</ele>
        <time>2016-11-15T11:14:36Z</time>
      </trkpt>
      <trkpt lat="43.49359" lon="6.61816">
        <ele>52.05</ele>
        <time>2016-11-15T11:14:50Z</time>
      </trkpt>
      <trkpt lat="43.49346" lon="6.61815">
        <ele>51.57</ele>
        <time>2016-11-15T11:15:00Z</time>
      </trkpt>
      <trkpt lat="43.49332" lon="6.61821">
        <ele>52.05</ele>
        <time>2016-11-15T11:15:12Z</time>
      </trkpt>
      <trkpt lat="43.49325" lon="6.61823">
        <ele>52.05</ele>
        <time>2016-11-15T11:15:18Z</time>
      </trkpt>
      <trkpt lat="43.49308" lon="6.6183">
        <ele>52.05</ele>
        <time>2016-11-15T11:15:34Z</time>
      </trkpt>
      <trkpt lat="43.49301" lon="6.61832">
        <ele>52.05</ele>
        <time>2016-11-15T11:15:41Z</time>
      </trkpt>
      <trkpt lat="43.49287" lon="6.61839">
        <ele>52.05</ele>
        <time>2016-11-15T11:15:55Z</time>
      </trkpt>
      <trkpt lat="43.49287" lon="6.61842">
        <ele>52.53</ele>
        <time>2016-11-15T11:16:00Z</time>
      </trkpt>
      <trkpt lat="43.49274" lon="6.61852">
        <ele>52.53</ele>
        <time>2016-11-15T11:16:12Z</time>
      </trkpt>
      <trkpt lat="43.49269" lon="6.61854">
        <ele>52.53</ele>
        <time>2016-11-15T11:16:16Z</time>
      </trkpt>
      <trkpt lat="43.49257" lon="6.61864">
        <ele>53.01</ele>
        <time>2016-11-15T11:16:27Z</time>
      </trkpt>
      <trkpt lat="43.49251" lon="6.61867">
        <ele>53.01</ele>
        <time>2016-11-15T11:16:32Z</time>
      </trkpt>
      <trkpt lat="43.49241" lon="6.6187">
        <ele>53.97</ele>
        <time>2016-11-15T11:16:40Z</time>
      </trkpt>
      <trkpt lat="43.49236" lon="6.61871">
        <ele>53.97</ele>
        <time>2016-11-15T11:16:44Z</time>
      </trkpt>
      <trkpt lat="43.49217" lon="6.61882">
        <ele>54.45</ele>
        <time>2016-11-15T11:17:00Z</time>
      </trkpt>
      <trkpt lat="43.49216" lon="6.61882">
        <ele>54.45</ele>
        <time>2016-11-15T11:17:01Z</time>
      </trkpt>
      <trkpt lat="43.49208" lon="6.61884">
        <ele>54.45</ele>
        <time>2016-11-15T11:17:07Z</time>
      </trkpt>
      <trkpt lat="43.49191" lon="6.6189">
        <ele>54.93</ele>
        <time>2016-11-15T11:17:22Z</time>
      </trkpt>
      <trkpt lat="43.49174" lon="6.61894">
        <ele>55.41</ele>
        <time>2016-11-15T11:17:36Z</time>
      </trkpt>
      <trkpt lat="43.49164" lon="6.61901">
        <ele>55.41</ele>
        <time>2016-11-15T11:17:46Z</time>
      </trkpt>
      <trkpt lat="43.49161" lon="6.61907">
        <ele>50.61</ele>
        <time>2016-11-15T11:17:51Z</time>
      </trkpt>
      <trkpt lat="43.49161" lon="6.61908">
        <ele>59.26</ele>
        <time>2016-11-15T11:17:52Z</time>
      </trkpt>
      <trkpt lat="43.4916" lon="6.6191">
        <ele>57.34</ele>
        <time>2016-11-15T11:17:53Z</time>
      </trkpt>
      <trkpt lat="43.49154" lon="6.61914">
        <ele>55.41</ele>
        <time>2016-11-15T11:18:07Z</time>
      </trkpt>
      <trkpt lat="43.49146" lon="6.6191">
        <ele>54.93</ele>
        <time>2016-11-15T11:18:15Z</time>
      </trkpt>
      <trkpt lat="43.49127" lon="6.61905">
        <ele>53.49</ele>
        <time>2016-11-15T11:18:30Z</time>
      </trkpt>
      <trkpt lat="43.49107" lon="6.61904">
        <ele>53.01</ele>
        <time>2016-11-15T11:18:47Z</time>
      </trkpt>
      <trkpt lat="43.49099" lon="6.61903">
        <ele>52.53</ele>
        <time>2016-11-15T11:18:53Z</time>
      </trkpt>
      <trkpt lat="43.49082" lon="6.61903">
        <ele>51.57</ele>
        <time>2016-11-15T11:19:08Z</time>
      </trkpt>
      <trkpt lat="43.49079" lon="6.61903">
        <ele>51.09</ele>
        <time>2016-11-15T11:19:10Z</time>
      </trkpt>
      <trkpt lat="43.49063" lon="6.61906">
        <ele>50.13</ele>
        <time>2016-11-15T11:19:22Z</time>
      </trkpt>
      <trkpt lat="43.49051" lon="6.61913">
        <ele>49.16</ele>
        <time>2016-11-15T11:19:33Z</time>
      </trkpt>
      <trkpt lat="43.4905" lon="6.61915">
        <ele>49.16</ele>
        <time>2016-11-15T11:19:35Z</time>
      </trkpt>
      <trkpt lat="43.49041" lon="6.6192">
        <ele>48.2</ele>
        <time>2016-11-15T11:19:43Z</time>
      </trkpt>
      <trkpt lat="43.4903" lon="6.6192">
        <ele>47.24</ele>
        <time>2016-11-15T11:19:55Z</time>
      </trkpt>
      <trkpt lat="43.49025" lon="6.61922">
        <ele>46.76</ele>
        <time>2016-11-15T11:20:10Z</time>
      </trkpt>
      <trkpt lat="43.49025" lon="6.61924">
        <ele>46.28</ele>
        <time>2016-11-15T11:20:22Z</time>
      </trkpt>
      <trkpt lat="43.49025" lon="6.61926">
        <ele>46.28</ele>
        <time>2016-11-15T11:20:54Z</time>
      </trkpt>
      <trkpt lat="43.49025" lon="6.61927">
        <ele>46.76</ele>
        <time>2016-11-15T11:21:14Z</time>
      </trkpt>
      <trkpt lat="43.49022" lon="6.61927">
        <ele>46.28</ele>
        <time>2016-11-15T11:21:29Z</time>
      </trkpt>
      <trkpt lat="43.49014" lon="6.61929">
        <ele>46.28</ele>
        <time>2016-11-15T11:21:41Z</time>
      </trkpt>
      <trkpt lat="43.48994" lon="6.61932">
        <ele>45.8</ele>
        <time>2016-11-15T11:21:58Z</time>
      </trkpt>
      <trkpt lat="43.48992" lon="6.61933">
        <ele>45.32</ele>
        <time>2016-11-15T11:22:00Z</time>
      </trkpt>
      <trkpt lat="43.48985" lon="6.61936">
        <ele>45.32</ele>
        <time>2016-11-15T11:22:07Z</time>
      </trkpt>
      <trkpt lat="43.48967" lon="6.61941">
        <ele>45.8</ele>
        <time>2016-11-15T11:22:23Z</time>
      </trkpt>
      <trkpt lat="43.48966" lon="6.61942">
        <ele>45.8</ele>
        <time>2016-11-15T11:22:24Z</time>
      </trkpt>
      <trkpt lat="43.48952" lon="6.61948">
        <ele>46.76</ele>
        <time>2016-11-15T11:22:37Z</time>
      </trkpt>
      <trkpt lat="43.48937" lon="6.61949">
        <ele>47.72</ele>
        <time>2016-11-15T11:22:51Z</time>
      </trkpt>
      <trkpt lat="43.48934" lon="6.61948">
        <ele>48.2</ele>
        <time>2016-11-15T11:22:54Z</time>
      </trkpt>
      <trkpt lat="43.4892" lon="6.61945">
        <ele>48.2</ele>
        <time>2016-11-15T11:23:07Z</time>
      </trkpt>
      <trkpt lat="43.48906" lon="6.61946">
        <ele>49.16</ele>
        <time>2016-11-15T11:23:23Z</time>
      </trkpt>
      <trkpt lat="43.48892" lon="6.61946">
        <ele>49.65</ele>
        <time>2016-11-15T11:23:36Z</time>
      </trkpt>
      <trkpt lat="43.48887" lon="6.61948">
        <ele>50.13</ele>
        <time>2016-11-15T11:23:42Z</time>
      </trkpt>
      <trkpt lat="43.48868" lon="6.61944">
        <ele>52.05</ele>
        <time>2016-11-15T11:24:00Z</time>
      </trkpt>
      <trkpt lat="43.48863" lon="6.61944">
        <ele>52.05</ele>
        <time>2016-11-15T11:24:06Z</time>
      </trkpt>
      <trkpt lat="43.48855" lon="6.61948">
        <ele>53.01</ele>
        <time>2016-11-15T11:24:14Z</time>
      </trkpt>
      <trkpt lat="43.48847" lon="6.61952">
        <ele>53.49</ele>
        <time>2016-11-15T11:24:22Z</time>
      </trkpt>
      <trkpt lat="43.48835" lon="6.61957">
        <ele>54.93</ele>
        <time>2016-11-15T11:24:35Z</time>
      </trkpt>
      <trkpt lat="43.48828" lon="6.61959">
        <ele>55.89</ele>
        <time>2016-11-15T11:24:43Z</time>
      </trkpt>
      <trkpt lat="43.48822" lon="6.61962">
        <ele>56.37</ele>
        <time>2016-11-15T11:24:49Z</time>
      </trkpt>
      <trkpt lat="43.48809" lon="6.61968">
        <ele>57.82</ele>
        <time>2016-11-15T11:25:03Z</time>
      </trkpt>
      <trkpt lat="43.48806" lon="6.61969">
        <ele>58.3</ele>
        <time>2016-11-15T11:25:06Z</time>
      </trkpt>
      <trkpt lat="43.48801" lon="6.6197">
        <ele>58.3</ele>
        <time>2016-11-15T11:25:11Z</time>
      </trkpt>
      <trkpt lat="43.48785" lon="6.61972">
        <ele>59.74</ele>
        <time>2016-11-15T11:25:26Z</time>
      </trkpt>
      <trkpt lat="43.48773" lon="6.61977">
        <ele>60.22</ele>
        <time>2016-11-15T11:25:38Z</time>
      </trkpt>
      <trkpt lat="43.48759" lon="6.61978">
        <ele>60.7</ele>
        <time>2016-11-15T11:25:51Z</time>
      </trkpt>
      <trkpt lat="43.48744" lon="6.61979">
        <ele>61.18</ele>
        <time>2016-11-15T11:26:05Z</time>
      </trkpt>
      <trkpt lat="43.48743" lon="6.61979">
        <ele>61.18</ele>
        <time>2016-11-15T11:26:06Z</time>
      </trkpt>
      <trkpt lat="43.48738" lon="6.61978">
        <ele>61.66</ele>
        <time>2016-11-15T11:26:10Z</time>
      </trkpt>
      <trkpt lat="43.48723" lon="6.61977">
        <ele>62.14</ele>
        <time>2016-11-15T11:26:25Z</time>
      </trkpt>
      <trkpt lat="43.48722" lon="6.61977">
        <ele>62.14</ele>
        <time>2016-11-15T11:26:26Z</time>
      </trkpt>
      <trkpt lat="43.48708" lon="6.61977">
        <ele>64.07</ele>
        <time>2016-11-15T11:26:40Z</time>
      </trkpt>
      <trkpt lat="43.48692" lon="6.61976">
        <ele>64.55</ele>
        <time>2016-11-15T11:26:54Z</time>
      </trkpt>
      <trkpt lat="43.4868" lon="6.61975">
        <ele>65.03</ele>
        <time>2016-11-15T11:27:05Z</time>
      </trkpt>
      <trkpt lat="43.48668" lon="6.61972">
        <ele>65.03</ele>
        <time>2016-11-15T11:27:19Z</time>
      </trkpt>
      <trkpt lat="43.48664" lon="6.61973">
        <ele>64.55</ele>
        <time>2016-11-15T11:27:32Z</time>
      </trkpt>
      <trkpt lat="43.48664" lon="6.61973">
        <ele>65.03</ele>
        <time>2016-11-15T11:27:54Z</time>
      </trkpt>
      <trkpt lat="43.48664" lon="6.61975">
        <ele>65.03</ele>
        <time>2016-11-15T11:28:05Z</time>
      </trkpt>
      <trkpt lat="43.48664" lon="6.61975">
        <ele>65.51</ele>
        <time>2016-11-15T11:28:28Z</time>
      </trkpt>
      <trkpt lat="43.48665" lon="6.61974">
        <ele>65.03</ele>
        <time>2016-11-15T11:28:56Z</time>
      </trkpt>
      <trkpt lat="43.48664" lon="6.61974">
        <ele>65.51</ele>
        <time>2016-11-15T11:29:18Z</time>
      </trkpt>
      <trkpt lat="43.48664" lon="6.61974">
        <ele>65.51</ele>
        <time>2016-11-15T11:29:38Z</time>
      </trkpt>
      <trkpt lat="43.48661" lon="6.61973">
        <ele>65.03</ele>
        <time>2016-11-15T11:29:42Z</time>
      </trkpt>
      <trkpt lat="43.48644" lon="6.61963">
        <ele>64.07</ele>
        <time>2016-11-15T11:29:57Z</time>
      </trkpt>
      <trkpt lat="43.48628" lon="6.61948">
        <ele>62.14</ele>
        <time>2016-11-15T11:30:14Z</time>
      </trkpt>
      <trkpt lat="43.48618" lon="6.61931">
        <ele>60.22</ele>
        <time>2016-11-15T11:30:29Z</time>
      </trkpt>
      <trkpt lat="43.48602" lon="6.61925">
        <ele>58.3</ele>
        <time>2016-11-15T11:30:43Z</time>
      </trkpt>
      <trkpt lat="43.48595" lon="6.61925">
        <ele>57.82</ele>
        <time>2016-11-15T11:30:48Z</time>
      </trkpt>
      <trkpt lat="43.48581" lon="6.61925">
        <ele>57.82</ele>
        <time>2016-11-15T11:31:00Z</time>
      </trkpt>
      <trkpt lat="43.48579" lon="6.61925">
        <ele>57.82</ele>
        <time>2016-11-15T11:31:02Z</time>
      </trkpt>
      <trkpt lat="43.48577" lon="6.61924">
        <ele>57.82</ele>
        <time>2016-11-15T11:31:05Z</time>
      </trkpt>
      <trkpt lat="43.48567" lon="6.61927">
        <ele>59.74</ele>
        <time>2016-11-15T11:31:18Z</time>
      </trkpt>
      <trkpt lat="43.48558" lon="6.61934">
        <ele>60.7</ele>
        <time>2016-11-15T11:31:32Z</time>
      </trkpt>
      <trkpt lat="43.48557" lon="6.61935">
        <ele>61.18</ele>
        <time>2016-11-15T11:31:34Z</time>
      </trkpt>
      <trkpt lat="43.48552" lon="6.61939">
        <ele>61.66</ele>
        <time>2016-11-15T11:31:40Z</time>
      </trkpt>
      <trkpt lat="43.48541" lon="6.61954">
        <ele>62.62</ele>
        <time>2016-11-15T11:31:56Z</time>
      </trkpt>
      <trkpt lat="43.48534" lon="6.61959">
        <ele>63.58</ele>
        <time>2016-11-15T11:32:05Z</time>
      </trkpt>
      <trkpt lat="43.48531" lon="6.6196">
        <ele>64.07</ele>
        <time>2016-11-15T11:32:08Z</time>
      </trkpt>
      <trkpt lat="43.48527" lon="6.61961">
        <ele>64.07</ele>
        <time>2016-11-15T11:32:12Z</time>
      </trkpt>
      <trkpt lat="43.4852" lon="6.61965">
        <ele>65.51</ele>
        <time>2016-11-15T11:32:21Z</time>
      </trkpt>
      <trkpt lat="43.48515" lon="6.61966">
        <ele>65.51</ele>
        <time>2016-11-15T11:32:26Z</time>
      </trkpt>
      <trkpt lat="43.48504" lon="6.61971">
        <ele>66.95</ele>
        <time>2016-11-15T11:32:38Z</time>
      </trkpt>
      <trkpt lat="43.48488" lon="6.61975">
        <ele>67.91</ele>
        <time>2016-11-15T11:32:52Z</time>
      </trkpt>
      <trkpt lat="43.48472" lon="6.61976">
        <ele>68.87</ele>
        <time>2016-11-15T11:33:07Z</time>
      </trkpt>
      <trkpt lat="43.48458" lon="6.61976">
        <ele>70.31</ele>
        <time>2016-11-15T11:33:20Z</time>
      </trkpt>
      <trkpt lat="43.48447" lon="6.61977">
        <ele>71.76</ele>
        <time>2016-11-15T11:33:33Z</time>
      </trkpt>
      <trkpt lat="43.48433" lon="6.61976">
        <ele>73.2</ele>
        <time>2016-11-15T11:33:46Z</time>
      </trkpt>
      <trkpt lat="43.48417" lon="6.61975">
        <ele>74.64</ele>
        <time>2016-11-15T11:34:02Z</time>
      </trkpt>
      <trkpt lat="43.48409" lon="6.61975">
        <ele>75.12</ele>
        <time>2016-11-15T11:34:09Z</time>
      </trkpt>
      <trkpt lat="43.48407" lon="6.61976">
        <ele>75.12</ele>
        <time>2016-11-15T11:34:11Z</time>
      </trkpt>
      <trkpt lat="43.48396" lon="6.61975">
        <ele>75.6</ele>
        <time>2016-11-15T11:34:26Z</time>
      </trkpt>
      <trkpt lat="43.48396" lon="6.61975">
        <ele>75.12</ele>
        <time>2016-11-15T11:34:40Z</time>
      </trkpt>
      <trkpt lat="43.48395" lon="6.61976">
        <ele>75.12</ele>
        <time>2016-11-15T11:35:00Z</time>
      </trkpt>
      <trkpt lat="43.48395" lon="6.61977">
        <ele>75.12</ele>
        <time>2016-11-15T11:35:36Z</time>
      </trkpt>
      <trkpt lat="43.48396" lon="6.61977">
        <ele>74.64</ele>
        <time>2016-11-15T11:36:05Z</time>
      </trkpt>
      <trkpt lat="43.48396" lon="6.61978">
        <ele>74.64</ele>
        <time>2016-11-15T11:36:44Z</time>
      </trkpt>
      <trkpt lat="43.48396" lon="6.61977">
        <ele>74.64</ele>
        <time>2016-11-15T11:37:14Z</time>
      </trkpt>
      <trkpt lat="43.48396" lon="6.61977">
        <ele>74.64</ele>
        <time>2016-11-15T11:37:40Z</time>
      </trkpt>
      <trkpt lat="43.48397" lon="6.61977">
        <ele>74.64</ele>
        <time>2016-11-15T11:37:43Z</time>
      </trkpt>
      <trkpt lat="43.48394" lon="6.61976">
        <ele>74.64</ele>
        <time>2016-11-15T11:37:46Z</time>
      </trkpt>
      <trkpt lat="43.4838" lon="6.61969">
        <ele>74.64</ele>
        <time>2016-11-15T11:37:57Z</time>
      </trkpt>
      <trkpt lat="43.4836" lon="6.6197">
        <ele>74.64</ele>
        <time>2016-11-15T11:38:13Z</time>
      </trkpt>
      <trkpt lat="43.48348" lon="6.6197">
        <ele>74.64</ele>
        <time>2016-11-15T11:38:22Z</time>
      </trkpt>
      <trkpt lat="43.48344" lon="6.6197">
        <ele>74.16</ele>
        <time>2016-11-15T11:38:25Z</time>
      </trkpt>
      <trkpt lat="43.48321" lon="6.61966">
        <ele>73.68</ele>
        <time>2016-11-15T11:38:44Z</time>
      </trkpt>
      <trkpt lat="43.48307" lon="6.61955">
        <ele>72.72</ele>
        <time>2016-11-15T11:38:57Z</time>
      </trkpt>
      <trkpt lat="43.48295" lon="6.61941">
        <ele>73.68</ele>
        <time>2016-11-15T11:39:10Z</time>
      </trkpt>
      <trkpt lat="43.4829" lon="6.61935">
        <ele>69.83</ele>
        <time>2016-11-15T11:39:16Z</time>
      </trkpt>
      <trkpt lat="43.48289" lon="6.61934">
        <ele>76.56</ele>
        <time>2016-11-15T11:39:17Z</time>
      </trkpt>
      <trkpt lat="43.48288" lon="6.61933">
        <ele>72.24</ele>
        <time>2016-11-15T11:39:18Z</time>
      </trkpt>
      <trkpt lat="43.48279" lon="6.61918">
        <ele>71.27</ele>
        <time>2016-11-15T11:39:30Z</time>
      </trkpt>
      <trkpt lat="43.48269" lon="6.61909">
        <ele>70.31</ele>
        <time>2016-11-15T11:39:41Z</time>
      </trkpt>
      <trkpt lat="43.48253" lon="6.61894">
        <ele>68.39</ele>
        <time>2016-11-15T11:39:56Z</time>
      </trkpt>
      <trkpt lat="43.48247" lon="6.6189">
        <ele>67.91</ele>
        <time>2016-11-15T11:40:01Z</time>
      </trkpt>
      <trkpt lat="43.48232" lon="6.619">
        <ele>68.39</ele>
        <time>2016-11-15T11:40:17Z</time>
      </trkpt>
      <trkpt lat="43.48225" lon="6.6191">
        <ele>69.35</ele>
        <time>2016-11-15T11:40:28Z</time>
      </trkpt>
      <trkpt lat="43.48221" lon="6.61919">
        <ele>69.35</ele>
        <time>2016-11-15T11:40:35Z</time>
      </trkpt>
      <trkpt lat="43.48217" lon="6.61924">
        <ele>69.83</ele>
        <time>2016-11-15T11:40:39Z</time>
      </trkpt>
      <trkpt lat="43.4821" lon="6.61929">
        <ele>69.83</ele>
        <time>2016-11-15T11:40:47Z</time>
      </trkpt>
      <trkpt lat="43.48208" lon="6.6193">
        <ele>69.83</ele>
        <time>2016-11-15T11:40:49Z</time>
      </trkpt>
      <trkpt lat="43.48205" lon="6.61931">
        <ele>70.31</ele>
        <time>2016-11-15T11:40:52Z</time>
      </trkpt>
      <trkpt lat="43.48198" lon="6.61936">
        <ele>70.79</ele>
        <time>2016-11-15T11:40:59Z</time>
      </trkpt>
      <trkpt lat="43.48191" lon="6.61944">
        <ele>70.79</ele>
        <time>2016-11-15T11:41:08Z</time>
      </trkpt>
      <trkpt lat="43.48181" lon="6.61967">
        <ele>71.27</ele>
        <time>2016-11-15T11:41:24Z</time>
      </trkpt>
      <trkpt lat="43.4817" lon="6.61981">
        <ele>71.27</ele>
        <time>2016-11-15T11:41:38Z</time>
      </trkpt>
      <trkpt lat="43.48162" lon="6.61993">
        <ele>71.76</ele>
        <time>2016-11-15T11:41:51Z</time>
      </trkpt>
      <trkpt lat="43.48152" lon="6.62008">
        <ele>72.24</ele>
        <time>2016-11-15T11:42:07Z</time>
      </trkpt>
      <trkpt lat="43.48144" lon="6.6202">
        <ele>72.72</ele>
        <time>2016-11-15T11:42:21Z</time>
      </trkpt>
      <trkpt lat="43.4814" lon="6.62027">
        <ele>73.2</ele>
        <time>2016-11-15T11:42:29Z</time>
      </trkpt>
      <trkpt lat="43.48134" lon="6.6203">
        <ele>73.2</ele>
        <time>2016-11-15T11:42:36Z</time>
      </trkpt>
      <trkpt lat="43.48128" lon="6.62036">
        <ele>74.16</ele>
        <time>2016-11-15T11:42:44Z</time>
      </trkpt>
      <trkpt lat="43.48119" lon="6.62051">
        <ele>74.64</ele>
        <time>2016-11-15T11:43:00Z</time>
      </trkpt>
      <trkpt lat="43.48118" lon="6.62055">
        <ele>70.79</ele>
        <time>2016-11-15T11:43:04Z</time>
      </trkpt>
      <trkpt lat="43.48118" lon="6.62057">
        <ele>79.45</ele>
        <time>2016-11-15T11:43:05Z</time>
      </trkpt>
      <trkpt lat="43.48118" lon="6.62058">
        <ele>75.12</ele>
        <time>2016-11-15T11:43:06Z</time>
      </trkpt>
      <trkpt lat="43.48115" lon="6.62064">
        <ele>75.6</ele>
        <time>2016-11-15T11:43:10Z</time>
      </trkpt>
      <trkpt lat="43.4811" lon="6.62071">
        <ele>76.08</ele>
        <time>2016-11-15T11:43:18Z</time>
      </trkpt>
      <trkpt lat="43.48105" lon="6.62076">
        <ele>77.04</ele>
        <time>2016-11-15T11:43:24Z</time>
      </trkpt>
      <trkpt lat="43.48102" lon="6.62083">
        <ele>77.52</ele>
        <time>2016-11-15T11:43:30Z</time>
      </trkpt>
      <trkpt lat="43.48098" lon="6.62086">
        <ele>78</ele>
        <time>2016-11-15T11:43:34Z</time>
      </trkpt>
      <trkpt lat="43.48086" lon="6.62091">
        <ele>79.93</ele>
        <time>2016-11-15T11:43:48Z</time>
      </trkpt>
      <trkpt lat="43.48083" lon="6.62094">
        <ele>79.93</ele>
        <time>2016-11-15T11:43:52Z</time>
      </trkpt>
      <trkpt lat="43.4807" lon="6.62098">
        <ele>80.89</ele>
        <time>2016-11-15T11:44:06Z</time>
      </trkpt>
      <trkpt lat="43.48057" lon="6.62101">
        <ele>81.85</ele>
        <time>2016-11-15T11:44:20Z</time>
      </trkpt>
      <trkpt lat="43.48044" lon="6.62105">
        <ele>82.81</ele>
        <time>2016-11-15T11:44:34Z</time>
      </trkpt>
      <trkpt lat="43.48028" lon="6.62111">
        <ele>82.81</ele>
        <time>2016-11-15T11:44:50Z</time>
      </trkpt>
      <trkpt lat="43.48021" lon="6.62115">
        <ele>82.33</ele>
        <time>2016-11-15T11:44:57Z</time>
      </trkpt>
      <trkpt lat="43.48012" lon="6.62114">
        <ele>82.33</ele>
        <time>2016-11-15T11:45:06Z</time>
      </trkpt>
      <trkpt lat="43.47994" lon="6.62114">
        <ele>82.33</ele>
        <time>2016-11-15T11:45:22Z</time>
      </trkpt>
      <trkpt lat="43.47981" lon="6.62112">
        <ele>81.37</ele>
        <time>2016-11-15T11:45:36Z</time>
      </trkpt>
      <trkpt lat="43.47971" lon="6.6211">
        <ele>80.89</ele>
        <time>2016-11-15T11:45:45Z</time>
      </trkpt>
      <trkpt lat="43.47955" lon="6.62103">
        <ele>80.41</ele>
        <time>2016-11-15T11:46:02Z</time>
      </trkpt>
      <trkpt lat="43.47941" lon="6.62095">
        <ele>79.93</ele>
        <time>2016-11-15T11:46:17Z</time>
      </trkpt>
      <trkpt lat="43.47928" lon="6.62091">
        <ele>78.48</ele>
        <time>2016-11-15T11:46:32Z</time>
      </trkpt>
      <trkpt lat="43.47924" lon="6.6209">
        <ele>78.48</ele>
        <time>2016-11-15T11:46:37Z</time>
      </trkpt>
      <trkpt lat="43.4792" lon="6.62088">
        <ele>78</ele>
        <time>2016-11-15T11:46:41Z</time>
      </trkpt>
      <trkpt lat="43.47906" lon="6.62082">
        <ele>76.56</ele>
        <time>2016-11-15T11:46:56Z</time>
      </trkpt>
      <trkpt lat="43.47894" lon="6.62076">
        <ele>75.6</ele>
        <time>2016-11-15T11:47:10Z</time>
      </trkpt>
      <trkpt lat="43.47893" lon="6.62076">
        <ele>75.12</ele>
        <time>2016-11-15T11:47:11Z</time>
      </trkpt>
      <trkpt lat="43.47876" lon="6.62068">
        <ele>72.72</ele>
        <time>2016-11-15T11:47:30Z</time>
      </trkpt>
      <trkpt lat="43.47873" lon="6.62068">
        <ele>72.72</ele>
        <time>2016-11-15T11:47:33Z</time>
      </trkpt>
      <trkpt lat="43.47862" lon="6.62063">
        <ele>71.27</ele>
        <time>2016-11-15T11:47:44Z</time>
      </trkpt>
      <trkpt lat="43.47846" lon="6.62057">
        <ele>69.83</ele>
        <time>2016-11-15T11:47:59Z</time>
      </trkpt>
      <trkpt lat="43.47834" lon="6.62059">
        <ele>64.07</ele>
        <time>2016-11-15T11:48:10Z</time>
      </trkpt>
      <trkpt lat="43.47833" lon="6.62059">
        <ele>77.52</ele>
        <time>2016-11-15T11:48:11Z</time>
      </trkpt>
      <trkpt lat="43.47832" lon="6.62059">
        <ele>71.27</ele>
        <time>2016-11-15T11:48:12Z</time>
      </trkpt>
      <trkpt lat="43.47826" lon="6.6206">
        <ele>71.76</ele>
        <time>2016-11-15T11:48:19Z</time>
      </trkpt>
      <trkpt lat="43.47823" lon="6.6206">
        <ele>71.76</ele>
        <time>2016-11-15T11:48:22Z</time>
      </trkpt>
      <trkpt lat="43.47816" lon="6.6206">
        <ele>72.24</ele>
        <time>2016-11-15T11:48:29Z</time>
      </trkpt>
      <trkpt lat="43.47799" lon="6.62059">
        <ele>73.2</ele>
        <time>2016-11-15T11:48:45Z</time>
      </trkpt>
      <trkpt lat="43.47794" lon="6.6206">
        <ele>73.2</ele>
        <time>2016-11-15T11:48:49Z</time>
      </trkpt>
      <trkpt lat="43.47781" lon="6.6206">
        <ele>73.68</ele>
        <time>2016-11-15T11:49:03Z</time>
      </trkpt>
      <trkpt lat="43.47765" lon="6.6206">
        <ele>73.68</ele>
        <time>2016-11-15T11:49:19Z</time>
      </trkpt>
      <trkpt lat="43.47751" lon="6.62058">
        <ele>73.2</ele>
        <time>2016-11-15T11:49:33Z</time>
      </trkpt>
      <trkpt lat="43.47736" lon="6.6205">
        <ele>72.72</ele>
        <time>2016-11-15T11:49:48Z</time>
      </trkpt>
      <trkpt lat="43.47731" lon="6.62046">
        <ele>72.24</ele>
        <time>2016-11-15T11:49:54Z</time>
      </trkpt>
      <trkpt lat="43.47726" lon="6.62041">
        <ele>72.24</ele>
        <time>2016-11-15T11:50:09Z</time>
      </trkpt>
      <trkpt lat="43.47726" lon="6.62041">
        <ele>72.24</ele>
        <time>2016-11-15T11:50:23Z</time>
      </trkpt>
      <trkpt lat="43.47726" lon="6.6204">
        <ele>72.24</ele>
        <time>2016-11-15T11:50:41Z</time>
      </trkpt>
      <trkpt lat="43.47726" lon="6.6204">
        <ele>72.24</ele>
        <time>2016-11-15T11:50:58Z</time>
      </trkpt>
      <trkpt lat="43.47725" lon="6.6204">
        <ele>72.24</ele>
        <time>2016-11-15T11:51:25Z</time>
      </trkpt>
      <trkpt lat="43.47725" lon="6.6204">
        <ele>72.24</ele>
        <time>2016-11-15T11:51:41Z</time>
      </trkpt>
      <trkpt lat="43.47725" lon="6.6204">
        <ele>72.24</ele>
        <time>2016-11-15T11:51:56Z</time>
      </trkpt>
      <trkpt lat="43.47725" lon="6.6204">
        <ele>72.24</ele>
        <time>2016-11-15T11:52:14Z</time>
      </trkpt>
      <trkpt lat="43.47722" lon="6.62039">
        <ele>71.76</ele>
        <time>2016-11-15T11:52:44Z</time>
      </trkpt>
      <trkpt lat="43.47713" lon="6.62027">
        <ele>71.27</ele>
        <time>2016-11-15T11:52:55Z</time>
      </trkpt>
      <trkpt lat="43.47699" lon="6.62008">
        <ele>69.35</ele>
        <time>2016-11-15T11:53:11Z</time>
      </trkpt>
      <trkpt lat="43.47697" lon="6.62004">
        <ele>68.87</ele>
        <time>2016-11-15T11:53:14Z</time>
      </trkpt>
      <trkpt lat="43.47692" lon="6.61999">
        <ele>67.91</ele>
        <time>2016-11-15T11:53:19Z</time>
      </trkpt>
      <trkpt lat="43.47687" lon="6.6199">
        <ele>66.95</ele>
        <time>2016-11-15T11:53:27Z</time>
      </trkpt>
      <trkpt lat="43.47686" lon="6.61984">
        <ele>66.47</ele>
        <time>2016-11-15T11:53:31Z</time>
      </trkpt>
      <trkpt lat="43.47682" lon="6.61977">
        <ele>65.51</ele>
        <time>2016-11-15T11:53:37Z</time>
      </trkpt>
      <trkpt lat="43.47679" lon="6.61974">
        <ele>65.03</ele>
        <time>2016-11-15T11:53:40Z</time>
      </trkpt>
      <trkpt lat="43.47671" lon="6.6196">
        <ele>64.55</ele>
        <time>2016-11-15T11:53:51Z</time>
      </trkpt>
      <trkpt lat="43.47655" lon="6.61957">
        <ele>65.03</ele>
        <time>2016-11-15T11:54:04Z</time>
      </trkpt>
      <trkpt lat="43.47641" lon="6.61965">
        <ele>66.47</ele>
        <time>2016-11-15T11:54:19Z</time>
      </trkpt>
      <trkpt lat="43.47625" lon="6.61969">
        <ele>67.43</ele>
        <time>2016-11-15T11:54:34Z</time>
      </trkpt>
      <trkpt lat="43.4761" lon="6.61968">
        <ele>68.39</ele>
        <time>2016-11-15T11:54:49Z</time>
      </trkpt>
      <trkpt lat="43.476" lon="6.61967">
        <ele>68.87</ele>
        <time>2016-11-15T11:54:58Z</time>
      </trkpt>
      <trkpt lat="43.47592" lon="6.61967">
        <ele>69.35</ele>
        <time>2016-11-15T11:55:05Z</time>
      </trkpt>
      <trkpt lat="43.47574" lon="6.61958">
        <ele>68.39</ele>
        <time>2016-11-15T11:55:22Z</time>
      </trkpt>
      <trkpt lat="43.47556" lon="6.61957">
        <ele>67.91</ele>
        <time>2016-11-15T11:55:37Z</time>
      </trkpt>
      <trkpt lat="43.47551" lon="6.61957">
        <ele>68.39</ele>
        <time>2016-11-15T11:55:41Z</time>
      </trkpt>
      <trkpt lat="43.47534" lon="6.61953">
        <ele>69.83</ele>
        <time>2016-11-15T11:55:56Z</time>
      </trkpt>
      <trkpt lat="43.47523" lon="6.61951">
        <ele>70.31</ele>
        <time>2016-11-15T11:56:07Z</time>
      </trkpt>
      <trkpt lat="43.47508" lon="6.61945">
        <ele>70.79</ele>
        <time>2016-11-15T11:56:21Z</time>
      </trkpt>
      <trkpt lat="43.47497" lon="6.61941">
        <ele>70.79</ele>
        <time>2016-11-15T11:56:31Z</time>
      </trkpt>
      <trkpt lat="43.47495" lon="6.61942">
        <ele>70.31</ele>
        <time>2016-11-15T11:56:33Z</time>
      </trkpt>
      <trkpt lat="43.47485" lon="6.61938">
        <ele>70.79</ele>
        <time>2016-11-15T11:56:44Z</time>
      </trkpt>
      <trkpt lat="43.4748" lon="6.61936">
        <ele>70.79</ele>
        <time>2016-11-15T11:56:50Z</time>
      </trkpt>
      <trkpt lat="43.47475" lon="6.61935">
        <ele>70.31</ele>
        <time>2016-11-15T11:56:55Z</time>
      </trkpt>
      <trkpt lat="43.47457" lon="6.61924">
        <ele>69.35</ele>
        <time>2016-11-15T11:57:12Z</time>
      </trkpt>
      <trkpt lat="43.47445" lon="6.61921">
        <ele>68.87</ele>
        <time>2016-11-15T11:57:23Z</time>
      </trkpt>
      <trkpt lat="43.47429" lon="6.61914">
        <ele>68.39</ele>
        <time>2016-11-15T11:57:38Z</time>
      </trkpt>
      <trkpt lat="43.47422" lon="6.61913">
        <ele>67.43</ele>
        <time>2016-11-15T11:57:44Z</time>
      </trkpt>
      <trkpt lat="43.47406" lon="6.61906">
        <ele>65.99</ele>
        <time>2016-11-15T11:58:00Z</time>
      </trkpt>
      <trkpt lat="43.47393" lon="6.61898">
        <ele>64.55</ele>
        <time>2016-11-15T11:58:13Z</time>
      </trkpt>
      <trkpt lat="43.47386" lon="6.61894">
        <ele>64.07</ele>
        <time>2016-11-15T11:58:20Z</time>
      </trkpt>
      <trkpt lat="43.47371" lon="6.61889">
        <ele>62.62</ele>
        <time>2016-11-15T11:58:34Z</time>
      </trkpt>
      <trkpt lat="43.47357" lon="6.61884">
        <ele>62.14</ele>
        <time>2016-11-15T11:58:48Z</time>
      </trkpt>
      <trkpt lat="43.47346" lon="6.61875">
        <ele>60.7</ele>
        <time>2016-11-15T11:59:01Z</time>
      </trkpt>
      <trkpt lat="43.47341" lon="6.61872">
        <ele>57.34</ele>
        <time>2016-11-15T11:59:06Z</time>
      </trkpt>
      <trkpt lat="43.4734" lon="6.61871">
        <ele>62.62</ele>
        <time>2016-11-15T11:59:07Z</time>
      </trkpt>
      <trkpt lat="43.47338" lon="6.61869">
        <ele>57.34</ele>
        <time>2016-11-15T11:59:09Z</time>
      </trkpt>
      <trkpt lat="43.47337" lon="6.61868">
        <ele>65.99</ele>
        <time>2016-11-15T11:59:10Z</time>
      </trkpt>
      <trkpt lat="43.47336" lon="6.61867">
        <ele>60.7</ele>
        <time>2016-11-15T11:59:11Z</time>
      </trkpt>
      <trkpt lat="43.47334" lon="6.61866">
        <ele>60.22</ele>
        <time>2016-11-15T11:59:14Z</time>
      </trkpt>
      <trkpt lat="43.4733" lon="6.61854">
        <ele>60.7</ele>
        <time>2016-11-15T11:59:28Z</time>
      </trkpt>
      <trkpt lat="43.47331" lon="6.61854">
        <ele>60.7</ele>
        <time>2016-11-15T11:59:48Z</time>
      </trkpt>
      <trkpt lat="43.47331" lon="6.61851">
        <ele>60.7</ele>
        <time>2016-11-15T12:00:00Z</time>
      </trkpt>
      <trkpt lat="43.47332" lon="6.61846">
        <ele>61.18</ele>
        <time>2016-11-15T12:00:10Z</time>
      </trkpt>
      <trkpt lat="43.47334" lon="6.61835">
        <ele>57.82</ele>
        <time>2016-11-15T12:00:23Z</time>
      </trkpt>
      <trkpt lat="43.47334" lon="6.61835">
        <ele>66.47</ele>
        <time>2016-11-15T12:00:24Z</time>
      </trkpt>
      <trkpt lat="43.47334" lon="6.61834">
        <ele>61.66</ele>
        <time>2016-11-15T12:00:25Z</time>
      </trkpt>
      <trkpt lat="43.47335" lon="6.6183">
        <ele>54.45</ele>
        <time>2016-11-15T12:00:29Z</time>
      </trkpt>
      <trkpt lat="43.47335" lon="6.61829">
        <ele>68.87</ele>
        <time>2016-11-15T12:00:30Z</time>
      </trkpt>
      <trkpt lat="43.47335" lon="6.61828">
        <ele>57.34</ele>
        <time>2016-11-15T12:00:31Z</time>
      </trkpt>
      <trkpt lat="43.47335" lon="6.61827">
        <ele>62.14</ele>
        <time>2016-11-15T12:00:32Z</time>
      </trkpt>
      <trkpt lat="43.47336" lon="6.61821">
        <ele>62.14</ele>
        <time>2016-11-15T12:00:46Z</time>
      </trkpt>
      <trkpt lat="43.47335" lon="6.61825">
        <ele>62.14</ele>
        <time>2016-11-15T12:01:01Z</time>
      </trkpt>
      <trkpt lat="43.47333" lon="6.61843">
        <ele>61.18</ele>
        <time>2016-11-15T12:01:14Z</time>
      </trkpt>
      <trkpt lat="43.47331" lon="6.61848">
        <ele>61.18</ele>
        <time>2016-11-15T12:01:26Z</time>
      </trkpt>
      <trkpt lat="43.47331" lon="6.61858">
        <ele>60.7</ele>
        <time>2016-11-15T12:01:43Z</time>
      </trkpt>
      <trkpt lat="43.4733" lon="6.61861">
        <ele>61.18</ele>
        <time>2016-11-15T12:02:01Z</time>
      </trkpt>
      <trkpt lat="43.4733" lon="6.61861">
        <ele>60.7</ele>
        <time>2016-11-15T12:02:20Z</time>
      </trkpt>
      <trkpt lat="43.4733" lon="6.61861">
        <ele>60.7</ele>
        <time>2016-11-15T12:02:44Z</time>
      </trkpt>
      <trkpt lat="43.47331" lon="6.6186">
        <ele>61.18</ele>
        <time>2016-11-15T12:03:03Z</time>
      </trkpt>
      <trkpt lat="43.47331" lon="6.6186">
        <ele>60.7</ele>
        <time>2016-11-15T12:03:30Z</time>
      </trkpt>
      <trkpt lat="43.47331" lon="6.61861">
        <ele>60.7</ele>
        <time>2016-11-15T12:03:54Z</time>
      </trkpt>
      <trkpt lat="43.47331" lon="6.61861">
        <ele>60.7</ele>
        <time>2016-11-15T12:04:20Z</time>
      </trkpt>
      <trkpt lat="43.47331" lon="6.61862">
        <ele>60.7</ele>
        <time>2016-11-15T12:04:51Z</time>
      </trkpt>
      <trkpt lat="43.47331" lon="6.61861">
        <ele>60.7</ele>
        <time>2016-11-15T12:05:07Z</time>
      </trkpt>
      <trkpt lat="43.4733" lon="6.61861">
        <ele>60.7</ele>
        <time>2016-11-15T12:05:26Z</time>
      </trkpt>
      <trkpt lat="43.4733" lon="6.61861">
        <ele>60.7</ele>
        <time>2016-11-15T12:05:58Z</time>
      </trkpt>
      <trkpt lat="43.47332" lon="6.61862">
        <ele>60.7</ele>
        <time>2016-11-15T12:06:26Z</time>
      </trkpt>
      <trkpt lat="43.47335" lon="6.61862">
        <ele>60.7</ele>
        <time>2016-11-15T12:06:43Z</time>
      </trkpt>
      <trkpt lat="43.47333" lon="6.61862">
        <ele>60.22</ele>
        <time>2016-11-15T12:07:00Z</time>
      </trkpt>
      <trkpt lat="43.47332" lon="6.61862">
        <ele>60.22</ele>
        <time>2016-11-15T12:07:16Z</time>
      </trkpt>
      <trkpt lat="43.47332" lon="6.61862">
        <ele>60.22</ele>
        <time>2016-11-15T12:07:32Z</time>
      </trkpt>
      <trkpt lat="43.47334" lon="6.61861">
        <ele>60.22</ele>
        <time>2016-11-15T12:07:51Z</time>
      </trkpt>
      <trkpt lat="43.47335" lon="6.61861">
        <ele>60.22</ele>
        <time>2016-11-15T12:08:05Z</time>
      </trkpt>
      <trkpt lat="43.47332" lon="6.61862">
        <ele>60.22</ele>
        <time>2016-11-15T12:08:17Z</time>
      </trkpt>
      <trkpt lat="43.4733" lon="6.61854">
        <ele>60.7</ele>
        <time>2016-11-15T12:08:28Z</time>
      </trkpt>
      <trkpt lat="43.47331" lon="6.61857">
        <ele>60.22</ele>
        <time>2016-11-15T12:08:42Z</time>
      </trkpt>
      <trkpt lat="43.47332" lon="6.61862">
        <ele>60.22</ele>
        <time>2016-11-15T12:09:02Z</time>
      </trkpt>
      <trkpt lat="43.47332" lon="6.61861">
        <ele>60.22</ele>
        <time>2016-11-15T12:09:15Z</time>
      </trkpt>
      <trkpt lat="43.47331" lon="6.61854">
        <ele>60.22</ele>
        <time>2016-11-15T12:09:20Z</time>
      </trkpt>
      <trkpt lat="43.47332" lon="6.61848">
        <ele>60.7</ele>
        <time>2016-11-15T12:09:24Z</time>
      </trkpt>
      <trkpt lat="43.47335" lon="6.6184">
        <ele>61.18</ele>
        <time>2016-11-15T12:09:30Z</time>
      </trkpt>
      <trkpt lat="43.47339" lon="6.61819">
        <ele>61.66</ele>
        <time>2016-11-15T12:09:43Z</time>
      </trkpt>
      <trkpt lat="43.47343" lon="6.61802">
        <ele>62.62</ele>
        <time>2016-11-15T12:09:55Z</time>
      </trkpt>
      <trkpt lat="43.47348" lon="6.61779">
        <ele>63.1</ele>
        <time>2016-11-15T12:10:10Z</time>
      </trkpt>
      <trkpt lat="43.47352" lon="6.61758">
        <ele>62.62</ele>
        <time>2016-11-15T12:10:23Z</time>
      </trkpt>
      <trkpt lat="43.47361" lon="6.61734">
        <ele>62.14</ele>
        <time>2016-11-15T12:10:38Z</time>
      </trkpt>
      <trkpt lat="43.47366" lon="6.61723">
        <ele>62.14</ele>
        <time>2016-11-15T12:10:45Z</time>
      </trkpt>
      <trkpt lat="43.47373" lon="6.61699">
        <ele>62.62</ele>
        <time>2016-11-15T12:11:00Z</time>
      </trkpt>
      <trkpt lat="43.47374" lon="6.61694">
        <ele>62.62</ele>
        <time>2016-11-15T12:11:03Z</time>
      </trkpt>
      <trkpt lat="43.47379" lon="6.61677">
        <ele>63.1</ele>
        <time>2016-11-15T12:11:13Z</time>
      </trkpt>
      <trkpt lat="43.47385" lon="6.61652">
        <ele>64.55</ele>
        <time>2016-11-15T12:11:28Z</time>
      </trkpt>
      <trkpt lat="43.47392" lon="6.61629">
        <ele>65.99</ele>
        <time>2016-11-15T12:11:43Z</time>
      </trkpt>
      <trkpt lat="43.47399" lon="6.61599">
        <ele>66.95</ele>
        <time>2016-11-15T12:12:02Z</time>
      </trkpt>
      <trkpt lat="43.47401" lon="6.61593">
        <ele>67.43</ele>
        <time>2016-11-15T12:12:06Z</time>
      </trkpt>
      <trkpt lat="43.47403" lon="6.61587">
        <ele>67.43</ele>
        <time>2016-11-15T12:12:10Z</time>
      </trkpt>
      <trkpt lat="43.47407" lon="6.61565">
        <ele>67.91</ele>
        <time>2016-11-15T12:12:23Z</time>
      </trkpt>
      <trkpt lat="43.47412" lon="6.61552">
        <ele>67.91</ele>
        <time>2016-11-15T12:12:32Z</time>
      </trkpt>
      <trkpt lat="43.47422" lon="6.61531">
        <ele>68.39</ele>
        <time>2016-11-15T12:12:47Z</time>
      </trkpt>
      <trkpt lat="43.47431" lon="6.61513">
        <ele>68.87</ele>
        <time>2016-11-15T12:13:00Z</time>
      </trkpt>
      <trkpt lat="43.47435" lon="6.61505">
        <ele>68.87</ele>
        <time>2016-11-15T12:13:05Z</time>
      </trkpt>
      <trkpt lat="43.47441" lon="6.61488">
        <ele>69.35</ele>
        <time>2016-11-15T12:13:17Z</time>
      </trkpt>
      <trkpt lat="43.47446" lon="6.6148">
        <ele>69.35</ele>
        <time>2016-11-15T12:13:24Z</time>
      </trkpt>
      <trkpt lat="43.47451" lon="6.61479">
        <ele>69.83</ele>
        <time>2016-11-15T12:13:29Z</time>
      </trkpt>
      <trkpt lat="43.47453" lon="6.61479">
        <ele>69.83</ele>
        <time>2016-11-15T12:13:41Z</time>
      </trkpt>
      <trkpt lat="43.47445" lon="6.61487">
        <ele>69.35</ele>
        <time>2016-11-15T12:13:52Z</time>
      </trkpt>
      <trkpt lat="43.47444" lon="6.61496">
        <ele>69.35</ele>
        <time>2016-11-15T12:14:06Z</time>
      </trkpt>
      <trkpt lat="43.47443" lon="6.61495">
        <ele>69.35</ele>
        <time>2016-11-15T12:14:21Z</time>
      </trkpt>
      <trkpt lat="43.47444" lon="6.61495">
        <ele>69.35</ele>
        <time>2016-11-15T12:14:23Z</time>
      </trkpt>
      <trkpt lat="43.4744" lon="6.61493">
        <ele>69.35</ele>
        <time>2016-11-15T12:14:27Z</time>
      </trkpt>
      <trkpt lat="43.47438" lon="6.61491">
        <ele>68.87</ele>
        <time>2016-11-15T12:14:29Z</time>
      </trkpt>
      <trkpt lat="43.47431" lon="6.61473">
        <ele>68.39</ele>
        <time>2016-11-15T12:14:44Z</time>
      </trkpt>
      <trkpt lat="43.4743" lon="6.61474">
        <ele>69.83</ele>
        <time>2016-11-15T12:14:58Z</time>
      </trkpt>
      <trkpt lat="43.47425" lon="6.61498">
        <ele>68.87</ele>
        <time>2016-11-15T12:15:14Z</time>
      </trkpt>
      <trkpt lat="43.47425" lon="6.61499">
        <ele>69.35</ele>
        <time>2016-11-15T12:15:22Z</time>
      </trkpt>
      <trkpt lat="43.47427" lon="6.61495">
        <ele>68.39</ele>
        <time>2016-11-15T12:15:35Z</time>
      </trkpt>
      <trkpt lat="43.47425" lon="6.615">
        <ele>68.39</ele>
        <time>2016-11-15T12:15:47Z</time>
      </trkpt>
      <trkpt lat="43.47424" lon="6.61501">
        <ele>68.39</ele>
        <time>2016-11-15T12:16:03Z</time>
      </trkpt>
      <trkpt lat="43.47425" lon="6.61501">
        <ele>68.39</ele>
        <time>2016-11-15T12:16:17Z</time>
      </trkpt>
      <trkpt lat="43.47421" lon="6.61501">
        <ele>68.39</ele>
        <time>2016-11-15T12:16:34Z</time>
      </trkpt>
      <trkpt lat="43.47423" lon="6.61499">
        <ele>68.39</ele>
        <time>2016-11-15T12:16:45Z</time>
      </trkpt>
      <trkpt lat="43.47424" lon="6.61503">
        <ele>68.39</ele>
        <time>2016-11-15T12:16:51Z</time>
      </trkpt>
      <trkpt lat="43.47424" lon="6.61498">
        <ele>67.91</ele>
        <time>2016-11-15T12:17:03Z</time>
      </trkpt>
      <trkpt lat="43.47424" lon="6.61498">
        <ele>67.91</ele>
        <time>2016-11-15T12:17:30Z</time>
      </trkpt>
      <trkpt lat="43.47424" lon="6.61498">
        <ele>67.91</ele>
        <time>2016-11-15T12:17:54Z</time>
      </trkpt>
      <trkpt lat="43.47424" lon="6.61498">
        <ele>67.91</ele>
        <time>2016-11-15T12:18:16Z</time>
      </trkpt>
      <trkpt lat="43.47424" lon="6.61499">
        <ele>67.91</ele>
        <time>2016-11-15T12:18:47Z</time>
      </trkpt>
      <trkpt lat="43.47424" lon="6.61499">
        <ele>67.91</ele>
        <time>2016-11-15T12:19:17Z</time>
      </trkpt>
      <trkpt lat="43.47424" lon="6.61499">
        <ele>67.91</ele>
        <time>2016-11-15T12:19:48Z</time>
      </trkpt>
      <trkpt lat="43.47424" lon="6.61499">
        <ele>67.91</ele>
        <time>2016-11-15T12:20:24Z</time>
      </trkpt>
      <trkpt lat="43.47424" lon="6.61498">
        <ele>67.91</ele>
        <time>2016-11-15T12:20:55Z</time>
      </trkpt>
      <trkpt lat="43.47424" lon="6.61498">
        <ele>67.91</ele>
        <time>2016-11-15T12:21:34Z</time>
      </trkpt>
      <trkpt lat="43.47424" lon="6.61498">
        <ele>67.91</ele>
        <time>2016-11-15T12:22:15Z</time>
      </trkpt>
      <trkpt lat="43.47424" lon="6.61498">
        <ele>67.91</ele>
        <time>2016-11-15T12:22:49Z</time>
      </trkpt>
      <trkpt lat="43.47424" lon="6.61497">
        <ele>67.91</ele>
        <time>2016-11-15T12:23:22Z</time>
      </trkpt>
      <trkpt lat="43.47424" lon="6.61497">
        <ele>67.91</ele>
        <time>2016-11-15T12:23:56Z</time>
      </trkpt>
      <trkpt lat="43.47424" lon="6.61497">
        <ele>67.43</ele>
        <time>2016-11-15T12:24:31Z</time>
      </trkpt>
      <trkpt lat="43.47424" lon="6.61498">
        <ele>67.91</ele>
        <time>2016-11-15T12:25:03Z</time>
      </trkpt>
      <trkpt lat="43.47425" lon="6.61498">
        <ele>67.91</ele>
        <time>2016-11-15T12:25:31Z</time>
      </trkpt>
      <trkpt lat="43.47424" lon="6.61498">
        <ele>67.43</ele>
        <time>2016-11-15T12:26:07Z</time>
      </trkpt>
      <trkpt lat="43.47424" lon="6.61498">
        <ele>67.91</ele>
        <time>2016-11-15T12:26:46Z</time>
      </trkpt>
      <trkpt lat="43.47424" lon="6.61498">
        <ele>67.43</ele>
        <time>2016-11-15T12:27:25Z</time>
      </trkpt>
      <trkpt lat="43.47424" lon="6.61498">
        <ele>67.43</ele>
        <time>2016-11-15T12:28:04Z</time>
      </trkpt>
      <trkpt lat="43.47423" lon="6.61499">
        <ele>67.43</ele>
        <time>2016-11-15T12:28:47Z</time>
      </trkpt>
      <trkpt lat="43.47423" lon="6.61499">
        <ele>67.91</ele>
        <time>2016-11-15T12:29:19Z</time>
      </trkpt>
      <trkpt lat="43.47422" lon="6.615">
        <ele>67.91</ele>
        <time>2016-11-15T12:29:55Z</time>
      </trkpt>
      <trkpt lat="43.47423" lon="6.615">
        <ele>67.91</ele>
        <time>2016-11-15T12:30:25Z</time>
      </trkpt>
      <trkpt lat="43.47423" lon="6.615">
        <ele>67.91</ele>
        <time>2016-11-15T12:30:51Z</time>
      </trkpt>
      <trkpt lat="43.47422" lon="6.615">
        <ele>67.91</ele>
        <time>2016-11-15T12:31:17Z</time>
      </trkpt>
      <trkpt lat="43.47422" lon="6.615">
        <ele>67.91</ele>
        <time>2016-11-15T12:31:49Z</time>
      </trkpt>
      <trkpt lat="43.47422" lon="6.615">
        <ele>67.91</ele>
        <time>2016-11-15T12:32:24Z</time>
      </trkpt>
      <trkpt lat="43.47423" lon="6.615">
        <ele>67.91</ele>
        <time>2016-11-15T12:32:57Z</time>
      </trkpt>
      <trkpt lat="43.47422" lon="6.615">
        <ele>67.91</ele>
        <time>2016-11-15T12:33:35Z</time>
      </trkpt>
      <trkpt lat="43.47423" lon="6.61499">
        <ele>67.43</ele>
        <time>2016-11-15T12:33:56Z</time>
      </trkpt>
      <trkpt lat="43.47423" lon="6.61499">
        <ele>67.43</ele>
        <time>2016-11-15T12:34:24Z</time>
      </trkpt>
      <trkpt lat="43.47422" lon="6.61499">
        <ele>67.43</ele>
        <time>2016-11-15T12:34:55Z</time>
      </trkpt>
      <trkpt lat="43.47422" lon="6.615">
        <ele>67.43</ele>
        <time>2016-11-15T12:35:30Z</time>
      </trkpt>
      <trkpt lat="43.47422" lon="6.61501">
        <ele>67.43</ele>
        <time>2016-11-15T12:36:02Z</time>
      </trkpt>
      <trkpt lat="43.47422" lon="6.61501">
        <ele>67.43</ele>
        <time>2016-11-15T12:36:31Z</time>
      </trkpt>
      <trkpt lat="43.47422" lon="6.61501">
        <ele>67.43</ele>
        <time>2016-11-15T12:37:01Z</time>
      </trkpt>
      <trkpt lat="43.47421" lon="6.61502">
        <ele>67.43</ele>
        <time>2016-11-15T12:37:34Z</time>
      </trkpt>
      <trkpt lat="43.47421" lon="6.61501">
        <ele>67.43</ele>
        <time>2016-11-15T12:38:09Z</time>
      </trkpt>
      <trkpt lat="43.47421" lon="6.61501">
        <ele>67.43</ele>
        <time>2016-11-15T12:38:35Z</time>
      </trkpt>
      <trkpt lat="43.47421" lon="6.61502">
        <ele>67.43</ele>
        <time>2016-11-15T12:39:06Z</time>
      </trkpt>
      <trkpt lat="43.47421" lon="6.61502">
        <ele>67.43</ele>
        <time>2016-11-15T12:39:37Z</time>
      </trkpt>
      <trkpt lat="43.47421" lon="6.61502">
        <ele>67.43</ele>
        <time>2016-11-15T12:40:09Z</time>
      </trkpt>
      <trkpt lat="43.47421" lon="6.61501">
        <ele>67.43</ele>
        <time>2016-11-15T12:40:44Z</time>
      </trkpt>
      <trkpt lat="43.47421" lon="6.61501">
        <ele>66.95</ele>
        <time>2016-11-15T12:41:16Z</time>
      </trkpt>
      <trkpt lat="43.47422" lon="6.61501">
        <ele>66.95</ele>
        <time>2016-11-15T12:41:42Z</time>
      </trkpt>
      <trkpt lat="43.47422" lon="6.61501">
        <ele>67.43</ele>
        <time>2016-11-15T12:42:12Z</time>
      </trkpt>
      <trkpt lat="43.47422" lon="6.61501">
        <ele>67.43</ele>
        <time>2016-11-15T12:42:41Z</time>
      </trkpt>
      <trkpt lat="43.47422" lon="6.61501">
        <ele>67.43</ele>
        <time>2016-11-15T12:43:10Z</time>
      </trkpt>
      <trkpt lat="43.47422" lon="6.615">
        <ele>67.43</ele>
        <time>2016-11-15T12:43:33Z</time>
      </trkpt>
      <trkpt lat="43.47422" lon="6.61499">
        <ele>67.43</ele>
        <time>2016-11-15T12:43:58Z</time>
      </trkpt>
      <trkpt lat="43.47422" lon="6.61499">
        <ele>67.43</ele>
        <time>2016-11-15T12:44:19Z</time>
      </trkpt>
      <trkpt lat="43.47425" lon="6.61494">
        <ele>67.43</ele>
        <time>2016-11-15T12:44:32Z</time>
      </trkpt>
      <trkpt lat="43.47425" lon="6.61494">
        <ele>67.43</ele>
        <time>2016-11-15T12:44:57Z</time>
      </trkpt>
      <trkpt lat="43.47425" lon="6.61493">
        <ele>67.43</ele>
        <time>2016-11-15T12:45:35Z</time>
      </trkpt>
      <trkpt lat="43.47424" lon="6.61492">
        <ele>67.43</ele>
        <time>2016-11-15T12:46:14Z</time>
      </trkpt>
      <trkpt lat="43.47424" lon="6.6149">
        <ele>67.43</ele>
        <time>2016-11-15T12:46:52Z</time>
      </trkpt>
      <trkpt lat="43.47424" lon="6.6149">
        <ele>67.43</ele>
        <time>2016-11-15T12:47:25Z</time>
      </trkpt>
      <trkpt lat="43.47423" lon="6.61491">
        <ele>67.43</ele>
        <time>2016-11-15T12:47:46Z</time>
      </trkpt>
      <trkpt lat="43.47423" lon="6.61493">
        <ele>67.43</ele>
        <time>2016-11-15T12:48:11Z</time>
      </trkpt>
      <trkpt lat="43.47424" lon="6.61493">
        <ele>67.43</ele>
        <time>2016-11-15T12:48:34Z</time>
      </trkpt>
      <trkpt lat="43.47423" lon="6.61496">
        <ele>67.43</ele>
        <time>2016-11-15T12:48:47Z</time>
      </trkpt>
      <trkpt lat="43.47422" lon="6.61498">
        <ele>67.43</ele>
        <time>2016-11-15T12:49:11Z</time>
      </trkpt>
      <trkpt lat="43.47422" lon="6.61499">
        <ele>67.43</ele>
        <time>2016-11-15T12:49:36Z</time>
      </trkpt>
      <trkpt lat="43.47422" lon="6.61504">
        <ele>67.43</ele>
        <time>2016-11-15T12:49:50Z</time>
      </trkpt>
      <trkpt lat="43.47423" lon="6.61504">
        <ele>67.43</ele>
        <time>2016-11-15T12:50:18Z</time>
      </trkpt>
      <trkpt lat="43.47423" lon="6.61505">
        <ele>64.07</ele>
        <time>2016-11-15T12:50:31Z</time>
      </trkpt>
      <trkpt lat="43.47423" lon="6.61505">
        <ele>69.83</ele>
        <time>2016-11-15T12:50:32Z</time>
      </trkpt>
      <trkpt lat="43.47426" lon="6.61496">
        <ele>66.47</ele>
        <time>2016-11-15T12:50:45Z</time>
      </trkpt>
      <trkpt lat="43.47426" lon="6.61494">
        <ele>66.95</ele>
        <time>2016-11-15T12:50:46Z</time>
      </trkpt>
      <trkpt lat="43.47425" lon="6.61474">
        <ele>66.95</ele>
        <time>2016-11-15T12:51:00Z</time>
      </trkpt>
      <trkpt lat="43.47428" lon="6.61476">
        <ele>67.43</ele>
        <time>2016-11-15T12:51:11Z</time>
      </trkpt>
      <trkpt lat="43.47427" lon="6.6149">
        <ele>67.43</ele>
        <time>2016-11-15T12:51:22Z</time>
      </trkpt>
      <trkpt lat="43.47424" lon="6.61498">
        <ele>67.43</ele>
        <time>2016-11-15T12:51:36Z</time>
      </trkpt>
      <trkpt lat="43.47425" lon="6.61498">
        <ele>67.43</ele>
        <time>2016-11-15T12:51:57Z</time>
      </trkpt>
      <trkpt lat="43.47424" lon="6.61499">
        <ele>67.43</ele>
        <time>2016-11-15T12:52:20Z</time>
      </trkpt>
      <trkpt lat="43.47424" lon="6.61501">
        <ele>67.43</ele>
        <time>2016-11-15T12:52:43Z</time>
      </trkpt>
      <trkpt lat="43.47424" lon="6.61502">
        <ele>67.43</ele>
        <time>2016-11-15T12:53:18Z</time>
      </trkpt>
      <trkpt lat="43.47424" lon="6.61502">
        <ele>67.43</ele>
        <time>2016-11-15T12:53:53Z</time>
      </trkpt>
      <trkpt lat="43.47424" lon="6.61502">
        <ele>66.95</ele>
        <time>2016-11-15T12:54:23Z</time>
      </trkpt>
      <trkpt lat="43.47424" lon="6.61503">
        <ele>67.43</ele>
        <time>2016-11-15T12:54:57Z</time>
      </trkpt>
      <trkpt lat="43.47425" lon="6.61503">
        <ele>67.43</ele>
        <time>2016-11-15T12:55:22Z</time>
      </trkpt>
      <trkpt lat="43.47424" lon="6.61503">
        <ele>67.43</ele>
        <time>2016-11-15T12:55:49Z</time>
      </trkpt>
      <trkpt lat="43.47425" lon="6.61503">
        <ele>67.43</ele>
        <time>2016-11-15T12:56:04Z</time>
      </trkpt>
      <trkpt lat="43.47429" lon="6.61499">
        <ele>67.43</ele>
        <time>2016-11-15T12:56:09Z</time>
      </trkpt>
      <trkpt lat="43.47435" lon="6.61491">
        <ele>67.91</ele>
        <time>2016-11-15T12:56:15Z</time>
      </trkpt>
      <trkpt lat="43.47441" lon="6.61486">
        <ele>67.91</ele>
        <time>2016-11-15T12:56:21Z</time>
      </trkpt>
      <trkpt lat="43.47444" lon="6.61478">
        <ele>68.39</ele>
        <time>2016-11-15T12:56:27Z</time>
      </trkpt>
      <trkpt lat="43.47452" lon="6.61458">
        <ele>68.39</ele>
        <time>2016-11-15T12:56:41Z</time>
      </trkpt>
      <trkpt lat="43.47456" lon="6.61449">
        <ele>68.39</ele>
        <time>2016-11-15T12:56:48Z</time>
      </trkpt>
      <trkpt lat="43.47457" lon="6.61441">
        <ele>68.39</ele>
        <time>2016-11-15T12:56:53Z</time>
      </trkpt>
      <trkpt lat="43.47465" lon="6.6142">
        <ele>67.91</ele>
        <time>2016-11-15T12:57:09Z</time>
      </trkpt>
      <trkpt lat="43.47467" lon="6.61409">
        <ele>67.91</ele>
        <time>2016-11-15T12:57:19Z</time>
      </trkpt>
      <trkpt lat="43.47465" lon="6.61405">
        <ele>67.43</ele>
        <time>2016-11-15T12:57:22Z</time>
      </trkpt>
      <trkpt lat="43.47462" lon="6.61402">
        <ele>66.95</ele>
        <time>2016-11-15T12:57:26Z</time>
      </trkpt>
      <trkpt lat="43.47457" lon="6.61383">
        <ele>65.99</ele>
        <time>2016-11-15T12:57:42Z</time>
      </trkpt>
      <trkpt lat="43.47457" lon="6.61382">
        <ele>65.99</ele>
        <time>2016-11-15T12:57:43Z</time>
      </trkpt>
      <trkpt lat="43.47461" lon="6.61358">
        <ele>65.51</ele>
        <time>2016-11-15T12:58:01Z</time>
      </trkpt>
      <trkpt lat="43.47466" lon="6.61336">
        <ele>65.51</ele>
        <time>2016-11-15T12:58:15Z</time>
      </trkpt>
      <trkpt lat="43.47469" lon="6.61323">
        <ele>65.03</ele>
        <time>2016-11-15T12:58:24Z</time>
      </trkpt>
      <trkpt lat="43.47472" lon="6.61303">
        <ele>65.51</ele>
        <time>2016-11-15T12:58:37Z</time>
      </trkpt>
      <trkpt lat="43.47478" lon="6.6128">
        <ele>65.51</ele>
        <time>2016-11-15T12:58:53Z</time>
      </trkpt>
      <trkpt lat="43.47478" lon="6.61279">
        <ele>65.51</ele>
        <time>2016-11-15T12:58:54Z</time>
      </trkpt>
      <trkpt lat="43.47482" lon="6.61265">
        <ele>65.51</ele>
        <time>2016-11-15T12:59:03Z</time>
      </trkpt>
      <trkpt lat="43.47485" lon="6.61251">
        <ele>65.99</ele>
        <time>2016-11-15T12:59:13Z</time>
      </trkpt>
      <trkpt lat="43.47489" lon="6.61241">
        <ele>66.95</ele>
        <time>2016-11-15T12:59:27Z</time>
      </trkpt>
      <trkpt lat="43.4749" lon="6.61231">
        <ele>65.99</ele>
        <time>2016-11-15T12:59:33Z</time>
      </trkpt>
      <trkpt lat="43.47493" lon="6.61226">
        <ele>65.99</ele>
        <time>2016-11-15T12:59:38Z</time>
      </trkpt>
      <trkpt lat="43.47498" lon="6.61207">
        <ele>65.99</ele>
        <time>2016-11-15T12:59:52Z</time>
      </trkpt>
      <trkpt lat="43.47503" lon="6.61186">
        <ele>66.95</ele>
        <time>2016-11-15T13:00:07Z</time>
      </trkpt>
      <trkpt lat="43.47503" lon="6.61177">
        <ele>67.91</ele>
        <time>2016-11-15T13:00:14Z</time>
      </trkpt>
      <trkpt lat="43.47509" lon="6.61159">
        <ele>67.91</ele>
        <time>2016-11-15T13:00:28Z</time>
      </trkpt>
      <trkpt lat="43.47514" lon="6.61152">
        <ele>67.91</ele>
        <time>2016-11-15T13:00:34Z</time>
      </trkpt>
      <trkpt lat="43.47522" lon="6.61133">
        <ele>67.43</ele>
        <time>2016-11-15T13:00:49Z</time>
      </trkpt>
      <trkpt lat="43.47531" lon="6.61112">
        <ele>66.47</ele>
        <time>2016-11-15T13:01:04Z</time>
      </trkpt>
      <trkpt lat="43.47533" lon="6.61105">
        <ele>71.76</ele>
        <time>2016-11-15T13:01:09Z</time>
      </trkpt>
      <trkpt lat="43.47534" lon="6.61104">
        <ele>64.55</ele>
        <time>2016-11-15T13:01:10Z</time>
      </trkpt>
      <trkpt lat="43.47534" lon="6.61102">
        <ele>73.2</ele>
        <time>2016-11-15T13:01:11Z</time>
      </trkpt>
      <trkpt lat="43.47535" lon="6.61101">
        <ele>65.99</ele>
        <time>2016-11-15T13:01:12Z</time>
      </trkpt>
      <trkpt lat="43.47535" lon="6.61099">
        <ele>60.7</ele>
        <time>2016-11-15T13:01:13Z</time>
      </trkpt>
      <trkpt lat="43.47536" lon="6.61098">
        <ele>70.79</ele>
        <time>2016-11-15T13:01:14Z</time>
      </trkpt>
      <trkpt lat="43.47537" lon="6.61097">
        <ele>66.47</ele>
        <time>2016-11-15T13:01:15Z</time>
      </trkpt>
      <trkpt lat="43.47544" lon="6.61079">
        <ele>65.51</ele>
        <time>2016-11-15T13:01:28Z</time>
      </trkpt>
      <trkpt lat="43.47544" lon="6.61078">
        <ele>65.03</ele>
        <time>2016-11-15T13:01:29Z</time>
      </trkpt>
      <trkpt lat="43.47554" lon="6.61058">
        <ele>63.58</ele>
        <time>2016-11-15T13:01:44Z</time>
      </trkpt>
      <trkpt lat="43.47567" lon="6.61042">
        <ele>62.62</ele>
        <time>2016-11-15T13:01:59Z</time>
      </trkpt>
      <trkpt lat="43.47581" lon="6.61032">
        <ele>62.62</ele>
        <time>2016-11-15T13:02:13Z</time>
      </trkpt>
      <trkpt lat="43.47596" lon="6.61019">
        <ele>62.62</ele>
        <time>2016-11-15T13:02:27Z</time>
      </trkpt>
      <trkpt lat="43.47613" lon="6.61004">
        <ele>62.62</ele>
        <time>2016-11-15T13:02:44Z</time>
      </trkpt>
      <trkpt lat="43.47615" lon="6.60998">
        <ele>62.14</ele>
        <time>2016-11-15T13:02:48Z</time>
      </trkpt>
      <trkpt lat="43.47627" lon="6.60989">
        <ele>62.62</ele>
        <time>2016-11-15T13:03:01Z</time>
      </trkpt>
      <trkpt lat="43.47639" lon="6.60976">
        <ele>64.07</ele>
        <time>2016-11-15T13:03:15Z</time>
      </trkpt>
      <trkpt lat="43.4765" lon="6.60966">
        <ele>65.99</ele>
        <time>2016-11-15T13:03:29Z</time>
      </trkpt>
      <trkpt lat="43.47664" lon="6.60954">
        <ele>67.43</ele>
        <time>2016-11-15T13:03:46Z</time>
      </trkpt>
      <trkpt lat="43.47677" lon="6.60942">
        <ele>68.39</ele>
        <time>2016-11-15T13:04:00Z</time>
      </trkpt>
      <trkpt lat="43.4769" lon="6.60927">
        <ele>68.87</ele>
        <time>2016-11-15T13:04:16Z</time>
      </trkpt>
      <trkpt lat="43.47698" lon="6.6091">
        <ele>68.39</ele>
        <time>2016-11-15T13:04:29Z</time>
      </trkpt>
      <trkpt lat="43.47709" lon="6.60892">
        <ele>67.43</ele>
        <time>2016-11-15T13:04:44Z</time>
      </trkpt>
      <trkpt lat="43.47718" lon="6.60878">
        <ele>67.43</ele>
        <time>2016-11-15T13:04:56Z</time>
      </trkpt>
      <trkpt lat="43.47722" lon="6.60867">
        <ele>67.43</ele>
        <time>2016-11-15T13:05:04Z</time>
      </trkpt>
      <trkpt lat="43.47732" lon="6.60852">
        <ele>67.43</ele>
        <time>2016-11-15T13:05:17Z</time>
      </trkpt>
      <trkpt lat="43.4774" lon="6.60837">
        <ele>67.43</ele>
        <time>2016-11-15T13:05:31Z</time>
      </trkpt>
      <trkpt lat="43.47743" lon="6.60832">
        <ele>67.91</ele>
        <time>2016-11-15T13:05:38Z</time>
      </trkpt>
      <trkpt lat="43.47749" lon="6.60819">
        <ele>67.91</ele>
        <time>2016-11-15T13:05:47Z</time>
      </trkpt>
      <trkpt lat="43.47753" lon="6.60811">
        <ele>67.43</ele>
        <time>2016-11-15T13:05:54Z</time>
      </trkpt>
      <trkpt lat="43.47758" lon="6.60801">
        <ele>67.43</ele>
        <time>2016-11-15T13:06:03Z</time>
      </trkpt>
      <trkpt lat="43.47766" lon="6.60781">
        <ele>66.47</ele>
        <time>2016-11-15T13:06:18Z</time>
      </trkpt>
      <trkpt lat="43.47766" lon="6.60779">
        <ele>66.47</ele>
        <time>2016-11-15T13:06:20Z</time>
      </trkpt>
      <trkpt lat="43.47768" lon="6.60775">
        <ele>66.47</ele>
        <time>2016-11-15T13:06:23Z</time>
      </trkpt>
      <trkpt lat="43.47771" lon="6.60765">
        <ele>66.47</ele>
        <time>2016-11-15T13:06:31Z</time>
      </trkpt>
      <trkpt lat="43.47776" lon="6.60754">
        <ele>65.99</ele>
        <time>2016-11-15T13:06:40Z</time>
      </trkpt>
      <trkpt lat="43.47778" lon="6.60749">
        <ele>65.51</ele>
        <time>2016-11-15T13:06:44Z</time>
      </trkpt>
      <trkpt lat="43.47783" lon="6.6074">
        <ele>65.03</ele>
        <time>2016-11-15T13:06:53Z</time>
      </trkpt>
      <trkpt lat="43.47787" lon="6.60732">
        <ele>65.03</ele>
        <time>2016-11-15T13:07:06Z</time>
      </trkpt>
      <trkpt lat="43.47788" lon="6.6073">
        <ele>65.03</ele>
        <time>2016-11-15T13:07:08Z</time>
      </trkpt>
      <trkpt lat="43.47791" lon="6.60726">
        <ele>65.03</ele>
        <time>2016-11-15T13:07:13Z</time>
      </trkpt>
      <trkpt lat="43.47803" lon="6.60711">
        <ele>64.07</ele>
        <time>2016-11-15T13:07:29Z</time>
      </trkpt>
      <trkpt lat="43.47814" lon="6.60695">
        <ele>63.1</ele>
        <time>2016-11-15T13:07:46Z</time>
      </trkpt>
      <trkpt lat="43.47824" lon="6.60683">
        <ele>62.62</ele>
        <time>2016-11-15T13:07:59Z</time>
      </trkpt>
      <trkpt lat="43.47833" lon="6.60673">
        <ele>62.14</ele>
        <time>2016-11-15T13:08:10Z</time>
      </trkpt>
      <trkpt lat="43.47848" lon="6.6066">
        <ele>61.66</ele>
        <time>2016-11-15T13:08:27Z</time>
      </trkpt>
      <trkpt lat="43.47854" lon="6.60654">
        <ele>61.66</ele>
        <time>2016-11-15T13:08:34Z</time>
      </trkpt>
      <trkpt lat="43.47857" lon="6.60653">
        <ele>61.18</ele>
        <time>2016-11-15T13:08:37Z</time>
      </trkpt>
      <trkpt lat="43.47868" lon="6.60642">
        <ele>59.74</ele>
        <time>2016-11-15T13:08:51Z</time>
      </trkpt>
      <trkpt lat="43.47878" lon="6.60633">
        <ele>59.26</ele>
        <time>2016-11-15T13:09:04Z</time>
      </trkpt>
      <trkpt lat="43.47882" lon="6.60631">
        <ele>58.78</ele>
        <time>2016-11-15T13:09:14Z</time>
      </trkpt>
      <trkpt lat="43.47881" lon="6.6063">
        <ele>59.26</ele>
        <time>2016-11-15T13:09:29Z</time>
      </trkpt>
      <trkpt lat="43.47881" lon="6.60627">
        <ele>59.26</ele>
        <time>2016-11-15T13:09:45Z</time>
      </trkpt>
      <trkpt lat="43.47882" lon="6.60628">
        <ele>58.78</ele>
        <time>2016-11-15T13:09:56Z</time>
      </trkpt>
      <trkpt lat="43.47882" lon="6.60629">
        <ele>58.78</ele>
        <time>2016-11-15T13:10:24Z</time>
      </trkpt>
      <trkpt lat="43.47882" lon="6.60629">
        <ele>58.78</ele>
        <time>2016-11-15T13:10:38Z</time>
      </trkpt>
      <trkpt lat="43.47882" lon="6.60628">
        <ele>58.78</ele>
        <time>2016-11-15T13:11:00Z</time>
      </trkpt>
      <trkpt lat="43.47882" lon="6.60628">
        <ele>58.78</ele>
        <time>2016-11-15T13:11:15Z</time>
      </trkpt>
      <trkpt lat="43.47883" lon="6.60629">
        <ele>58.78</ele>
        <time>2016-11-15T13:11:23Z</time>
      </trkpt>
      <trkpt lat="43.47892" lon="6.60622">
        <ele>57.34</ele>
        <time>2016-11-15T13:11:35Z</time>
      </trkpt>
      <trkpt lat="43.47892" lon="6.60621">
        <ele>57.34</ele>
        <time>2016-11-15T13:11:36Z</time>
      </trkpt>
      <trkpt lat="43.47896" lon="6.60616">
        <ele>56.86</ele>
        <time>2016-11-15T13:11:47Z</time>
      </trkpt>
      <trkpt lat="43.47904" lon="6.60607">
        <ele>55.41</ele>
        <time>2016-11-15T13:12:02Z</time>
      </trkpt>
      <trkpt lat="43.4791" lon="6.60597">
        <ele>53.97</ele>
        <time>2016-11-15T13:12:16Z</time>
      </trkpt>
      <trkpt lat="43.47915" lon="6.60587">
        <ele>52.53</ele>
        <time>2016-11-15T13:12:28Z</time>
      </trkpt>
      <trkpt lat="43.47922" lon="6.60576">
        <ele>50.61</ele>
        <time>2016-11-15T13:12:43Z</time>
      </trkpt>
      <trkpt lat="43.47928" lon="6.6057">
        <ele>48.2</ele>
        <time>2016-11-15T13:12:57Z</time>
      </trkpt>
      <trkpt lat="43.47935" lon="6.60561">
        <ele>46.76</ele>
        <time>2016-11-15T13:13:12Z</time>
      </trkpt>
      <trkpt lat="43.47937" lon="6.6056">
        <ele>46.28</ele>
        <time>2016-11-15T13:13:17Z</time>
      </trkpt>
      <trkpt lat="43.47944" lon="6.6055">
        <ele>45.8</ele>
        <time>2016-11-15T13:13:30Z</time>
      </trkpt>
      <trkpt lat="43.47944" lon="6.60549">
        <ele>45.8</ele>
        <time>2016-11-15T13:13:44Z</time>
      </trkpt>
      <trkpt lat="43.47944" lon="6.60548">
        <ele>46.28</ele>
        <time>2016-11-15T13:13:59Z</time>
      </trkpt>
      <trkpt lat="43.47948" lon="6.60542">
        <ele>46.28</ele>
        <time>2016-11-15T13:14:13Z</time>
      </trkpt>
      <trkpt lat="43.47951" lon="6.60534">
        <ele>46.28</ele>
        <time>2016-11-15T13:14:20Z</time>
      </trkpt>
      <trkpt lat="43.47957" lon="6.60527">
        <ele>47.72</ele>
        <time>2016-11-15T13:14:32Z</time>
      </trkpt>
      <trkpt lat="43.4796" lon="6.60521">
        <ele>48.2</ele>
        <time>2016-11-15T13:14:40Z</time>
      </trkpt>
      <trkpt lat="43.47969" lon="6.6051">
        <ele>50.13</ele>
        <time>2016-11-15T13:14:53Z</time>
      </trkpt>
      <trkpt lat="43.47973" lon="6.60502">
        <ele>51.09</ele>
        <time>2016-11-15T13:15:00Z</time>
      </trkpt>
      <trkpt lat="43.47975" lon="6.60499">
        <ele>51.09</ele>
        <time>2016-11-15T13:15:03Z</time>
      </trkpt>
      <trkpt lat="43.47983" lon="6.60488">
        <ele>51.57</ele>
        <time>2016-11-15T13:15:16Z</time>
      </trkpt>
      <trkpt lat="43.47995" lon="6.60475">
        <ele>51.09</ele>
        <time>2016-11-15T13:15:32Z</time>
      </trkpt>
      <trkpt lat="43.48001" lon="6.60466">
        <ele>50.13</ele>
        <time>2016-11-15T13:15:43Z</time>
      </trkpt>
      <trkpt lat="43.48006" lon="6.60457">
        <ele>48.68</ele>
        <time>2016-11-15T13:15:53Z</time>
      </trkpt>
      <trkpt lat="43.48011" lon="6.60443">
        <ele>47.72</ele>
        <time>2016-11-15T13:16:07Z</time>
      </trkpt>
      <trkpt lat="43.48016" lon="6.60429">
        <ele>49.16</ele>
        <time>2016-11-15T13:16:19Z</time>
      </trkpt>
      <trkpt lat="43.48017" lon="6.60425">
        <ele>49.16</ele>
        <time>2016-11-15T13:16:22Z</time>
      </trkpt>
      <trkpt lat="43.48021" lon="6.60416">
        <ele>50.13</ele>
        <time>2016-11-15T13:16:31Z</time>
      </trkpt>
      <trkpt lat="43.48028" lon="6.60399">
        <ele>51.57</ele>
        <time>2016-11-15T13:16:46Z</time>
      </trkpt>
      <trkpt lat="43.48035" lon="6.60378">
        <ele>52.05</ele>
        <time>2016-11-15T13:17:01Z</time>
      </trkpt>
      <trkpt lat="43.48039" lon="6.60365">
        <ele>52.05</ele>
        <time>2016-11-15T13:17:12Z</time>
      </trkpt>
      <trkpt lat="43.48046" lon="6.60347">
        <ele>53.01</ele>
        <time>2016-11-15T13:17:27Z</time>
      </trkpt>
      <trkpt lat="43.48047" lon="6.60344">
        <ele>53.97</ele>
        <time>2016-11-15T13:17:29Z</time>
      </trkpt>
      <trkpt lat="43.48049" lon="6.60339">
        <ele>53.49</ele>
        <time>2016-11-15T13:17:34Z</time>
      </trkpt>
      <trkpt lat="43.48051" lon="6.60333">
        <ele>53.97</ele>
        <time>2016-11-15T13:17:39Z</time>
      </trkpt>
      <trkpt lat="43.48058" lon="6.60324">
        <ele>55.41</ele>
        <time>2016-11-15T13:17:52Z</time>
      </trkpt>
      <trkpt lat="43.48064" lon="6.60324">
        <ele>55.89</ele>
        <time>2016-11-15T13:18:03Z</time>
      </trkpt>
      <trkpt lat="43.48067" lon="6.60329">
        <ele>56.37</ele>
        <time>2016-11-15T13:18:13Z</time>
      </trkpt>
      <trkpt lat="43.4807" lon="6.60332">
        <ele>56.86</ele>
        <time>2016-11-15T13:18:17Z</time>
      </trkpt>
      <trkpt lat="43.48072" lon="6.60337">
        <ele>57.34</ele>
        <time>2016-11-15T13:18:22Z</time>
      </trkpt>
      <trkpt lat="43.48074" lon="6.6034">
        <ele>53.97</ele>
        <time>2016-11-15T13:18:29Z</time>
      </trkpt>
      <trkpt lat="43.48074" lon="6.60339">
        <ele>58.3</ele>
        <time>2016-11-15T13:18:31Z</time>
      </trkpt>
      <trkpt lat="43.48072" lon="6.60337">
        <ele>56.37</ele>
        <time>2016-11-15T13:18:35Z</time>
      </trkpt>
      <trkpt lat="43.48063" lon="6.60321">
        <ele>55.89</ele>
        <time>2016-11-15T13:18:50Z</time>
      </trkpt>
      <trkpt lat="43.48062" lon="6.6032">
        <ele>55.89</ele>
        <time>2016-11-15T13:18:52Z</time>
      </trkpt>
      <trkpt lat="43.48055" lon="6.60308">
        <ele>55.41</ele>
        <time>2016-11-15T13:19:04Z</time>
      </trkpt>
      <trkpt lat="43.48054" lon="6.60302">
        <ele>54.93</ele>
        <time>2016-11-15T13:19:14Z</time>
      </trkpt>
      <trkpt lat="43.48054" lon="6.60289">
        <ele>55.41</ele>
        <time>2016-11-15T13:19:24Z</time>
      </trkpt>
      <trkpt lat="43.48055" lon="6.60275">
        <ele>49.65</ele>
        <time>2016-11-15T13:19:34Z</time>
      </trkpt>
      <trkpt lat="43.48054" lon="6.60274">
        <ele>58.78</ele>
        <time>2016-11-15T13:19:35Z</time>
      </trkpt>
      <trkpt lat="43.48054" lon="6.60272">
        <ele>48.2</ele>
        <time>2016-11-15T13:19:36Z</time>
      </trkpt>
      <trkpt lat="43.48055" lon="6.60271">
        <ele>55.41</ele>
        <time>2016-11-15T13:19:37Z</time>
      </trkpt>
      <trkpt lat="43.48052" lon="6.6026">
        <ele>54.93</ele>
        <time>2016-11-15T13:19:46Z</time>
      </trkpt>
      <trkpt lat="43.48052" lon="6.60257">
        <ele>54.93</ele>
        <time>2016-11-15T13:19:48Z</time>
      </trkpt>
      <trkpt lat="43.48051" lon="6.6025">
        <ele>54.93</ele>
        <time>2016-11-15T13:19:53Z</time>
      </trkpt>
      <trkpt lat="43.4805" lon="6.60223">
        <ele>53.49</ele>
        <time>2016-11-15T13:20:12Z</time>
      </trkpt>
      <trkpt lat="43.48049" lon="6.60195">
        <ele>53.01</ele>
        <time>2016-11-15T13:20:30Z</time>
      </trkpt>
      <trkpt lat="43.4805" lon="6.60168">
        <ele>52.05</ele>
        <time>2016-11-15T13:20:49Z</time>
      </trkpt>
      <trkpt lat="43.48057" lon="6.60149">
        <ele>51.09</ele>
        <time>2016-11-15T13:21:05Z</time>
      </trkpt>
      <trkpt lat="43.48064" lon="6.60129">
        <ele>49.65</ele>
        <time>2016-11-15T13:21:20Z</time>
      </trkpt>
      <trkpt lat="43.48064" lon="6.60129">
        <ele>49.16</ele>
        <time>2016-11-15T13:21:21Z</time>
      </trkpt>
      <trkpt lat="43.48068" lon="6.60126">
        <ele>48.68</ele>
        <time>2016-11-15T13:21:25Z</time>
      </trkpt>
      <trkpt lat="43.48077" lon="6.60125">
        <ele>48.2</ele>
        <time>2016-11-15T13:21:35Z</time>
      </trkpt>
      <trkpt lat="43.48081" lon="6.60129">
        <ele>48.68</ele>
        <time>2016-11-15T13:21:39Z</time>
      </trkpt>
      <trkpt lat="43.48087" lon="6.60136">
        <ele>47.72</ele>
        <time>2016-11-15T13:21:46Z</time>
      </trkpt>
      <trkpt lat="43.48102" lon="6.60161">
        <ele>47.24</ele>
        <time>2016-11-15T13:22:07Z</time>
      </trkpt>
      <trkpt lat="43.48118" lon="6.60178">
        <ele>46.76</ele>
        <time>2016-11-15T13:22:26Z</time>
      </trkpt>
      <trkpt lat="43.4812" lon="6.60178">
        <ele>46.76</ele>
        <time>2016-11-15T13:22:29Z</time>
      </trkpt>
      <trkpt lat="43.48131" lon="6.60178">
        <ele>45.32</ele>
        <time>2016-11-15T13:22:43Z</time>
      </trkpt>
      <trkpt lat="43.48133" lon="6.60178">
        <ele>45.32</ele>
        <time>2016-11-15T13:22:45Z</time>
      </trkpt>
      <trkpt lat="43.48147" lon="6.60173">
        <ele>44.84</ele>
        <time>2016-11-15T13:22:59Z</time>
      </trkpt>
      <trkpt lat="43.48153" lon="6.6017">
        <ele>44.36</ele>
        <time>2016-11-15T13:23:05Z</time>
      </trkpt>
      <trkpt lat="43.48155" lon="6.60169">
        <ele>43.88</ele>
        <time>2016-11-15T13:23:07Z</time>
      </trkpt>
      <trkpt lat="43.48157" lon="6.60167">
        <ele>43.88</ele>
        <time>2016-11-15T13:23:09Z</time>
      </trkpt>
      <trkpt lat="43.48173" lon="6.60169">
        <ele>42.92</ele>
        <time>2016-11-15T13:23:24Z</time>
      </trkpt>
      <trkpt lat="43.4818" lon="6.60175">
        <ele>42.44</ele>
        <time>2016-11-15T13:23:33Z</time>
      </trkpt>
      <trkpt lat="43.48182" lon="6.60179">
        <ele>42.44</ele>
        <time>2016-11-15T13:23:36Z</time>
      </trkpt>
      <trkpt lat="43.48194" lon="6.60179">
        <ele>40.99</ele>
        <time>2016-11-15T13:23:49Z</time>
      </trkpt>
      <trkpt lat="43.48192" lon="6.60168">
        <ele>40.03</ele>
        <time>2016-11-15T13:23:56Z</time>
      </trkpt>
      <trkpt lat="43.48188" lon="6.60156">
        <ele>39.07</ele>
        <time>2016-11-15T13:24:06Z</time>
      </trkpt>
      <trkpt lat="43.48185" lon="6.60141">
        <ele>38.11</ele>
        <time>2016-11-15T13:24:21Z</time>
      </trkpt>
      <trkpt lat="43.48182" lon="6.60134">
        <ele>38.11</ele>
        <time>2016-11-15T13:24:36Z</time>
      </trkpt>
      <trkpt lat="43.48185" lon="6.60134">
        <ele>38.11</ele>
        <time>2016-11-15T13:25:04Z</time>
      </trkpt>
      <trkpt lat="43.48182" lon="6.60135">
        <ele>38.11</ele>
        <time>2016-11-15T13:25:20Z</time>
      </trkpt>
      <trkpt lat="43.4818" lon="6.60133">
        <ele>37.63</ele>
        <time>2016-11-15T13:25:35Z</time>
      </trkpt>
      <trkpt lat="43.48177" lon="6.60128">
        <ele>37.15</ele>
        <time>2016-11-15T13:25:50Z</time>
      </trkpt>
      <trkpt lat="43.48173" lon="6.60126">
        <ele>36.19</ele>
        <time>2016-11-15T13:25:58Z</time>
      </trkpt>
      <trkpt lat="43.48171" lon="6.60125">
        <ele>35.71</ele>
        <time>2016-11-15T13:26:01Z</time>
      </trkpt>
      <trkpt lat="43.48168" lon="6.6012">
        <ele>35.71</ele>
        <time>2016-11-15T13:26:05Z</time>
      </trkpt>
      <trkpt lat="43.4816" lon="6.60104">
        <ele>33.3</ele>
        <time>2016-11-15T13:26:20Z</time>
      </trkpt>
      <trkpt lat="43.48159" lon="6.601">
        <ele>32.82</ele>
        <time>2016-11-15T13:26:24Z</time>
      </trkpt>
      <trkpt lat="43.48156" lon="6.60098">
        <ele>32.34</ele>
        <time>2016-11-15T13:26:28Z</time>
      </trkpt>
      <trkpt lat="43.48151" lon="6.60093">
        <ele>30.9</ele>
        <time>2016-11-15T13:26:34Z</time>
      </trkpt>
      <trkpt lat="43.48146" lon="6.6009">
        <ele>30.9</ele>
        <time>2016-11-15T13:26:39Z</time>
      </trkpt>
      <trkpt lat="43.48141" lon="6.60084">
        <ele>29.46</ele>
        <time>2016-11-15T13:26:45Z</time>
      </trkpt>
      <trkpt lat="43.48139" lon="6.60084">
        <ele>29.46</ele>
        <time>2016-11-15T13:26:55Z</time>
      </trkpt>
      <trkpt lat="43.48134" lon="6.6007">
        <ele>28.5</ele>
        <time>2016-11-15T13:27:04Z</time>
      </trkpt>
      <trkpt lat="43.48133" lon="6.60065">
        <ele>28.5</ele>
        <time>2016-11-15T13:27:07Z</time>
      </trkpt>
      <trkpt lat="43.48135" lon="6.60056">
        <ele>27.53</ele>
        <time>2016-11-15T13:27:17Z</time>
      </trkpt>
      <trkpt lat="43.48146" lon="6.60043">
        <ele>27.05</ele>
        <time>2016-11-15T13:27:31Z</time>
      </trkpt>
      <trkpt lat="43.4815" lon="6.6004">
        <ele>27.05</ele>
        <time>2016-11-15T13:27:36Z</time>
      </trkpt>
      <trkpt lat="43.48163" lon="6.6003">
        <ele>28.02</ele>
        <time>2016-11-15T13:27:51Z</time>
      </trkpt>
      <trkpt lat="43.48174" lon="6.60024">
        <ele>30.42</ele>
        <time>2016-11-15T13:28:05Z</time>
      </trkpt>
      <trkpt lat="43.48176" lon="6.60023">
        <ele>34.26</ele>
        <time>2016-11-15T13:28:08Z</time>
      </trkpt>
      <trkpt lat="43.48177" lon="6.60023">
        <ele>30.9</ele>
        <time>2016-11-15T13:28:09Z</time>
      </trkpt>
      <trkpt lat="43.48181" lon="6.60022">
        <ele>31.38</ele>
        <time>2016-11-15T13:28:13Z</time>
      </trkpt>
      <trkpt lat="43.48197" lon="6.60008">
        <ele>33.3</ele>
        <time>2016-11-15T13:28:32Z</time>
      </trkpt>
      <trkpt lat="43.48205" lon="6.59995">
        <ele>34.26</ele>
        <time>2016-11-15T13:28:46Z</time>
      </trkpt>
      <trkpt lat="43.48217" lon="6.59977">
        <ele>35.71</ele>
        <time>2016-11-15T13:29:05Z</time>
      </trkpt>
      <trkpt lat="43.48227" lon="6.59964">
        <ele>37.63</ele>
        <time>2016-11-15T13:29:21Z</time>
      </trkpt>
      <trkpt lat="43.48236" lon="6.59953">
        <ele>38.59</ele>
        <time>2016-11-15T13:29:34Z</time>
      </trkpt>
      <trkpt lat="43.4825" lon="6.59939">
        <ele>40.03</ele>
        <time>2016-11-15T13:29:53Z</time>
      </trkpt>
      <trkpt lat="43.48266" lon="6.59921">
        <ele>42.92</ele>
        <time>2016-11-15T13:30:14Z</time>
      </trkpt>
      <trkpt lat="43.4827" lon="6.59918">
        <ele>43.4</ele>
        <time>2016-11-15T13:30:19Z</time>
      </trkpt>
      <trkpt lat="43.48288" lon="6.59901">
        <ele>45.32</ele>
        <time>2016-11-15T13:30:41Z</time>
      </trkpt>
      <trkpt lat="43.48294" lon="6.59895">
        <ele>46.28</ele>
        <time>2016-11-15T13:30:50Z</time>
      </trkpt>
      <trkpt lat="43.483" lon="6.59888">
        <ele>46.28</ele>
        <time>2016-11-15T13:30:58Z</time>
      </trkpt>
      <trkpt lat="43.48313" lon="6.59879">
        <ele>47.24</ele>
        <time>2016-11-15T13:31:13Z</time>
      </trkpt>
      <trkpt lat="43.4833" lon="6.59881">
        <ele>48.2</ele>
        <time>2016-11-15T13:31:30Z</time>
      </trkpt>
      <trkpt lat="43.48339" lon="6.59885">
        <ele>47.72</ele>
        <time>2016-11-15T13:31:39Z</time>
      </trkpt>
      <trkpt lat="43.48348" lon="6.59886">
        <ele>48.2</ele>
        <time>2016-11-15T13:31:47Z</time>
      </trkpt>
      <trkpt lat="43.48366" lon="6.59891">
        <ele>49.16</ele>
        <time>2016-11-15T13:32:05Z</time>
      </trkpt>
      <trkpt lat="43.48383" lon="6.59894">
        <ele>50.61</ele>
        <time>2016-11-15T13:32:22Z</time>
      </trkpt>
      <trkpt lat="43.484" lon="6.59899">
        <ele>52.53</ele>
        <time>2016-11-15T13:32:40Z</time>
      </trkpt>
      <trkpt lat="43.48417" lon="6.59903">
        <ele>54.45</ele>
        <time>2016-11-15T13:32:58Z</time>
      </trkpt>
      <trkpt lat="43.48437" lon="6.59904">
        <ele>56.86</ele>
        <time>2016-11-15T13:33:18Z</time>
      </trkpt>
      <trkpt lat="43.48454" lon="6.599">
        <ele>60.22</ele>
        <time>2016-11-15T13:33:34Z</time>
      </trkpt>
      <trkpt lat="43.48471" lon="6.599">
        <ele>59.26</ele>
        <time>2016-11-15T13:33:49Z</time>
      </trkpt>
      <trkpt lat="43.48485" lon="6.59899">
        <ele>60.7</ele>
        <time>2016-11-15T13:34:06Z</time>
      </trkpt>
      <trkpt lat="43.48488" lon="6.59895">
        <ele>60.7</ele>
        <time>2016-11-15T13:34:23Z</time>
      </trkpt>
      <trkpt lat="43.4849" lon="6.59894">
        <ele>60.7</ele>
        <time>2016-11-15T13:34:46Z</time>
      </trkpt>
      <trkpt lat="43.4849" lon="6.59894">
        <ele>60.7</ele>
        <time>2016-11-15T13:35:13Z</time>
      </trkpt>
      <trkpt lat="43.48488" lon="6.59896">
        <ele>60.7</ele>
        <time>2016-11-15T13:35:47Z</time>
      </trkpt>
      <trkpt lat="43.48488" lon="6.59897">
        <ele>60.7</ele>
        <time>2016-11-15T13:36:00Z</time>
      </trkpt>
      <trkpt lat="43.48488" lon="6.59899">
        <ele>60.22</ele>
        <time>2016-11-15T13:36:02Z</time>
      </trkpt>
      <trkpt lat="43.48482" lon="6.59901">
        <ele>60.22</ele>
        <time>2016-11-15T13:36:19Z</time>
      </trkpt>
      <trkpt lat="43.48482" lon="6.59901">
        <ele>60.7</ele>
        <time>2016-11-15T13:36:44Z</time>
      </trkpt>
      <trkpt lat="43.48482" lon="6.59901">
        <ele>60.22</ele>
        <time>2016-11-15T13:37:07Z</time>
      </trkpt>
      <trkpt lat="43.48482" lon="6.59901">
        <ele>61.18</ele>
        <time>2016-11-15T13:37:31Z</time>
      </trkpt>
      <trkpt lat="43.48482" lon="6.59901">
        <ele>60.7</ele>
        <time>2016-11-15T13:38:05Z</time>
      </trkpt>
      <trkpt lat="43.48482" lon="6.59901">
        <ele>60.7</ele>
        <time>2016-11-15T13:38:39Z</time>
      </trkpt>
      <trkpt lat="43.48483" lon="6.59901">
        <ele>60.7</ele>
        <time>2016-11-15T13:39:07Z</time>
      </trkpt>
      <trkpt lat="43.48486" lon="6.599">
        <ele>60.7</ele>
        <time>2016-11-15T13:39:19Z</time>
      </trkpt>
      <trkpt lat="43.48496" lon="6.59893">
        <ele>61.18</ele>
        <time>2016-11-15T13:39:30Z</time>
      </trkpt>
      <trkpt lat="43.48505" lon="6.59889">
        <ele>61.66</ele>
        <time>2016-11-15T13:39:39Z</time>
      </trkpt>
      <trkpt lat="43.48524" lon="6.59883">
        <ele>63.1</ele>
        <time>2016-11-15T13:39:58Z</time>
      </trkpt>
      <trkpt lat="43.48538" lon="6.59877">
        <ele>64.07</ele>
        <time>2016-11-15T13:40:13Z</time>
      </trkpt>
      <trkpt lat="43.48549" lon="6.59874">
        <ele>66.95</ele>
        <time>2016-11-15T13:40:23Z</time>
      </trkpt>
      <trkpt lat="43.4855" lon="6.59874">
        <ele>63.58</ele>
        <time>2016-11-15T13:40:24Z</time>
      </trkpt>
      <trkpt lat="43.4856" lon="6.59871">
        <ele>65.03</ele>
        <time>2016-11-15T13:40:33Z</time>
      </trkpt>
      <trkpt lat="43.48576" lon="6.59866">
        <ele>65.99</ele>
        <time>2016-11-15T13:40:48Z</time>
      </trkpt>
      <trkpt lat="43.48593" lon="6.59851">
        <ele>65.51</ele>
        <time>2016-11-15T13:41:05Z</time>
      </trkpt>
      <trkpt lat="43.48599" lon="6.59844">
        <ele>65.03</ele>
        <time>2016-11-15T13:41:13Z</time>
      </trkpt>
      <trkpt lat="43.48612" lon="6.59834">
        <ele>64.55</ele>
        <time>2016-11-15T13:41:28Z</time>
      </trkpt>
      <trkpt lat="43.48625" lon="6.59826">
        <ele>62.62</ele>
        <time>2016-11-15T13:41:43Z</time>
      </trkpt>
      <trkpt lat="43.48635" lon="6.59814">
        <ele>60.7</ele>
        <time>2016-11-15T13:41:57Z</time>
      </trkpt>
      <trkpt lat="43.48641" lon="6.59804">
        <ele>59.26</ele>
        <time>2016-11-15T13:42:07Z</time>
      </trkpt>
      <trkpt lat="43.48651" lon="6.59788">
        <ele>57.82</ele>
        <time>2016-11-15T13:42:22Z</time>
      </trkpt>
      <trkpt lat="43.4866" lon="6.59777">
        <ele>55.89</ele>
        <time>2016-11-15T13:42:36Z</time>
      </trkpt>
      <trkpt lat="43.48665" lon="6.59769">
        <ele>53.01</ele>
        <time>2016-11-15T13:42:49Z</time>
      </trkpt>
      <trkpt lat="43.48673" lon="6.59763">
        <ele>50.13</ele>
        <time>2016-11-15T13:43:01Z</time>
      </trkpt>
      <trkpt lat="43.48677" lon="6.59758">
        <ele>48.2</ele>
        <time>2016-11-15T13:43:13Z</time>
      </trkpt>
      <trkpt lat="43.48682" lon="6.59751">
        <ele>46.28</ele>
        <time>2016-11-15T13:43:26Z</time>
      </trkpt>
      <trkpt lat="43.48682" lon="6.59744">
        <ele>44.84</ele>
        <time>2016-11-15T13:43:33Z</time>
      </trkpt>
      <trkpt lat="43.48679" lon="6.59735">
        <ele>43.4</ele>
        <time>2016-11-15T13:43:43Z</time>
      </trkpt>
      <trkpt lat="43.48678" lon="6.59728">
        <ele>41.47</ele>
        <time>2016-11-15T13:43:53Z</time>
      </trkpt>
      <trkpt lat="43.48677" lon="6.5972">
        <ele>39.55</ele>
        <time>2016-11-15T13:44:04Z</time>
      </trkpt>
      <trkpt lat="43.48677" lon="6.59716">
        <ele>38.59</ele>
        <time>2016-11-15T13:44:14Z</time>
      </trkpt>
      <trkpt lat="43.48678" lon="6.59717">
        <ele>37.63</ele>
        <time>2016-11-15T13:44:27Z</time>
      </trkpt>
      <trkpt lat="43.48678" lon="6.59717">
        <ele>37.63</ele>
        <time>2016-11-15T13:44:50Z</time>
      </trkpt>
      <trkpt lat="43.48678" lon="6.59717">
        <ele>37.63</ele>
        <time>2016-11-15T13:45:04Z</time>
      </trkpt>
      <trkpt lat="43.48678" lon="6.59718">
        <ele>37.63</ele>
        <time>2016-11-15T13:45:29Z</time>
      </trkpt>
      <trkpt lat="43.48678" lon="6.59718">
        <ele>36.19</ele>
        <time>2016-11-15T13:45:49Z</time>
      </trkpt>
      <trkpt lat="43.4868" lon="6.59717">
        <ele>35.23</ele>
        <time>2016-11-15T13:46:06Z</time>
      </trkpt>
      <trkpt lat="43.48682" lon="6.59717">
        <ele>33.78</ele>
        <time>2016-11-15T13:46:28Z</time>
      </trkpt>
      <trkpt lat="43.48682" lon="6.59716">
        <ele>32.82</ele>
        <time>2016-11-15T13:46:39Z</time>
      </trkpt>
      <trkpt lat="43.48684" lon="6.59715">
        <ele>30.9</ele>
        <time>2016-11-15T13:46:53Z</time>
      </trkpt>
      <trkpt lat="43.48687" lon="6.59712">
        <ele>28.98</ele>
        <time>2016-11-15T13:47:09Z</time>
      </trkpt>
      <trkpt lat="43.4869" lon="6.59708">
        <ele>27.05</ele>
        <time>2016-11-15T13:47:21Z</time>
      </trkpt>
      <trkpt lat="43.48697" lon="6.59703">
        <ele>25.13</ele>
        <time>2016-11-15T13:47:35Z</time>
      </trkpt>
      <trkpt lat="43.48698" lon="6.59693">
        <ele>23.69</ele>
        <time>2016-11-15T13:47:42Z</time>
      </trkpt>
      <trkpt lat="43.487" lon="6.59685">
        <ele>19.36</ele>
        <time>2016-11-15T13:47:48Z</time>
      </trkpt>
      <trkpt lat="43.487" lon="6.59684">
        <ele>26.09</ele>
        <time>2016-11-15T13:47:49Z</time>
      </trkpt>
      <trkpt lat="43.487" lon="6.59684">
        <ele>23.21</ele>
        <time>2016-11-15T13:47:50Z</time>
      </trkpt>
      <trkpt lat="43.487" lon="6.59683">
        <ele>20.32</ele>
        <time>2016-11-15T13:47:59Z</time>
      </trkpt>
      <trkpt lat="43.487" lon="6.59683">
        <ele>27.05</ele>
        <time>2016-11-15T13:48:00Z</time>
      </trkpt>
      <trkpt lat="43.487" lon="6.59683">
        <ele>23.69</ele>
        <time>2016-11-15T13:48:01Z</time>
      </trkpt>
      <trkpt lat="43.48695" lon="6.59682">
        <ele>22.73</ele>
        <time>2016-11-15T13:48:13Z</time>
      </trkpt>
      <trkpt lat="43.48692" lon="6.59681">
        <ele>22.73</ele>
        <time>2016-11-15T13:48:17Z</time>
      </trkpt>
      <trkpt lat="43.48689" lon="6.59678">
        <ele>22.73</ele>
        <time>2016-11-15T13:48:19Z</time>
      </trkpt>
      <trkpt lat="43.48686" lon="6.59671">
        <ele>22.73</ele>
        <time>2016-11-15T13:48:29Z</time>
      </trkpt>
      <trkpt lat="43.48686" lon="6.59668">
        <ele>22.73</ele>
        <time>2016-11-15T13:49:02Z</time>
      </trkpt>
      <trkpt lat="43.48685" lon="6.5967">
        <ele>22.73</ele>
        <time>2016-11-15T13:49:16Z</time>
      </trkpt>
      <trkpt lat="43.48689" lon="6.59676">
        <ele>22.73</ele>
        <time>2016-11-15T13:49:27Z</time>
      </trkpt>
      <trkpt lat="43.48692" lon="6.59678">
        <ele>22.73</ele>
        <time>2016-11-15T13:49:45Z</time>
      </trkpt>
      <trkpt lat="43.48692" lon="6.59678">
        <ele>22.73</ele>
        <time>2016-11-15T13:50:09Z</time>
      </trkpt>
      <trkpt lat="43.48695" lon="6.59679">
        <ele>22.73</ele>
        <time>2016-11-15T13:50:22Z</time>
      </trkpt>
      <trkpt lat="43.48698" lon="6.59682">
        <ele>22.73</ele>
        <time>2016-11-15T13:50:50Z</time>
      </trkpt>
      <trkpt lat="43.48699" lon="6.59682">
        <ele>22.73</ele>
        <time>2016-11-15T13:51:25Z</time>
      </trkpt>
      <trkpt lat="43.487" lon="6.59684">
        <ele>22.73</ele>
        <time>2016-11-15T13:51:56Z</time>
      </trkpt>
      <trkpt lat="43.48701" lon="6.59684">
        <ele>22.73</ele>
        <time>2016-11-15T13:52:21Z</time>
      </trkpt>
      <trkpt lat="43.48701" lon="6.59685">
        <ele>22.73</ele>
        <time>2016-11-15T13:52:46Z</time>
      </trkpt>
      <trkpt lat="43.48702" lon="6.59685">
        <ele>22.73</ele>
        <time>2016-11-15T13:53:14Z</time>
      </trkpt>
      <trkpt lat="43.48702" lon="6.59684">
        <ele>22.73</ele>
        <time>2016-11-15T13:53:41Z</time>
      </trkpt>
      <trkpt lat="43.48706" lon="6.59679">
        <ele>24.65</ele>
        <time>2016-11-15T13:53:54Z</time>
      </trkpt>
      <trkpt lat="43.48711" lon="6.59673">
        <ele>22.25</ele>
        <time>2016-11-15T13:54:05Z</time>
      </trkpt>
      <trkpt lat="43.48723" lon="6.59653">
        <ele>22.25</ele>
        <time>2016-11-15T13:54:18Z</time>
      </trkpt>
      <trkpt lat="43.48728" lon="6.59642">
        <ele>22.25</ele>
        <time>2016-11-15T13:54:27Z</time>
      </trkpt>
      <trkpt lat="43.48736" lon="6.59633">
        <ele>22.25</ele>
        <time>2016-11-15T13:54:38Z</time>
      </trkpt>
      <trkpt lat="43.4874" lon="6.59625">
        <ele>22.25</ele>
        <time>2016-11-15T13:54:42Z</time>
      </trkpt>
      <trkpt lat="43.48743" lon="6.59621">
        <ele>21.77</ele>
        <time>2016-11-15T13:54:45Z</time>
      </trkpt>
      <trkpt lat="43.48748" lon="6.59613">
        <ele>21.77</ele>
        <time>2016-11-15T13:54:52Z</time>
      </trkpt>
      <trkpt lat="43.48759" lon="6.59605">
        <ele>21.77</ele>
        <time>2016-11-15T13:55:06Z</time>
      </trkpt>
      <trkpt lat="43.48764" lon="6.596">
        <ele>21.77</ele>
        <time>2016-11-15T13:55:14Z</time>
      </trkpt>
      <trkpt lat="43.48771" lon="6.59589">
        <ele>21.77</ele>
        <time>2016-11-15T13:55:27Z</time>
      </trkpt>
      <trkpt lat="43.48778" lon="6.59592">
        <ele>22.25</ele>
        <time>2016-11-15T13:55:40Z</time>
      </trkpt>
      <trkpt lat="43.48783" lon="6.59591">
        <ele>23.21</ele>
        <time>2016-11-15T13:55:55Z</time>
      </trkpt>
      <trkpt lat="43.48786" lon="6.59582">
        <ele>22.25</ele>
        <time>2016-11-15T13:56:10Z</time>
      </trkpt>
      <trkpt lat="43.48789" lon="6.59573">
        <ele>22.25</ele>
        <time>2016-11-15T13:56:19Z</time>
      </trkpt>
      <trkpt lat="43.48789" lon="6.59571">
        <ele>22.25</ele>
        <time>2016-11-15T13:56:21Z</time>
      </trkpt>
      <trkpt lat="43.48795" lon="6.59557">
        <ele>22.25</ele>
        <time>2016-11-15T13:56:35Z</time>
      </trkpt>
      <trkpt lat="43.48806" lon="6.59541">
        <ele>21.77</ele>
        <time>2016-11-15T13:56:49Z</time>
      </trkpt>
      <trkpt lat="43.4881" lon="6.59538">
        <ele>21.77</ele>
        <time>2016-11-15T13:57:06Z</time>
      </trkpt>
      <trkpt lat="43.4881" lon="6.59538">
        <ele>21.77</ele>
        <time>2016-11-15T13:57:29Z</time>
      </trkpt>
      <trkpt lat="43.4881" lon="6.59539">
        <ele>21.77</ele>
        <time>2016-11-15T13:58:02Z</time>
      </trkpt>
      <trkpt lat="43.48811" lon="6.5954">
        <ele>21.77</ele>
        <time>2016-11-15T13:58:30Z</time>
      </trkpt>
      <trkpt lat="43.48811" lon="6.59541">
        <ele>21.77</ele>
        <time>2016-11-15T13:59:05Z</time>
      </trkpt>
      <trkpt lat="43.4881" lon="6.5954">
        <ele>22.25</ele>
        <time>2016-11-15T13:59:29Z</time>
      </trkpt>
      <trkpt lat="43.48814" lon="6.59537">
        <ele>22.25</ele>
        <time>2016-11-15T13:59:46Z</time>
      </trkpt>
      <trkpt lat="43.48829" lon="6.59535">
        <ele>22.25</ele>
        <time>2016-11-15T13:59:59Z</time>
      </trkpt>
      <trkpt lat="43.48844" lon="6.59532">
        <ele>22.73</ele>
        <time>2016-11-15T14:00:12Z</time>
      </trkpt>
      <trkpt lat="43.48846" lon="6.59532">
        <ele>22.73</ele>
        <time>2016-11-15T14:00:14Z</time>
      </trkpt>
      <trkpt lat="43.48849" lon="6.59531">
        <ele>17.92</ele>
        <time>2016-11-15T14:00:16Z</time>
      </trkpt>
      <trkpt lat="43.48852" lon="6.59529">
        <ele>26.57</ele>
        <time>2016-11-15T14:00:18Z</time>
      </trkpt>
      <trkpt lat="43.48853" lon="6.59529">
        <ele>23.21</ele>
        <time>2016-11-15T14:00:19Z</time>
      </trkpt>
      <trkpt lat="43.48855" lon="6.59528">
        <ele>22.73</ele>
        <time>2016-11-15T14:00:21Z</time>
      </trkpt>
      <trkpt lat="43.48871" lon="6.59527">
        <ele>22.25</ele>
        <time>2016-11-15T14:00:36Z</time>
      </trkpt>
      <trkpt lat="43.48886" lon="6.59529">
        <ele>22.73</ele>
        <time>2016-11-15T14:00:49Z</time>
      </trkpt>
      <trkpt lat="43.4889" lon="6.59529">
        <ele>22.25</ele>
        <time>2016-11-15T14:00:54Z</time>
      </trkpt>
      <trkpt lat="43.48896" lon="6.59527">
        <ele>22.73</ele>
        <time>2016-11-15T14:01:00Z</time>
      </trkpt>
      <trkpt lat="43.48913" lon="6.59517">
        <ele>22.73</ele>
        <time>2016-11-15T14:01:15Z</time>
      </trkpt>
      <trkpt lat="43.48927" lon="6.59503">
        <ele>22.73</ele>
        <time>2016-11-15T14:01:29Z</time>
      </trkpt>
      <trkpt lat="43.48942" lon="6.59495">
        <ele>23.21</ele>
        <time>2016-11-15T14:01:42Z</time>
      </trkpt>
      <trkpt lat="43.48942" lon="6.59494">
        <ele>23.21</ele>
        <time>2016-11-15T14:01:43Z</time>
      </trkpt>
      <trkpt lat="43.48945" lon="6.59494">
        <ele>23.21</ele>
        <time>2016-11-15T14:01:45Z</time>
      </trkpt>
      <trkpt lat="43.48953" lon="6.59495">
        <ele>23.21</ele>
        <time>2016-11-15T14:01:56Z</time>
      </trkpt>
      <trkpt lat="43.48958" lon="6.59499">
        <ele>22.73</ele>
        <time>2016-11-15T14:02:09Z</time>
      </trkpt>
      <trkpt lat="43.48975" lon="6.59506">
        <ele>22.73</ele>
        <time>2016-11-15T14:02:22Z</time>
      </trkpt>
      <trkpt lat="43.48995" lon="6.5951">
        <ele>22.25</ele>
        <time>2016-11-15T14:02:34Z</time>
      </trkpt>
      <trkpt lat="43.49016" lon="6.59518">
        <ele>23.21</ele>
        <time>2016-11-15T14:02:49Z</time>
      </trkpt>
      <trkpt lat="43.49022" lon="6.59527">
        <ele>23.69</ele>
        <time>2016-11-15T14:03:04Z</time>
      </trkpt>
      <trkpt lat="43.49023" lon="6.59532">
        <ele>23.69</ele>
        <time>2016-11-15T14:03:20Z</time>
      </trkpt>
      <trkpt lat="43.49021" lon="6.59533">
        <ele>23.69</ele>
        <time>2016-11-15T14:03:45Z</time>
      </trkpt>
      <trkpt lat="43.4902" lon="6.59533">
        <ele>23.69</ele>
        <time>2016-11-15T14:04:16Z</time>
      </trkpt>
      <trkpt lat="43.49023" lon="6.59536">
        <ele>23.69</ele>
        <time>2016-11-15T14:04:37Z</time>
      </trkpt>
      <trkpt lat="43.49028" lon="6.59544">
        <ele>24.17</ele>
        <time>2016-11-15T14:04:46Z</time>
      </trkpt>
      <trkpt lat="43.49038" lon="6.59556">
        <ele>24.65</ele>
        <time>2016-11-15T14:04:59Z</time>
      </trkpt>
      <trkpt lat="43.49044" lon="6.59566">
        <ele>25.13</ele>
        <time>2016-11-15T14:05:10Z</time>
      </trkpt>
      <trkpt lat="43.49058" lon="6.59577">
        <ele>25.13</ele>
        <time>2016-11-15T14:05:25Z</time>
      </trkpt>
      <trkpt lat="43.49066" lon="6.59584">
        <ele>25.13</ele>
        <time>2016-11-15T14:05:32Z</time>
      </trkpt>
      <trkpt lat="43.49075" lon="6.59594">
        <ele>25.13</ele>
        <time>2016-11-15T14:05:42Z</time>
      </trkpt>
      <trkpt lat="43.49085" lon="6.59606">
        <ele>25.13</ele>
        <time>2016-11-15T14:05:54Z</time>
      </trkpt>
      <trkpt lat="43.49096" lon="6.59622">
        <ele>24.65</ele>
        <time>2016-11-15T14:06:09Z</time>
      </trkpt>
      <trkpt lat="43.49105" lon="6.59641">
        <ele>25.13</ele>
        <time>2016-11-15T14:06:23Z</time>
      </trkpt>
      <trkpt lat="43.49118" lon="6.59664">
        <ele>25.13</ele>
        <time>2016-11-15T14:06:38Z</time>
      </trkpt>
      <trkpt lat="43.49119" lon="6.59667">
        <ele>25.61</ele>
        <time>2016-11-15T14:06:39Z</time>
      </trkpt>
      <trkpt lat="43.49121" lon="6.59675">
        <ele>25.61</ele>
        <time>2016-11-15T14:06:43Z</time>
      </trkpt>
      <trkpt lat="43.49122" lon="6.59678">
        <ele>25.61</ele>
        <time>2016-11-15T14:06:45Z</time>
      </trkpt>
      <trkpt lat="43.4913" lon="6.59697">
        <ele>26.09</ele>
        <time>2016-11-15T14:06:58Z</time>
      </trkpt>
      <trkpt lat="43.49139" lon="6.59722">
        <ele>26.57</ele>
        <time>2016-11-15T14:07:15Z</time>
      </trkpt>
      <trkpt lat="43.49148" lon="6.59743">
        <ele>27.05</ele>
        <time>2016-11-15T14:07:32Z</time>
      </trkpt>
      <trkpt lat="43.49154" lon="6.59758">
        <ele>27.53</ele>
        <time>2016-11-15T14:07:43Z</time>
      </trkpt>
      <trkpt lat="43.49158" lon="6.59765">
        <ele>27.53</ele>
        <time>2016-11-15T14:07:48Z</time>
      </trkpt>
      <trkpt lat="43.49159" lon="6.59769">
        <ele>27.53</ele>
        <time>2016-11-15T14:07:51Z</time>
      </trkpt>
      <trkpt lat="43.49162" lon="6.59773">
        <ele>27.53</ele>
        <time>2016-11-15T14:07:55Z</time>
      </trkpt>
      <trkpt lat="43.49169" lon="6.59787">
        <ele>28.02</ele>
        <time>2016-11-15T14:08:07Z</time>
      </trkpt>
      <trkpt lat="43.49175" lon="6.59807">
        <ele>28.98</ele>
        <time>2016-11-15T14:08:20Z</time>
      </trkpt>
      <trkpt lat="43.49178" lon="6.59815">
        <ele>28.98</ele>
        <time>2016-11-15T14:08:24Z</time>
      </trkpt>
      <trkpt lat="43.49187" lon="6.59831">
        <ele>29.94</ele>
        <time>2016-11-15T14:08:39Z</time>
      </trkpt>
      <trkpt lat="43.4919" lon="6.59836">
        <ele>29.94</ele>
        <time>2016-11-15T14:08:43Z</time>
      </trkpt>
      <trkpt lat="43.49194" lon="6.59841">
        <ele>30.9</ele>
        <time>2016-11-15T14:08:48Z</time>
      </trkpt>
      <trkpt lat="43.49202" lon="6.59861">
        <ele>32.34</ele>
        <time>2016-11-15T14:09:03Z</time>
      </trkpt>
      <trkpt lat="43.49207" lon="6.59872">
        <ele>32.82</ele>
        <time>2016-11-15T14:09:12Z</time>
      </trkpt>
      <trkpt lat="43.49213" lon="6.59887">
        <ele>33.78</ele>
        <time>2016-11-15T14:09:25Z</time>
      </trkpt>
      <trkpt lat="43.49214" lon="6.59892">
        <ele>34.26</ele>
        <time>2016-11-15T14:09:29Z</time>
      </trkpt>
      <trkpt lat="43.49222" lon="6.59892">
        <ele>35.23</ele>
        <time>2016-11-15T14:09:44Z</time>
      </trkpt>
      <trkpt lat="43.49222" lon="6.59891">
        <ele>35.71</ele>
        <time>2016-11-15T14:10:03Z</time>
      </trkpt>
      <trkpt lat="43.49224" lon="6.59889">
        <ele>35.71</ele>
        <time>2016-11-15T14:10:22Z</time>
      </trkpt>
      <trkpt lat="43.49236" lon="6.59889">
        <ele>36.67</ele>
        <time>2016-11-15T14:10:35Z</time>
      </trkpt>
      <trkpt lat="43.49238" lon="6.5989">
        <ele>36.67</ele>
        <time>2016-11-15T14:10:37Z</time>
      </trkpt>
      <trkpt lat="43.49248" lon="6.59899">
        <ele>37.63</ele>
        <time>2016-11-15T14:10:48Z</time>
      </trkpt>
      <trkpt lat="43.4925" lon="6.59901">
        <ele>37.63</ele>
        <time>2016-11-15T14:10:50Z</time>
      </trkpt>
      <trkpt lat="43.49262" lon="6.59914">
        <ele>38.11</ele>
        <time>2016-11-15T14:11:05Z</time>
      </trkpt>
      <trkpt lat="43.49265" lon="6.59917">
        <ele>38.11</ele>
        <time>2016-11-15T14:11:07Z</time>
      </trkpt>
      <trkpt lat="43.49279" lon="6.59927">
        <ele>38.59</ele>
        <time>2016-11-15T14:11:23Z</time>
      </trkpt>
      <trkpt lat="43.49287" lon="6.59937">
        <ele>39.55</ele>
        <time>2016-11-15T14:11:36Z</time>
      </trkpt>
      <trkpt lat="43.49295" lon="6.59951">
        <ele>40.03</ele>
        <time>2016-11-15T14:11:50Z</time>
      </trkpt>
      <trkpt lat="43.4931" lon="6.59961">
        <ele>41.95</ele>
        <time>2016-11-15T14:12:04Z</time>
      </trkpt>
      <trkpt lat="43.49317" lon="6.59967">
        <ele>43.4</ele>
        <time>2016-11-15T14:12:17Z</time>
      </trkpt>
      <trkpt lat="43.4933" lon="6.59976">
        <ele>45.32</ele>
        <time>2016-11-15T14:12:31Z</time>
      </trkpt>
      <trkpt lat="43.49342" lon="6.59988">
        <ele>47.24</ele>
        <time>2016-11-15T14:12:45Z</time>
      </trkpt>
      <trkpt lat="43.49348" lon="6.59994">
        <ele>49.16</ele>
        <time>2016-11-15T14:12:53Z</time>
      </trkpt>
      <trkpt lat="43.49356" lon="6.60002">
        <ele>49.65</ele>
        <time>2016-11-15T14:13:04Z</time>
      </trkpt>
      <trkpt lat="43.49368" lon="6.6001">
        <ele>50.13</ele>
        <time>2016-11-15T14:13:17Z</time>
      </trkpt>
      <trkpt lat="43.49382" lon="6.60023">
        <ele>51.09</ele>
        <time>2016-11-15T14:13:32Z</time>
      </trkpt>
      <trkpt lat="43.4939" lon="6.6003">
        <ele>52.53</ele>
        <time>2016-11-15T14:13:45Z</time>
      </trkpt>
      <trkpt lat="43.49395" lon="6.60034">
        <ele>53.01</ele>
        <time>2016-11-15T14:13:50Z</time>
      </trkpt>
      <trkpt lat="43.49405" lon="6.60044">
        <ele>53.49</ele>
        <time>2016-11-15T14:14:03Z</time>
      </trkpt>
      <trkpt lat="43.49412" lon="6.60052">
        <ele>53.49</ele>
        <time>2016-11-15T14:14:16Z</time>
      </trkpt>
      <trkpt lat="43.49414" lon="6.60054">
        <ele>53.49</ele>
        <time>2016-11-15T14:14:33Z</time>
      </trkpt>
      <trkpt lat="43.49412" lon="6.60054">
        <ele>53.49</ele>
        <time>2016-11-15T14:15:01Z</time>
      </trkpt>
      <trkpt lat="43.49412" lon="6.60054">
        <ele>53.49</ele>
        <time>2016-11-15T14:15:25Z</time>
      </trkpt>
      <trkpt lat="43.49413" lon="6.60054">
        <ele>56.86</ele>
        <time>2016-11-15T14:15:34Z</time>
      </trkpt>
      <trkpt lat="43.49413" lon="6.60054">
        <ele>53.49</ele>
        <time>2016-11-15T14:15:36Z</time>
      </trkpt>
      <trkpt lat="43.49413" lon="6.60054">
        <ele>54.45</ele>
        <time>2016-11-15T14:15:37Z</time>
      </trkpt>
      <trkpt lat="43.49413" lon="6.60053">
        <ele>53.49</ele>
        <time>2016-11-15T14:15:53Z</time>
      </trkpt>
      <trkpt lat="43.49414" lon="6.60053">
        <ele>53.97</ele>
        <time>2016-11-15T14:16:24Z</time>
      </trkpt>
      <trkpt lat="43.49414" lon="6.60052">
        <ele>53.49</ele>
        <time>2016-11-15T14:16:55Z</time>
      </trkpt>
      <trkpt lat="43.49414" lon="6.60052">
        <ele>53.49</ele>
        <time>2016-11-15T14:17:25Z</time>
      </trkpt>
      <trkpt lat="43.49415" lon="6.60051">
        <ele>53.97</ele>
        <time>2016-11-15T14:18:01Z</time>
      </trkpt>
      <trkpt lat="43.49416" lon="6.60054">
        <ele>53.97</ele>
        <time>2016-11-15T14:18:25Z</time>
      </trkpt>
      <trkpt lat="43.49428" lon="6.6007">
        <ele>53.97</ele>
        <time>2016-11-15T14:18:40Z</time>
      </trkpt>
      <trkpt lat="43.49431" lon="6.60074">
        <ele>53.97</ele>
        <time>2016-11-15T14:18:44Z</time>
      </trkpt>
      <trkpt lat="43.49439" lon="6.60084">
        <ele>53.49</ele>
        <time>2016-11-15T14:18:52Z</time>
      </trkpt>
      <trkpt lat="43.49452" lon="6.60096">
        <ele>53.49</ele>
        <time>2016-11-15T14:19:05Z</time>
      </trkpt>
      <trkpt lat="43.49466" lon="6.60109">
        <ele>53.97</ele>
        <time>2016-11-15T14:19:20Z</time>
      </trkpt>
      <trkpt lat="43.4947" lon="6.60113">
        <ele>54.93</ele>
        <time>2016-11-15T14:19:24Z</time>
      </trkpt>
      <trkpt lat="43.4948" lon="6.60126">
        <ele>55.89</ele>
        <time>2016-11-15T14:19:37Z</time>
      </trkpt>
      <trkpt lat="43.49483" lon="6.6013">
        <ele>55.89</ele>
        <time>2016-11-15T14:19:41Z</time>
      </trkpt>
      <trkpt lat="43.49495" lon="6.60144">
        <ele>57.82</ele>
        <time>2016-11-15T14:19:55Z</time>
      </trkpt>
      <trkpt lat="43.49501" lon="6.60153">
        <ele>58.78</ele>
        <time>2016-11-15T14:20:04Z</time>
      </trkpt>
      <trkpt lat="43.49514" lon="6.60168">
        <ele>59.26</ele>
        <time>2016-11-15T14:20:18Z</time>
      </trkpt>
      <trkpt lat="43.49527" lon="6.60182">
        <ele>59.74</ele>
        <time>2016-11-15T14:20:32Z</time>
      </trkpt>
      <trkpt lat="43.49541" lon="6.60192">
        <ele>60.22</ele>
        <time>2016-11-15T14:20:45Z</time>
      </trkpt>
      <trkpt lat="43.49554" lon="6.60199">
        <ele>60.7</ele>
        <time>2016-11-15T14:20:58Z</time>
      </trkpt>
      <trkpt lat="43.49573" lon="6.60201">
        <ele>61.18</ele>
        <time>2016-11-15T14:21:14Z</time>
      </trkpt>
      <trkpt lat="43.49575" lon="6.602">
        <ele>61.18</ele>
        <time>2016-11-15T14:21:16Z</time>
      </trkpt>
      <trkpt lat="43.49591" lon="6.60201">
        <ele>62.14</ele>
        <time>2016-11-15T14:21:31Z</time>
      </trkpt>
      <trkpt lat="43.49592" lon="6.60201">
        <ele>62.14</ele>
        <time>2016-11-15T14:21:32Z</time>
      </trkpt>
      <trkpt lat="43.49595" lon="6.60201">
        <ele>63.1</ele>
        <time>2016-11-15T14:21:35Z</time>
      </trkpt>
      <trkpt lat="43.49612" lon="6.60201">
        <ele>63.1</ele>
        <time>2016-11-15T14:21:50Z</time>
      </trkpt>
      <trkpt lat="43.49626" lon="6.60202">
        <ele>63.58</ele>
        <time>2016-11-15T14:22:03Z</time>
      </trkpt>
      <trkpt lat="43.49641" lon="6.60202">
        <ele>64.07</ele>
        <time>2016-11-15T14:22:16Z</time>
      </trkpt>
      <trkpt lat="43.49644" lon="6.60202">
        <ele>63.58</ele>
        <time>2016-11-15T14:22:20Z</time>
      </trkpt>
      <trkpt lat="43.4965" lon="6.60207">
        <ele>63.58</ele>
        <time>2016-11-15T14:22:26Z</time>
      </trkpt>
      <trkpt lat="43.49655" lon="6.60219">
        <ele>63.58</ele>
        <time>2016-11-15T14:22:37Z</time>
      </trkpt>
      <trkpt lat="43.49661" lon="6.60227">
        <ele>63.58</ele>
        <time>2016-11-15T14:22:44Z</time>
      </trkpt>
      <trkpt lat="43.49674" lon="6.60243">
        <ele>64.07</ele>
        <time>2016-11-15T14:23:00Z</time>
      </trkpt>
      <trkpt lat="43.49683" lon="6.60265">
        <ele>64.55</ele>
        <time>2016-11-15T14:23:16Z</time>
      </trkpt>
      <trkpt lat="43.49692" lon="6.60281">
        <ele>65.51</ele>
        <time>2016-11-15T14:23:30Z</time>
      </trkpt>
      <trkpt lat="43.49693" lon="6.60284">
        <ele>65.99</ele>
        <time>2016-11-15T14:23:32Z</time>
      </trkpt>
      <trkpt lat="43.49698" lon="6.60288">
        <ele>65.99</ele>
        <time>2016-11-15T14:23:37Z</time>
      </trkpt>
      <trkpt lat="43.497" lon="6.60291">
        <ele>66.47</ele>
        <time>2016-11-15T14:23:40Z</time>
      </trkpt>
      <trkpt lat="43.49702" lon="6.60293">
        <ele>66.47</ele>
        <time>2016-11-15T14:23:42Z</time>
      </trkpt>
      <trkpt lat="43.49711" lon="6.60303">
        <ele>67.43</ele>
        <time>2016-11-15T14:23:54Z</time>
      </trkpt>
      <trkpt lat="43.4972" lon="6.6031">
        <ele>68.39</ele>
        <time>2016-11-15T14:24:03Z</time>
      </trkpt>
      <trkpt lat="43.49733" lon="6.60321">
        <ele>68.87</ele>
        <time>2016-11-15T14:24:16Z</time>
      </trkpt>
      <trkpt lat="43.49746" lon="6.60331">
        <ele>69.83</ele>
        <time>2016-11-15T14:24:31Z</time>
      </trkpt>
      <trkpt lat="43.4975" lon="6.60338">
        <ele>69.35</ele>
        <time>2016-11-15T14:24:43Z</time>
      </trkpt>
      <trkpt lat="43.4975" lon="6.60337">
        <ele>69.83</ele>
        <time>2016-11-15T14:25:04Z</time>
      </trkpt>
      <trkpt lat="43.49751" lon="6.60336">
        <ele>69.83</ele>
        <time>2016-11-15T14:25:32Z</time>
      </trkpt>
      <trkpt lat="43.49751" lon="6.60335">
        <ele>69.83</ele>
        <time>2016-11-15T14:26:00Z</time>
      </trkpt>
      <trkpt lat="43.49751" lon="6.60334">
        <ele>69.35</ele>
        <time>2016-11-15T14:26:25Z</time>
      </trkpt>
      <trkpt lat="43.49751" lon="6.60334">
        <ele>69.83</ele>
        <time>2016-11-15T14:26:59Z</time>
      </trkpt>
      <trkpt lat="43.49751" lon="6.60335">
        <ele>69.35</ele>
        <time>2016-11-15T14:27:15Z</time>
      </trkpt>
      <trkpt lat="43.49751" lon="6.60342">
        <ele>69.35</ele>
        <time>2016-11-15T14:27:21Z</time>
      </trkpt>
      <trkpt lat="43.49755" lon="6.60367">
        <ele>70.31</ele>
        <time>2016-11-15T14:27:37Z</time>
      </trkpt>
      <trkpt lat="43.49757" lon="6.60375">
        <ele>70.31</ele>
        <time>2016-11-15T14:27:42Z</time>
      </trkpt>
      <trkpt lat="43.49755" lon="6.60377">
        <ele>70.31</ele>
        <time>2016-11-15T14:27:45Z</time>
      </trkpt>
      <trkpt lat="43.49758" lon="6.6038">
        <ele>70.31</ele>
        <time>2016-11-15T14:27:49Z</time>
      </trkpt>
      <trkpt lat="43.49773" lon="6.60391">
        <ele>70.31</ele>
        <time>2016-11-15T14:28:03Z</time>
      </trkpt>
      <trkpt lat="43.49786" lon="6.60408">
        <ele>71.27</ele>
        <time>2016-11-15T14:28:18Z</time>
      </trkpt>
      <trkpt lat="43.49797" lon="6.60423">
        <ele>71.27</ele>
        <time>2016-11-15T14:28:32Z</time>
      </trkpt>
      <trkpt lat="43.498" lon="6.60428">
        <ele>71.27</ele>
        <time>2016-11-15T14:28:36Z</time>
      </trkpt>
      <trkpt lat="43.49811" lon="6.60451">
        <ele>71.76</ele>
        <time>2016-11-15T14:28:53Z</time>
      </trkpt>
      <trkpt lat="43.4982" lon="6.60464">
        <ele>71.76</ele>
        <time>2016-11-15T14:29:04Z</time>
      </trkpt>
      <trkpt lat="43.49827" lon="6.6048">
        <ele>71.76</ele>
        <time>2016-11-15T14:29:13Z</time>
      </trkpt>
      <trkpt lat="43.49831" lon="6.60489">
        <ele>71.76</ele>
        <time>2016-11-15T14:29:20Z</time>
      </trkpt>
      <trkpt lat="43.49833" lon="6.60492">
        <ele>71.76</ele>
        <time>2016-11-15T14:29:22Z</time>
      </trkpt>
      <trkpt lat="43.49843" lon="6.60508">
        <ele>71.27</ele>
        <time>2016-11-15T14:29:34Z</time>
      </trkpt>
      <trkpt lat="43.49849" lon="6.60518">
        <ele>70.79</ele>
        <time>2016-11-15T14:29:41Z</time>
      </trkpt>
      <trkpt lat="43.49853" lon="6.6053">
        <ele>70.79</ele>
        <time>2016-11-15T14:29:49Z</time>
      </trkpt>
      <trkpt lat="43.49858" lon="6.60553">
        <ele>70.31</ele>
        <time>2016-11-15T14:30:03Z</time>
      </trkpt>
      <trkpt lat="43.49865" lon="6.60581">
        <ele>70.31</ele>
        <time>2016-11-15T14:30:21Z</time>
      </trkpt>
      <trkpt lat="43.49869" lon="6.60586">
        <ele>70.31</ele>
        <time>2016-11-15T14:30:33Z</time>
      </trkpt>
      <trkpt lat="43.4987" lon="6.60585">
        <ele>70.31</ele>
        <time>2016-11-15T14:30:49Z</time>
      </trkpt>
      <trkpt lat="43.49877" lon="6.6058">
        <ele>69.83</ele>
        <time>2016-11-15T14:30:57Z</time>
      </trkpt>
      <trkpt lat="43.49892" lon="6.60573">
        <ele>69.35</ele>
        <time>2016-11-15T14:31:11Z</time>
      </trkpt>
      <trkpt lat="43.49898" lon="6.60571">
        <ele>69.35</ele>
        <time>2016-11-15T14:31:16Z</time>
      </trkpt>
      <trkpt lat="43.49914" lon="6.60561">
        <ele>68.87</ele>
        <time>2016-11-15T14:31:31Z</time>
      </trkpt>
      <trkpt lat="43.49926" lon="6.60554">
        <ele>68.39</ele>
        <time>2016-11-15T14:31:42Z</time>
      </trkpt>
      <trkpt lat="43.49929" lon="6.60551">
        <ele>68.39</ele>
        <time>2016-11-15T14:31:45Z</time>
      </trkpt>
      <trkpt lat="43.49944" lon="6.60543">
        <ele>67.43</ele>
        <time>2016-11-15T14:31:58Z</time>
      </trkpt>
      <trkpt lat="43.49959" lon="6.6053">
        <ele>67.43</ele>
        <time>2016-11-15T14:32:12Z</time>
      </trkpt>
      <trkpt lat="43.49976" lon="6.60519">
        <ele>67.43</ele>
        <time>2016-11-15T14:32:28Z</time>
      </trkpt>
      <trkpt lat="43.49992" lon="6.6051">
        <ele>67.43</ele>
        <time>2016-11-15T14:32:42Z</time>
      </trkpt>
      <trkpt lat="43.50009" lon="6.605">
        <ele>67.43</ele>
        <time>2016-11-15T14:32:57Z</time>
      </trkpt>
      <trkpt lat="43.50027" lon="6.60489">
        <ele>68.39</ele>
        <time>2016-11-15T14:33:13Z</time>
      </trkpt>
      <trkpt lat="43.50034" lon="6.60483">
        <ele>68.39</ele>
        <time>2016-11-15T14:33:20Z</time>
      </trkpt>
      <trkpt lat="43.50051" lon="6.60468">
        <ele>69.83</ele>
        <time>2016-11-15T14:33:37Z</time>
      </trkpt>
      <trkpt lat="43.50067" lon="6.6046">
        <ele>68.87</ele>
        <time>2016-11-15T14:33:51Z</time>
      </trkpt>
      <trkpt lat="43.50082" lon="6.60452">
        <ele>69.35</ele>
        <time>2016-11-15T14:34:05Z</time>
      </trkpt>
      <trkpt lat="43.50094" lon="6.60443">
        <ele>69.35</ele>
        <time>2016-11-15T14:34:17Z</time>
      </trkpt>
      <trkpt lat="43.501" lon="6.60439">
        <ele>69.35</ele>
        <time>2016-11-15T14:34:23Z</time>
      </trkpt>
      <trkpt lat="43.50106" lon="6.60437">
        <ele>69.35</ele>
        <time>2016-11-15T14:34:27Z</time>
      </trkpt>
      <trkpt lat="43.50111" lon="6.60434">
        <ele>69.35</ele>
        <time>2016-11-15T14:34:31Z</time>
      </trkpt>
      <trkpt lat="43.50126" lon="6.60427">
        <ele>69.35</ele>
        <time>2016-11-15T14:34:44Z</time>
      </trkpt>
      <trkpt lat="43.50142" lon="6.60421">
        <ele>69.35</ele>
        <time>2016-11-15T14:34:59Z</time>
      </trkpt>
      <trkpt lat="43.50158" lon="6.60413">
        <ele>68.87</ele>
        <time>2016-11-15T14:35:13Z</time>
      </trkpt>
      <trkpt lat="43.50175" lon="6.60403">
        <ele>68.39</ele>
        <time>2016-11-15T14:35:27Z</time>
      </trkpt>
      <trkpt lat="43.50177" lon="6.60402">
        <ele>68.87</ele>
        <time>2016-11-15T14:35:28Z</time>
      </trkpt>
      <trkpt lat="43.50184" lon="6.60399">
        <ele>68.87</ele>
        <time>2016-11-15T14:35:35Z</time>
      </trkpt>
      <trkpt lat="43.50192" lon="6.60395">
        <ele>68.87</ele>
        <time>2016-11-15T14:35:43Z</time>
      </trkpt>
      <trkpt lat="43.502" lon="6.60392">
        <ele>68.87</ele>
        <time>2016-11-15T14:35:50Z</time>
      </trkpt>
      <trkpt lat="43.50205" lon="6.60389">
        <ele>68.87</ele>
        <time>2016-11-15T14:35:55Z</time>
      </trkpt>
      <trkpt lat="43.5021" lon="6.60387">
        <ele>68.87</ele>
        <time>2016-11-15T14:36:00Z</time>
      </trkpt>
      <trkpt lat="43.50212" lon="6.60386">
        <ele>68.87</ele>
        <time>2016-11-15T14:36:02Z</time>
      </trkpt>
      <trkpt lat="43.50224" lon="6.6038">
        <ele>69.35</ele>
        <time>2016-11-15T14:36:14Z</time>
      </trkpt>
      <trkpt lat="43.5024" lon="6.60373">
        <ele>69.35</ele>
        <time>2016-11-15T14:36:29Z</time>
      </trkpt>
      <trkpt lat="43.5026" lon="6.60367">
        <ele>69.35</ele>
        <time>2016-11-15T14:36:44Z</time>
      </trkpt>
      <trkpt lat="43.50278" lon="6.60362">
        <ele>69.35</ele>
        <time>2016-11-15T14:36:59Z</time>
      </trkpt>
      <trkpt lat="43.50282" lon="6.6036">
        <ele>69.35</ele>
        <time>2016-11-15T14:37:04Z</time>
      </trkpt>
      <trkpt lat="43.50289" lon="6.60359">
        <ele>69.83</ele>
        <time>2016-11-15T14:37:10Z</time>
      </trkpt>
      <trkpt lat="43.50299" lon="6.60354">
        <ele>69.83</ele>
        <time>2016-11-15T14:37:19Z</time>
      </trkpt>
      <trkpt lat="43.50314" lon="6.60346">
        <ele>69.83</ele>
        <time>2016-11-15T14:37:32Z</time>
      </trkpt>
      <trkpt lat="43.50332" lon="6.6034">
        <ele>70.31</ele>
        <time>2016-11-15T14:37:46Z</time>
      </trkpt>
      <trkpt lat="43.5035" lon="6.60328">
        <ele>70.79</ele>
        <time>2016-11-15T14:38:00Z</time>
      </trkpt>
      <trkpt lat="43.50354" lon="6.60326">
        <ele>70.79</ele>
        <time>2016-11-15T14:38:04Z</time>
      </trkpt>
      <trkpt lat="43.50365" lon="6.60319">
        <ele>71.27</ele>
        <time>2016-11-15T14:38:14Z</time>
      </trkpt>
      <trkpt lat="43.50372" lon="6.60314">
        <ele>71.76</ele>
        <time>2016-11-15T14:38:22Z</time>
      </trkpt>
      <trkpt lat="43.50387" lon="6.60303">
        <ele>72.72</ele>
        <time>2016-11-15T14:38:36Z</time>
      </trkpt>
      <trkpt lat="43.50397" lon="6.60295">
        <ele>73.68</ele>
        <time>2016-11-15T14:38:46Z</time>
      </trkpt>
      <trkpt lat="43.50403" lon="6.60291">
        <ele>74.16</ele>
        <time>2016-11-15T14:38:53Z</time>
      </trkpt>
      <trkpt lat="43.50406" lon="6.60289">
        <ele>74.16</ele>
        <time>2016-11-15T14:38:56Z</time>
      </trkpt>
      <trkpt lat="43.50413" lon="6.60284">
        <ele>74.64</ele>
        <time>2016-11-15T14:39:03Z</time>
      </trkpt>
      <trkpt lat="43.50428" lon="6.60274">
        <ele>76.08</ele>
        <time>2016-11-15T14:39:18Z</time>
      </trkpt>
      <trkpt lat="43.50443" lon="6.60263">
        <ele>77.04</ele>
        <time>2016-11-15T14:39:33Z</time>
      </trkpt>
      <trkpt lat="43.50459" lon="6.6025">
        <ele>78.48</ele>
        <time>2016-11-15T14:39:49Z</time>
      </trkpt>
      <trkpt lat="43.50465" lon="6.60247">
        <ele>78.97</ele>
        <time>2016-11-15T14:39:55Z</time>
      </trkpt>
      <trkpt lat="43.50469" lon="6.60245">
        <ele>78.97</ele>
        <time>2016-11-15T14:39:59Z</time>
      </trkpt>
      <trkpt lat="43.50477" lon="6.6024">
        <ele>79.45</ele>
        <time>2016-11-15T14:40:13Z</time>
      </trkpt>
      <trkpt lat="43.50476" lon="6.60238">
        <ele>79.45</ele>
        <time>2016-11-15T14:40:35Z</time>
      </trkpt>
      <trkpt lat="43.50476" lon="6.60238">
        <ele>79.45</ele>
        <time>2016-11-15T14:40:57Z</time>
      </trkpt>
      <trkpt lat="43.50476" lon="6.60238">
        <ele>79.45</ele>
        <time>2016-11-15T14:41:19Z</time>
      </trkpt>
      <trkpt lat="43.50477" lon="6.60236">
        <ele>79.93</ele>
        <time>2016-11-15T14:41:52Z</time>
      </trkpt>
      <trkpt lat="43.50477" lon="6.60235">
        <ele>79.45</ele>
        <time>2016-11-15T14:42:15Z</time>
      </trkpt>
      <trkpt lat="43.50477" lon="6.60235">
        <ele>79.45</ele>
        <time>2016-11-15T14:42:34Z</time>
      </trkpt>
      <trkpt lat="43.50477" lon="6.60235">
        <ele>79.45</ele>
        <time>2016-11-15T14:43:04Z</time>
      </trkpt>
      <trkpt lat="43.50478" lon="6.60235">
        <ele>79.45</ele>
        <time>2016-11-15T14:43:21Z</time>
      </trkpt>
      <trkpt lat="43.50478" lon="6.60236">
        <ele>79.45</ele>
        <time>2016-11-15T14:43:43Z</time>
      </trkpt>
      <trkpt lat="43.50479" lon="6.60235">
        <ele>79.45</ele>
        <time>2016-11-15T14:44:05Z</time>
      </trkpt>
      <trkpt lat="43.50481" lon="6.60234">
        <ele>79.45</ele>
        <time>2016-11-15T14:44:08Z</time>
      </trkpt>
      <trkpt lat="43.50482" lon="6.60233">
        <ele>79.45</ele>
        <time>2016-11-15T14:44:10Z</time>
      </trkpt>
      <trkpt lat="43.50484" lon="6.60232">
        <ele>79.93</ele>
        <time>2016-11-15T14:44:12Z</time>
      </trkpt>
      <trkpt lat="43.50488" lon="6.60229">
        <ele>79.93</ele>
        <time>2016-11-15T14:44:17Z</time>
      </trkpt>
      <trkpt lat="43.50505" lon="6.60219">
        <ele>79.93</ele>
        <time>2016-11-15T14:44:33Z</time>
      </trkpt>
      <trkpt lat="43.50517" lon="6.60211">
        <ele>80.41</ele>
        <time>2016-11-15T14:44:47Z</time>
      </trkpt>
      <trkpt lat="43.5052" lon="6.6021">
        <ele>80.41</ele>
        <time>2016-11-15T14:44:50Z</time>
      </trkpt>
      <trkpt lat="43.50538" lon="6.60191">
        <ele>79.93</ele>
        <time>2016-11-15T14:45:07Z</time>
      </trkpt>
      <trkpt lat="43.50539" lon="6.6019">
        <ele>79.93</ele>
        <time>2016-11-15T14:45:08Z</time>
      </trkpt>
      <trkpt lat="43.50542" lon="6.60186">
        <ele>79.93</ele>
        <time>2016-11-15T14:45:12Z</time>
      </trkpt>
      <trkpt lat="43.50547" lon="6.60183">
        <ele>79.93</ele>
        <time>2016-11-15T14:45:16Z</time>
      </trkpt>
      <trkpt lat="43.50553" lon="6.60178">
        <ele>79.93</ele>
        <time>2016-11-15T14:45:21Z</time>
      </trkpt>
      <trkpt lat="43.50564" lon="6.60169">
        <ele>79.93</ele>
        <time>2016-11-15T14:45:31Z</time>
      </trkpt>
      <trkpt lat="43.50567" lon="6.60168">
        <ele>79.93</ele>
        <time>2016-11-15T14:45:33Z</time>
      </trkpt>
      <trkpt lat="43.50576" lon="6.60156">
        <ele>79.93</ele>
        <time>2016-11-15T14:45:43Z</time>
      </trkpt>
      <trkpt lat="43.5059" lon="6.60138">
        <ele>79.93</ele>
        <time>2016-11-15T14:45:59Z</time>
      </trkpt>
      <trkpt lat="43.50599" lon="6.60122">
        <ele>79.45</ele>
        <time>2016-11-15T14:46:11Z</time>
      </trkpt>
      <trkpt lat="43.50607" lon="6.6011">
        <ele>78.97</ele>
        <time>2016-11-15T14:46:21Z</time>
      </trkpt>
      <trkpt lat="43.50616" lon="6.60097">
        <ele>78.48</ele>
        <time>2016-11-15T14:46:31Z</time>
      </trkpt>
      <trkpt lat="43.50619" lon="6.60092">
        <ele>78</ele>
        <time>2016-11-15T14:46:35Z</time>
      </trkpt>
      <trkpt lat="43.50627" lon="6.60078">
        <ele>77.52</ele>
        <time>2016-11-15T14:46:46Z</time>
      </trkpt>
      <trkpt lat="43.50632" lon="6.60069">
        <ele>76.56</ele>
        <time>2016-11-15T14:46:53Z</time>
      </trkpt>
      <trkpt lat="43.50636" lon="6.60063">
        <ele>76.08</ele>
        <time>2016-11-15T14:46:58Z</time>
      </trkpt>
      <trkpt lat="43.50638" lon="6.60058">
        <ele>75.6</ele>
        <time>2016-11-15T14:47:02Z</time>
      </trkpt>
      <trkpt lat="43.50643" lon="6.60053">
        <ele>75.6</ele>
        <time>2016-11-15T14:47:06Z</time>
      </trkpt>
      <trkpt lat="43.5065" lon="6.60042">
        <ele>74.64</ele>
        <time>2016-11-15T14:47:16Z</time>
      </trkpt>
      <trkpt lat="43.50654" lon="6.60036">
        <ele>74.16</ele>
        <time>2016-11-15T14:47:21Z</time>
      </trkpt>
      <trkpt lat="43.50657" lon="6.60029">
        <ele>73.68</ele>
        <time>2016-11-15T14:47:26Z</time>
      </trkpt>
      <trkpt lat="43.50668" lon="6.60011">
        <ele>72.72</ele>
        <time>2016-11-15T14:47:39Z</time>
      </trkpt>
      <trkpt lat="43.50683" lon="6.59996">
        <ele>71.76</ele>
        <time>2016-11-15T14:47:53Z</time>
      </trkpt>
      <trkpt lat="43.50695" lon="6.59984">
        <ele>70.31</ele>
        <time>2016-11-15T14:48:06Z</time>
      </trkpt>
      <trkpt lat="43.50707" lon="6.59974">
        <ele>69.35</ele>
        <time>2016-11-15T14:48:21Z</time>
      </trkpt>
      <trkpt lat="43.50704" lon="6.59972">
        <ele>69.35</ele>
        <time>2016-11-15T14:48:34Z</time>
      </trkpt>
      <trkpt lat="43.50709" lon="6.59975">
        <ele>68.87</ele>
        <time>2016-11-15T14:48:47Z</time>
      </trkpt>
      <trkpt lat="43.50715" lon="6.59977">
        <ele>68.87</ele>
        <time>2016-11-15T14:48:55Z</time>
      </trkpt>
      <trkpt lat="43.50721" lon="6.59978">
        <ele>67.91</ele>
        <time>2016-11-15T14:49:01Z</time>
      </trkpt>
      <trkpt lat="43.50722" lon="6.59978">
        <ele>72.72</ele>
        <time>2016-11-15T14:49:03Z</time>
      </trkpt>
      <trkpt lat="43.50722" lon="6.59977">
        <ele>68.87</ele>
        <time>2016-11-15T14:49:04Z</time>
      </trkpt>
      <trkpt lat="43.50734" lon="6.59976">
        <ele>69.35</ele>
        <time>2016-11-15T14:49:19Z</time>
      </trkpt>
      <trkpt lat="43.50741" lon="6.59975">
        <ele>69.83</ele>
        <time>2016-11-15T14:49:30Z</time>
      </trkpt>
      <trkpt lat="43.50743" lon="6.59976">
        <ele>69.83</ele>
        <time>2016-11-15T14:49:43Z</time>
      </trkpt>
      <trkpt lat="43.5075" lon="6.59977">
        <ele>70.31</ele>
        <time>2016-11-15T14:49:57Z</time>
      </trkpt>
      <trkpt lat="43.50752" lon="6.59978">
        <ele>70.31</ele>
        <time>2016-11-15T14:50:10Z</time>
      </trkpt>
      <trkpt lat="43.50752" lon="6.59978">
        <ele>69.35</ele>
        <time>2016-11-15T14:50:33Z</time>
      </trkpt>
    </trkseg>
  </trk>
</gpx>